Provisional Data: Grays Run near Gray, PA


Please select a monitoring station.
Please select start date.
Please select start date.

Toggle Unit: C/F Toggle Unit: C/F
Sample Time Temperature (C) Temperature (F) Specific Conductivity (mS/cm) pH   Turbidity (NTU+) DO (mg/L)
1/12/2021 12:00:00 AM 2.67 36.806 0.03 6.56 3.56 13.1
1/12/2021 12:15:00 AM 2.65 36.77 0.032 6.57 1.63 13.14
1/12/2021 12:30:00 AM 2.65 36.77 0.032 6.56 1.64 13.14
1/12/2021 12:45:00 AM 2.64 36.752 0.032 6.59 1.64 13.1
1/12/2021 1:00:00 AM 2.63 36.734 0.032 6.58 1.64 13.14
1/12/2021 1:15:00 AM 2.62 36.716 0.031 6.57 3.24 13.13
1/12/2021 1:30:00 AM 2.59 36.662 0.032 6.57 1.62 13.13
1/12/2021 1:45:00 AM 2.61 36.698 0.031 6.57 3.26 13.14
1/12/2021 2:00:00 AM 2.58 36.644 0.032 6.55 1.63 13.13
1/12/2021 2:15:00 AM 2.57 36.626 0.032 6.57 1.57 13.16
1/12/2021 2:30:00 AM 2.55 36.59 0.032 6.57 1.62 13.16
1/12/2021 2:45:00 AM 2.56 36.608 0.032 6.57 1.62 13.17
1/12/2021 3:00:00 AM 2.54 36.572 0.032 6.57 1.61 13.2
1/12/2021 3:15:00 AM 2.53 36.554 0.031 6.57 3.3 13.17
1/12/2021 3:30:00 AM 2.5 36.5 0.031 6.56 3.24 13.15
1/12/2021 3:45:00 AM 2.47 36.446 0.032 6.57 1.62 13.18
1/12/2021 4:00:00 AM 2.46 36.428 0.032 6.57 1.61 13.19
1/12/2021 4:15:00 AM 2.42 36.356 0.032 6.57 1.62 13.23
1/12/2021 4:30:00 AM 2.42 36.356 0.032 6.57 1.63 13.2
1/12/2021 4:45:00 AM 2.42 36.356 0.031 6.56 3.32 13.18
1/12/2021 5:00:00 AM 2.38 36.284 0.03 6.56 3.23 13.21
1/12/2021 5:15:00 AM 2.36 36.248 0.032 6.56 1.61 13.22
1/12/2021 5:30:00 AM 2.34 36.212 0.032 6.57 1.59 13.21
1/12/2021 5:45:00 AM 2.34 36.212 0.031 6.57 3.33 13.26
1/12/2021 6:00:00 AM 2.32 36.176 0.03 6.56 3.27 13.23
1/12/2021 6:15:00 AM 2.28 36.104 0.03 6.56 3.29 13.27
1/12/2021 6:30:00 AM 2.25 36.05 0.032 6.55 1.62 13.27
1/12/2021 6:45:00 AM 2.26 36.068 0.03 6.57 3.44 13.27
1/12/2021 7:00:00 AM 2.23 36.014 0.03 6.56 3.16 13.29
1/12/2021 7:15:00 AM 2.21 35.978 0.032 6.57 1.56 13.31
1/12/2021 7:30:00 AM 2.2 35.96 0.032 6.57 1.64 13.31
1/12/2021 7:45:00 AM 2.2 35.96 0.031 6.57 3.54 13.32
1/12/2021 8:00:00 AM 2.18 35.924 0.032 6.57 1.61 13.32
1/12/2021 8:15:00 AM 2.2 35.96 0.032 6.58 1.62 13.32
1/12/2021 8:30:00 AM 2.21 35.978 0.031 6.57 3.47 13.33
1/12/2021 8:45:00 AM 2.22 35.996 0.03 6.57 3.52 13.35
1/12/2021 9:00:00 AM 2.24 36.032 0.03 6.57 3.45 13.34
1/12/2021 9:15:00 AM 2.25 36.05 0.032 6.58 1.61 13.34
1/12/2021 9:30:00 AM 2.3 36.14 0.032 6.6 1.64 13.33
1/12/2021 9:45:00 AM 2.34 36.212 0.032 6.6 1.6 13.33
1/12/2021 10:00:00 AM 2.37 36.266 0.032 6.6 1.62 13.34
1/12/2021 10:15:00 AM 2.44 36.392 0.032 6.59 1.61 13.31
1/12/2021 10:30:00 AM 2.49 36.482 0.032 6.6 1.6 13.3
1/12/2021 10:45:00 AM 2.54 36.572 0.032 6.61 1.61 13.24
1/12/2021 11:00:00 AM 2.58 36.644 0.032 6.61 1.64 13.25
1/12/2021 11:15:00 AM 2.63 36.734 0.032 6.61 1.59 13.25
1/12/2021 11:30:00 AM 2.71 36.878 0.032 6.61 1.61 13.22
1/12/2021 11:45:00 AM 2.76 36.968 0.032 6.61 1.61 13.2
1/12/2021 12:00:00 PM 2.84 37.112 0.03 6.6 3.09 13.15
1/12/2021 12:15:00 PM 2.88 37.184 0.032 6.61 1.62 13.16
1/12/2021 12:30:00 PM 2.93 37.274 0.032 6.62 1.6 13.1
1/12/2021 12:45:00 PM 3 37.4 0.032 6.6 1.58 13.09
1/12/2021 1:00:00 PM 3.07 37.526 0.031 6.61 3.28 13.07
1/12/2021 1:15:00 PM 3.11 37.598 0.032 6.63 1.58 13.07
1/12/2021 1:30:00 PM 3.16 37.688 0.032 6.62 1.63 13.04
1/12/2021 1:45:00 PM 3.22 37.796 0.032 6.62 1.61 13.02
1/12/2021 2:00:00 PM 3.25 37.85 0.032 6.62 1.61 12.98
1/12/2021 2:15:00 PM 3.31 37.958 0.032 6.62 1.57 12.94
1/12/2021 2:30:00 PM 3.33 37.994 0.032 6.62 1.63 12.91
1/12/2021 2:45:00 PM 3.36 38.048 0.031 6.6 3.17 12.92
1/12/2021 3:00:00 PM 3.37 38.066 0.032 6.62 1.59 12.88
1/12/2021 3:15:00 PM 3.38 38.084 0.032 6.62 1.62 12.85
1/12/2021 3:30:00 PM 3.39 38.102 0.031 6.59 3.16 12.87
1/12/2021 3:45:00 PM 3.41 38.138 0.03 6.59 3.33 12.88
1/12/2021 4:00:00 PM 3.4 38.12 0.03 6.58 3.08 12.86
1/12/2021 4:15:00 PM 3.4 38.12 0.03 6.57 3.22 12.86
1/12/2021 4:30:00 PM 3.38 38.084 0.032 6.6 1.6 12.83
1/12/2021 4:45:00 PM 3.37 38.066 0.032 6.59 1.61 12.8
1/12/2021 5:00:00 PM 3.36 38.048 0.032 6.59 1.62 12.84
1/12/2021 5:15:00 PM 3.35 38.03 0.032 6.59 1.59 12.82
1/12/2021 5:30:00 PM 3.33 37.994 0.032 6.57 1.62 12.83
1/12/2021 5:45:00 PM 3.32 37.976 0.032 6.59 1.59 12.81
1/12/2021 6:00:00 PM 3.31 37.958 0.031 6.56 3.39 12.86
1/12/2021 6:15:00 PM 3.3 37.94 0.032 6.58 1.6 12.87
1/12/2021 6:30:00 PM 3.29 37.922 0.031 6.56 3.22 12.84
1/12/2021 6:45:00 PM 3.27 37.886 0.032 6.58 1.64 12.84
1/12/2021 7:00:00 PM 3.25 37.85 0.032 6.58 1.63 12.82
1/12/2021 7:15:00 PM 3.25 37.85 0.032 6.59 1.63 12.86
1/12/2021 7:30:00 PM 3.26 37.868 0.031 6.56 3.5 12.87
1/12/2021 7:45:00 PM 3.24 37.832 0.032 6.58 1.65 12.86
1/12/2021 8:00:00 PM 3.22 37.796 0.032 6.59 1.63 12.86
1/12/2021 8:15:00 PM 3.23 37.814 0.031 6.57 3.4 12.88
1/12/2021 8:30:00 PM 3.21 37.778 0.032 6.58 1.64 12.86
1/12/2021 8:45:00 PM 3.19 37.742 0.032 6.58 1.61 12.83
1/12/2021 9:00:00 PM 3.2 37.76 0.031 6.56 3.21 12.88
1/12/2021 9:15:00 PM 3.21 37.778 0.031 6.57 3.47 12.88
1/12/2021 9:30:00 PM 3.21 37.778 0.031 6.56 3.22 12.86
1/12/2021 9:45:00 PM 3.21 37.778 0.03 6.56 3.41 12.87
1/12/2021 10:00:00 PM 3.2 37.76 0.032 6.58 1.64 12.83
1/12/2021 10:15:00 PM 3.21 37.778 0.032 6.58 1.62 12.85
1/12/2021 10:30:00 PM 3.21 37.778 0.032 6.58 1.58 12.85
1/12/2021 10:45:00 PM 3.19 37.742 0.032 6.58 1.61 12.8
1/12/2021 11:00:00 PM 3.2 37.76 0.031 6.56 3.24 12.9
1/12/2021 11:15:00 PM 3.19 37.742 0.03 6.56 3.21 12.88
1/12/2021 11:30:00 PM 3.18 37.724 0.032 6.58 1.61 12.83
1/12/2021 11:45:00 PM 3.18 37.724 0.032 6.57 1.64 12.82
1/13/2021 12:00:00 AM 3.18 37.724 0.031 6.56 3.41 12.87
1/13/2021 12:15:00 AM 3.2 37.76 0.03 6.56 3.3 12.86
1/13/2021 12:30:00 AM 3.17 37.706 0.032 6.58 1.66 12.9
1/13/2021 12:45:00 AM 3.18 37.724 0.031 6.56 3.37 12.89
1/13/2021 1:00:00 AM 3.18 37.724 0.03 6.55 3.3 12.86
1/13/2021 1:15:00 AM 3.18 37.724 0.032 6.58 1.63 12.86
1/13/2021 1:30:00 AM 3.18 37.724 0.031 6.55 3.3 12.84
1/13/2021 1:45:00 AM 3.18 37.724 0.032 6.57 1.6 12.84
1/13/2021 2:00:00 AM 3.18 37.724 0.031 6.56 3.14 12.88
1/13/2021 2:15:00 AM 3.17 37.706 0.032 6.57 1.59 12.91
1/13/2021 2:30:00 AM 3.17 37.706 0.032 6.58 1.63 12.88
1/13/2021 2:45:00 AM 3.17 37.706 0.032 6.58 1.66 12.86
1/13/2021 3:00:00 AM 3.17 37.706 0.032 6.56 1.62 12.87
1/13/2021 3:15:00 AM 3.17 37.706 0.032 6.58 1.61 12.91
1/13/2021 3:30:00 AM 3.17 37.706 0.031 6.56 3.38 12.89
1/13/2021 3:45:00 AM 3.17 37.706 0.032 6.58 1.63 12.85
1/13/2021 4:00:00 AM 3.16 37.688 0.032 6.58 1.64 12.88
1/13/2021 4:15:00 AM 3.16 37.688 0.032 6.58 1.64 12.83
1/13/2021 4:30:00 AM 3.17 37.706 0.032 6.58 1.63 12.85
1/13/2021 4:45:00 AM 3.16 37.688 0.032 6.58 1.61 12.85
1/13/2021 5:00:00 AM 3.16 37.688 0.032 6.58 1.63 12.89
1/13/2021 5:15:00 AM 3.18 37.724 0.031 6.56 3.4 12.89
1/13/2021 5:30:00 AM 3.17 37.706 0.032 6.59 1.59 12.88
1/13/2021 5:45:00 AM 3.15 37.67 0.032 6.58 1.62 12.91
1/13/2021 6:00:00 AM 3.13 37.634 0.032 6.58 1.63 12.92
1/13/2021 6:15:00 AM 3.14 37.652 0.03 6.57 3.33 12.89
1/13/2021 6:30:00 AM 3.14 37.652 0.032 6.58 1.61 12.88
1/13/2021 6:45:00 AM 3.13 37.634 0.032 6.59 1.64 12.89
1/13/2021 7:00:00 AM 3.12 37.616 0.032 6.59 1.58 12.86
1/13/2021 7:15:00 AM 3.14 37.652 0.031 6.57 3.25 12.86
1/13/2021 7:30:00 AM 3.12 37.616 0.032 6.59 1.62 12.88
1/13/2021 7:45:00 AM 3.13 37.634 0.032 6.59 1.59 12.88
1/13/2021 8:00:00 AM 3.11 37.598 0.032 6.59 1.6 12.91
1/13/2021 8:15:00 AM 3.12 37.616 0.031 6.58 3.06 12.91
1/13/2021 8:30:00 AM 3.13 37.634 0.032 6.59 1.63 12.93
1/13/2021 8:45:00 AM 3.12 37.616 0.032 6.6 1.63 12.9
1/13/2021 9:00:00 AM 3.12 37.616 0.032 6.6 1.61 12.92
1/13/2021 9:15:00 AM 3.14 37.652 0.031 6.58 3.14 12.92
1/13/2021 9:30:00 AM 3.12 37.616 0.032 6.6 1.61 12.92
1/13/2021 9:45:00 AM 3.14 37.652 0.031 6.58 3.06 12.93
1/13/2021 10:00:00 AM 3.14 37.652 0.03 6.59 3.21 12.95
1/13/2021 10:15:00 AM 3.13 37.634 0.032 6.6 1.59 12.98
1/13/2021 10:30:00 AM 3.15 37.67 0.031 6.59 3.15 12.94
1/13/2021 10:45:00 AM 3.14 37.652 0.03 6.59 3.02 12.97
1/13/2021 11:00:00 AM 3.14 37.652 0.03 6.6 3.08 12.96
1/13/2021 11:15:00 AM 3.15 37.67 0.032 6.61 1.6 12.97
1/13/2021 11:30:00 AM 3.17 37.706 0.031 6.6 3.07 12.94
1/13/2021 11:45:00 AM 3.17 37.706 0.032 6.62 1.63 12.95
1/13/2021 12:00:00 PM 3.18 37.724 0.032 6.61 1.6 12.96
1/13/2021 12:15:00 PM 3.21 37.778 0.031 6.6 3.31 12.94
1/13/2021 12:30:00 PM 3.21 37.778 0.032 6.62 1.63 12.96
1/13/2021 12:45:00 PM 3.23 37.814 0.032 6.62 1.58 12.94
1/13/2021 1:00:00 PM 3.26 37.868 0.032 6.62 1.62 12.93
1/13/2021 1:15:00 PM 3.3 37.94 0.03 6.61 3.35 12.9
1/13/2021 1:30:00 PM 3.33 37.994 0.032 6.62 1.63 12.91
1/13/2021 1:45:00 PM 3.41 38.138 0.031 6.61 3.29 12.85
1/13/2021 2:00:00 PM 3.43 38.174 0.032 6.63 1.61 12.86
1/13/2021 2:15:00 PM 3.46 38.228 0.032 6.63 1.6 12.86
1/13/2021 2:30:00 PM 3.49 38.282 0.032 6.63 1.61 12.85
1/13/2021 2:45:00 PM 3.51 38.318 0.032 6.63 1.6 12.8
1/13/2021 3:00:00 PM 3.55 38.39 0.031 6.6 3.31 12.81
1/13/2021 3:15:00 PM 3.57 38.426 0.03 6.61 3.27 12.81
1/13/2021 3:30:00 PM 3.57 38.426 0.032 6.62 1.62 12.82
1/13/2021 3:45:00 PM 3.59 38.462 0.031 6.6 3.49 12.77
1/13/2021 4:00:00 PM 3.6 38.48 0.03 6.6 3.41 12.74
1/13/2021 4:15:00 PM 3.59 38.462 0.032 6.62 1.62 12.72
1/13/2021 4:30:00 PM 3.59 38.462 0.032 6.61 1.58 12.75
1/13/2021 4:45:00 PM 3.6 38.48 0.031 6.59 3.32 12.7
1/13/2021 5:00:00 PM 3.57 38.426 0.032 6.6 1.6 12.68
1/13/2021 5:15:00 PM 3.55 38.39 0.032 6.59 1.59 12.71
1/13/2021 5:30:00 PM 3.55 38.39 0.031 6.57 3.43 12.7
1/13/2021 5:45:00 PM 3.52 38.336 0.03 6.57 3.36 12.69
1/13/2021 6:00:00 PM 3.5 38.3 0.032 6.57 1.63 12.7
1/13/2021 6:15:00 PM 3.48 38.264 0.031 6.57 3.2 12.7
1/13/2021 6:30:00 PM 3.43 38.174 0.032 6.58 1.63 12.74
1/13/2021 6:45:00 PM 3.42 38.156 0.031 6.56 3.53 12.73
1/13/2021 7:00:00 PM 3.39 38.102 0.03 6.57 3.34 12.73
1/13/2021 7:15:00 PM 3.37 38.066 0.032 6.58 1.6 12.74
1/13/2021 7:30:00 PM 3.36 38.048 0.031 6.57 3.59 12.75
1/13/2021 7:45:00 PM 3.36 38.048 0.03 6.57 3.39 12.75
1/13/2021 8:00:00 PM 3.33 37.994 0.032 6.57 1.65 12.79
1/13/2021 8:15:00 PM 3.33 37.994 0.032 6.59 1.59 12.75
1/13/2021 8:30:00 PM 3.32 37.976 0.031 6.58 3.37 12.78
1/13/2021 8:45:00 PM 3.3 37.94 0.032 6.58 1.61 12.78
1/13/2021 9:00:00 PM 3.29 37.922 0.032 6.59 1.6 12.78
1/13/2021 9:15:00 PM 3.29 37.922 0.032 6.59 1.62 12.78
1/13/2021 9:30:00 PM 3.29 37.922 0.032 6.59 1.62 12.78
1/13/2021 9:45:00 PM 3.3 37.94 0.031 6.57 3.37 12.79
1/13/2021 10:00:00 PM 3.26 37.868 0.032 6.59 1.61 12.81
1/13/2021 10:15:00 PM 3.26 37.868 0.032 6.59 1.63 12.82
1/13/2021 10:30:00 PM 3.27 37.886 0.031 6.57 3.44 12.78
1/13/2021 10:45:00 PM 3.26 37.868 0.031 6.56 3.38 12.78
1/13/2021 11:00:00 PM 3.25 37.85 0.032 6.58 1.6 12.79
1/13/2021 11:15:00 PM 3.23 37.814 0.032 6.59 1.63 12.83
1/13/2021 11:30:00 PM 3.26 37.868 0.031 6.56 3.43 12.79
1/13/2021 11:45:00 PM 3.25 37.85 0.032 6.59 1.66 12.81
1/14/2021 12:00:00 AM 3.25 37.85 0.032 6.59 1.63 12.81
1/14/2021 12:15:00 AM 3.27 37.886 0.031 6.56 3.28 12.76
1/14/2021 12:30:00 AM 3.24 37.832 0.031 6.56 3.24 12.79
1/14/2021 12:45:00 AM 3.24 37.832 0.032 6.58 1.61 12.84
1/14/2021 1:00:00 AM 3.23 37.814 0.032 6.58 1.62 12.81
1/14/2021 1:15:00 AM 3.24 37.832 0.032 6.59 1.65 12.81
1/14/2021 1:30:00 AM 3.25 37.85 0.031 6.56 3.18 12.79
1/14/2021 1:45:00 AM 3.24 37.832 0.032 6.58 1.63 12.79
1/14/2021 2:00:00 AM 3.23 37.814 0.032 6.58 1.62 12.79
1/14/2021 2:15:00 AM 3.24 37.832 0.032 6.58 1.63 12.8
1/14/2021 2:30:00 AM 3.23 37.814 0.032 6.58 1.63 12.82
1/14/2021 2:45:00 AM 3.23 37.814 0.032 6.58 1.64 12.8
1/14/2021 3:00:00 AM 3.24 37.832 0.032 6.58 1.61 12.8
1/14/2021 3:15:00 AM 3.25 37.85 0.03 6.56 3.11 12.78
1/14/2021 3:30:00 AM 3.24 37.832 0.032 6.58 1.66 12.8
1/14/2021 3:45:00 AM 3.24 37.832 0.032 6.59 1.65 12.79
1/14/2021 4:00:00 AM 3.26 37.868 0.031 6.56 3.31 12.78
1/14/2021 4:15:00 AM 3.24 37.832 0.032 6.57 1.63 12.77
1/14/2021 4:30:00 AM 3.26 37.868 0.031 6.57 3.33 12.78
1/14/2021 4:45:00 AM 3.26 37.868 0.03 6.56 3.45 12.78
1/14/2021 5:00:00 AM 3.27 37.886 0.031 6.56 3.22 12.78
1/14/2021 5:15:00 AM 3.27 37.886 0.032 6.59 1.65 12.8
1/14/2021 5:30:00 AM 3.27 37.886 0.032 6.58 1.62 12.8
1/14/2021 5:45:00 AM 3.29 37.922 0.031 6.56 3.38 12.77
1/14/2021 6:00:00 AM 3.28 37.904 0.03 6.56 3.27 12.78
1/14/2021 6:15:00 AM 3.26 37.868 0.032 6.57 1.64 12.81
1/14/2021 6:30:00 AM 3.26 37.868 0.031 6.56 3.13 12.77
1/14/2021 6:45:00 AM 3.25 37.85 0.032 6.58 1.62 12.81
1/14/2021 7:00:00 AM 3.23 37.814 0.032 6.58 1.65 12.81
1/14/2021 7:15:00 AM 3.2 37.76 0.032 6.58 1.64 12.81
1/14/2021 7:30:00 AM 3.19 37.742 0.031 6.56 3.61 12.8
1/14/2021 7:45:00 AM 3.16 37.688 0.032 6.58 1.61 12.83
1/14/2021 8:00:00 AM 3.14 37.652 0.032 6.57 1.62 12.83
1/14/2021 8:15:00 AM 3.14 37.652 0.031 6.57 3.56 12.83
1/14/2021 8:30:00 AM 3.14 37.652 0.03 6.57 3.27 12.85
1/14/2021 8:45:00 AM 3.13 37.634 0.032 6.59 1.66 12.87
1/14/2021 9:00:00 AM 3.15 37.67 0.032 6.6 1.63 12.87
1/14/2021 9:15:00 AM 3.16 37.688 0.032 6.6 1.65 12.9
1/14/2021 9:30:00 AM 3.2 37.76 0.031 6.59 3.3 12.92
1/14/2021 9:45:00 AM 3.22 37.796 0.032 6.61 1.63 12.91
1/14/2021 10:00:00 AM 3.24 37.832 0.032 6.61 1.64 12.91
1/14/2021 10:15:00 AM 3.26 37.868 0.032 6.61 1.67 12.9
1/14/2021 10:30:00 AM 3.32 37.976 0.031 6.6 3.52 12.88
1/14/2021 10:45:00 AM 3.37 38.066 0.032 6.61 1.65 12.87
1/14/2021 11:00:00 AM 3.42 38.156 0.032 6.63 1.61 12.87
1/14/2021 11:15:00 AM 3.48 38.264 0.032 6.64 1.63 12.85
1/14/2021 11:30:00 AM 3.55 38.39 0.031 6.61 3.22 12.82
1/14/2021 11:45:00 AM 3.6 38.48 0.032 6.64 1.62 12.82
1/14/2021 12:00:00 PM 3.67 38.606 0.031 6.61 3.51 12.76
1/14/2021 12:15:00 PM 3.73 38.714 0.032 6.62 1.62 12.74
1/14/2021 12:30:00 PM 3.81 38.858 0.031 6.63 3.37 12.71
1/14/2021 12:45:00 PM 3.88 38.984 0.031 6.62 3.33 12.68
1/14/2021 1:00:00 PM 3.93 39.074 0.03 6.61 3.46 12.64
1/14/2021 1:15:00 PM 3.95 39.11 0.032 6.63 1.62 12.64
1/14/2021 1:30:00 PM 4.01 39.218 0.031 6.63 3.38 12.62
1/14/2021 1:45:00 PM 4.05 39.29 0.03 6.62 3.47 12.59
1/14/2021 2:00:00 PM 4.07 39.326 0.032 6.63 1.64 12.6
1/14/2021 2:15:00 PM 4.1 39.38 0.032 6.63 1.61 12.58
1/14/2021 2:30:00 PM 4.14 39.452 0.031 6.61 3.43 12.56
1/14/2021 2:45:00 PM 4.15 39.47 0.03 6.6 3.44 12.54
1/14/2021 3:00:00 PM 4.16 39.488 0.032 6.62 1.62 12.56
1/14/2021 3:15:00 PM 4.18 39.524 0.031 6.62 3.23 12.54
1/14/2021 3:30:00 PM 4.18 39.524 0.032 6.6 1.62 12.52
1/14/2021 3:45:00 PM 4.19 39.542 0.031 6.6 3.43 12.5
1/14/2021 4:00:00 PM 4.19 39.542 0.03 6.6 3.55 12.51
1/14/2021 4:15:00 PM 4.18 39.524 0.032 6.62 1.64 12.52
1/14/2021 4:30:00 PM 4.17 39.506 0.031 6.6 3.51 12.5
1/14/2021 4:45:00 PM 4.14 39.452 0.03 6.58 3.59 12.48
1/14/2021 5:00:00 PM 4.11 39.398 0.032 6.59 1.68 12.49
1/14/2021 5:15:00 PM 4.11 39.398 0.031 6.58 3.44 12.49
1/14/2021 5:30:00 PM 4.08 39.344 0.032 6.59 1.63 12.5
1/14/2021 5:45:00 PM 4.06 39.308 0.032 6.58 1.62 12.5
1/14/2021 6:00:00 PM 4.08 39.344 0.031 6.57 3.38 12.47
1/14/2021 6:15:00 PM 4.05 39.29 0.03 6.56 3.37 12.49
1/14/2021 6:30:00 PM 4.02 39.236 0.032 6.58 1.61 12.51
1/14/2021 6:45:00 PM 4.01 39.218 0.031 6.56 3.51 12.51
1/14/2021 7:00:00 PM 4 39.2 0.03 6.57 3.39 12.53
1/14/2021 7:15:00 PM 3.98 39.164 0.032 6.59 1.65 12.53
1/14/2021 7:30:00 PM 3.98 39.164 0.03 6.56 3.66 12.51
1/14/2021 7:45:00 PM 3.96 39.128 0.032 6.58 1.66 12.54
1/14/2021 8:00:00 PM 3.96 39.128 0.03 6.57 3.51 12.53
1/14/2021 8:15:00 PM 3.93 39.074 0.032 6.58 1.67 12.55
1/14/2021 8:30:00 PM 3.93 39.074 0.032 6.59 1.66 12.54
1/14/2021 8:45:00 PM 3.92 39.056 0.032 6.57 1.67 12.55
1/14/2021 9:00:00 PM 3.91 39.038 0.032 6.59 1.68 12.56
1/14/2021 9:15:00 PM 3.9 39.02 0.032 6.58 1.61 12.57
1/14/2021 9:30:00 PM 3.91 39.038 0.031 6.56 3.61 12.56
1/14/2021 9:45:00 PM 3.9 39.02 0.032 6.58 1.64 12.57
1/14/2021 10:00:00 PM 3.89 39.002 0.032 6.58 1.64 12.57
1/14/2021 10:15:00 PM 3.91 39.038 0.031 6.57 3.17 12.56
1/14/2021 10:30:00 PM 3.88 38.984 0.032 6.59 1.65 12.57
1/14/2021 10:45:00 PM 3.88 38.984 0.031 6.56 3.52 12.57
1/14/2021 11:00:00 PM 3.85 38.93 0.032 6.58 1.65 12.56
1/14/2021 11:15:00 PM 3.84 38.912 0.031 6.57 3.18 12.56
1/14/2021 11:30:00 PM 3.81 38.858 0.032 6.57 1.64 12.61
1/14/2021 11:45:00 PM 3.8 38.84 0.032 6.59 1.66 12.6
1/15/2021 12:00:00 AM 3.78 38.804 0.032 6.59 1.67 12.6
1/15/2021 12:15:00 AM 3.77 38.786 0.032 6.59 1.61 12.61
1/15/2021 12:30:00 AM 3.79 38.822 0.031 6.56 3.51 12.59
1/15/2021 12:45:00 AM 3.75 38.75 0.032 6.57 1.63 12.62
1/15/2021 1:00:00 AM 3.76 38.768 0.032 6.58 1.66 12.62
1/15/2021 1:15:00 AM 3.75 38.75 0.032 6.56 1.68 12.61
1/15/2021 1:30:00 AM 3.74 38.732 0.032 6.58 1.64 12.61
1/15/2021 1:45:00 AM 3.73 38.714 0.032 6.59 1.63 12.61
1/15/2021 2:00:00 AM 3.73 38.714 0.031 6.57 3.39 12.6
1/15/2021 2:15:00 AM 3.71 38.678 0.031 6.56 3.19 12.62
1/15/2021 2:30:00 AM 3.68 38.624 0.032 6.57 1.64 12.62
1/15/2021 2:45:00 AM 3.66 38.588 0.032 6.58 1.64 12.64
1/15/2021 3:00:00 AM 3.66 38.588 0.031 6.58 3.31 12.62
1/15/2021 3:15:00 AM 3.63 38.534 0.032 6.57 1.66 12.67
1/15/2021 3:30:00 AM 3.61 38.498 0.032 6.59 1.67 12.69
1/15/2021 3:45:00 AM 3.57 38.426 0.032 6.59 1.68 12.69
1/15/2021 4:00:00 AM 3.56 38.408 0.032 6.58 1.66 12.68
1/15/2021 4:15:00 AM 3.56 38.408 0.031 6.58 3.68 12.67
1/15/2021 4:30:00 AM 3.57 38.426 0.032 6.56 1.67 12.68
1/15/2021 4:45:00 AM 3.54 38.372 0.031 6.58 3.22 12.7
1/15/2021 5:00:00 AM 3.53 38.354 0.03 6.57 3.45 12.68
1/15/2021 5:15:00 AM 3.52 38.336 0.03 6.57 3.59 12.69
1/15/2021 5:30:00 AM 3.52 38.336 0.032 6.59 1.62 12.71
1/15/2021 5:45:00 AM 3.52 38.336 0.031 6.58 3.47 12.7
1/15/2021 6:00:00 AM 3.49 38.282 0.032 6.59 1.65 12.7
1/15/2021 6:15:00 AM 3.48 38.264 0.032 6.58 1.65 12.72
1/15/2021 6:30:00 AM 3.48 38.264 0.032 6.59 1.65 12.71
1/15/2021 6:45:00 AM 3.48 38.264 0.031 6.58 3.65 12.71
1/15/2021 7:00:00 AM 3.45 38.21 0.032 6.59 1.66 12.71
1/15/2021 7:15:00 AM 3.47 38.246 0.032 6.58 1.64 12.73
1/15/2021 7:30:00 AM 3.45 38.21 0.031 6.58 3.49 12.73
1/15/2021 7:45:00 AM 3.45 38.21 0.031 6.58 3.27 12.72
1/15/2021 8:00:00 AM 3.45 38.21 0.031 6.58 3.26 12.73
1/15/2021 8:15:00 AM 3.44 38.192 0.032 6.59 1.64 12.76
1/15/2021 8:30:00 AM 3.45 38.21 0.032 6.61 1.68 12.75
1/15/2021 8:45:00 AM 3.46 38.228 0.032 6.61 1.63 12.76
1/15/2021 9:00:00 AM 3.47 38.246 0.032 6.61 1.62 12.78
1/15/2021 9:15:00 AM 3.5 38.3 0.03 6.6 3.39 12.8
1/15/2021 9:30:00 AM 3.53 38.354 0.03 6.6 3.42 12.78
1/15/2021 9:45:00 AM 3.57 38.426 0.03 6.6 3.29 12.78
1/15/2021 10:00:00 AM 3.61 38.498 0.031 6.6 3.44 12.77
1/15/2021 10:15:00 AM 3.65 38.57 0.03 6.61 3.28 12.76
1/15/2021 10:30:00 AM 3.68 38.624 0.032 6.62 1.61 12.77
1/15/2021 10:45:00 AM 3.73 38.714 0.031 6.62 3.36 12.73
1/15/2021 11:00:00 AM 3.77 38.786 0.032 6.64 1.64 12.75
1/15/2021 11:15:00 AM 3.82 38.876 0.032 6.64 1.65 12.72
1/15/2021 11:30:00 AM 3.86 38.948 0.032 6.64 1.61 12.72
1/15/2021 11:45:00 AM 3.9 39.02 0.031 6.62 3.31 12.66
1/15/2021 12:00:00 PM 3.93 39.074 0.032 6.64 1.62 12.66
1/15/2021 12:15:00 PM 3.95 39.11 0.032 6.65 1.67 12.65
1/15/2021 12:30:00 PM 4.01 39.218 0.031 6.63 3.37 12.62
1/15/2021 12:45:00 PM 4.03 39.254 0.032 6.65 1.62 12.62
1/15/2021 1:00:00 PM 4.06 39.308 0.032 6.65 1.63 12.61
1/15/2021 1:15:00 PM 4.1 39.38 0.031 6.63 3.38 12.56
1/15/2021 1:30:00 PM 4.12 39.416 0.032 6.63 1.63 12.58
1/15/2021 1:45:00 PM 4.14 39.452 0.031 6.64 3.27 12.51
1/15/2021 2:00:00 PM 4.14 39.452 0.032 6.64 1.59 12.53
1/15/2021 2:15:00 PM 4.15 39.47 0.032 6.64 1.58 12.5
1/15/2021 2:30:00 PM 4.16 39.488 0.032 6.63 1.64 12.49
1/15/2021 2:45:00 PM 4.17 39.506 0.032 6.63 1.6 12.49
1/15/2021 3:00:00 PM 4.18 39.524 0.032 6.63 1.63 12.47
1/15/2021 3:15:00 PM 4.17 39.506 0.032 6.62 1.57 12.49
1/15/2021 3:30:00 PM 4.19 39.542 0.032 6.62 1.62 12.47
1/15/2021 3:45:00 PM 4.19 39.542 0.031 6.61 3.29 12.45
1/15/2021 4:00:00 PM 4.19 39.542 0.032 6.61 1.66 12.46
1/15/2021 4:15:00 PM 4.19 39.542 0.032 6.63 1.64 12.45
1/15/2021 4:30:00 PM 4.19 39.542 0.031 6.59 3.2 12.41
1/15/2021 4:45:00 PM 4.18 39.524 0.032 6.6 1.63 12.46
1/15/2021 5:00:00 PM 4.18 39.524 0.031 6.6 3.36 12.42
1/15/2021 5:15:00 PM 4.17 39.506 0.032 6.62 1.61 12.43
1/15/2021 5:30:00 PM 4.17 39.506 0.031 6.59 3.47 12.4
1/15/2021 5:45:00 PM 4.16 39.488 0.03 6.59 3.28 12.42
1/15/2021 6:00:00 PM 4.16 39.488 0.03 6.59 3.34 12.42
1/15/2021 6:15:00 PM 4.15 39.47 0.032 6.61 1.62 12.41
1/15/2021 6:30:00 PM 4.15 39.47 0.031 6.6 3.55 12.41
1/15/2021 6:45:00 PM 4.16 39.488 0.03 6.6 3.37 12.42
1/15/2021 7:00:00 PM 4.18 39.524 0.031 6.6 3.41 12.4
1/15/2021 7:15:00 PM 4.17 39.506 0.031 6.6 3.4 12.39
1/15/2021 7:30:00 PM 4.16 39.488 0.032 6.61 1.66 12.44
1/15/2021 7:45:00 PM 4.16 39.488 0.032 6.62 1.69 12.43
1/15/2021 8:00:00 PM 4.15 39.47 0.032 6.62 1.68 12.45
1/15/2021 8:15:00 PM 4.17 39.506 0.032 6.61 1.69 12.43
1/15/2021 8:30:00 PM 4.16 39.488 0.032 6.62 1.72 12.44
1/15/2021 8:45:00 PM 4.14 39.452 0.032 6.62 1.76 12.42
1/15/2021 9:00:00 PM 4.15 39.47 0.032 6.61 1.76 12.42
1/15/2021 9:15:00 PM 4.14 39.452 0.032 6.61 1.8 12.4
1/15/2021 9:30:00 PM 4.14 39.452 0.032 6.61 1.85 12.43
1/15/2021 9:45:00 PM 4.15 39.47 0.031 6.6 3.49 12.41
1/15/2021 10:00:00 PM 4.13 39.434 0.032 6.6 2.18 12.41
1/15/2021 10:15:00 PM 4.15 39.47 0.031 6.61 3.87 12.38
1/15/2021 10:30:00 PM 4.15 39.47 0.032 6.62 2.66 12.35
1/15/2021 10:45:00 PM 4.12 39.416 0.032 6.62 3.03 12.4
1/15/2021 11:00:00 PM 4.1 39.38 0.032 6.62 3.01 12.42
1/15/2021 11:15:00 PM 4.09 39.362 0.032 6.61 3.31 12.42
1/15/2021 11:30:00 PM 4.08 39.344 0.031 6.6 5.18 12.41
1/15/2021 11:45:00 PM 4.04 39.272 0.032 6.61 4.04 12.41
1/16/2021 12:00:00 AM 4.09 39.362 0.032 6.61 4.21 12.37
1/16/2021 12:15:00 AM 4.08 39.344 0.031 6.56 5.72 12.35
1/16/2021 12:30:00 AM 4 39.2 0.031 6.59 6.38 12.43
1/16/2021 12:45:00 AM 3.98 39.164 0.032 6.62 4.52 12.45
1/16/2021 1:00:00 AM 3.98 39.164 0.032 6.64 4.37 12.43
1/16/2021 1:15:00 AM 3.96 39.128 0.033 6.64 4.31 12.42
1/16/2021 1:30:00 AM 3.94 39.092 0.033 6.64 4.24 12.42
1/16/2021 1:45:00 AM 3.92 39.056 0.031 6.61 5.6 12.48
1/16/2021 2:00:00 AM 3.89 39.002 0.032 6.63 3.93 12.53
1/16/2021 2:15:00 AM 3.89 39.002 0.032 6.65 3.76 12.48
1/16/2021 2:30:00 AM 3.9 39.02 0.031 6.65 4.98 12.5
1/16/2021 2:45:00 AM 3.89 39.002 0.032 6.66 3.63 12.49
1/16/2021 3:00:00 AM 3.88 38.984 0.032 6.66 3.45 12.5
1/16/2021 3:15:00 AM 3.87 38.966 0.032 6.65 3.42 12.5
1/16/2021 3:30:00 AM 3.86 38.948 0.032 6.66 3.28 12.51
1/16/2021 3:45:00 AM 3.86 38.948 0.031 6.63 4.94 12.51
1/16/2021 4:00:00 AM 3.86 38.948 0.03 6.63 4.58 12.51
1/16/2021 4:15:00 AM 3.86 38.948 0.032 6.64 2.96 12.5
1/16/2021 4:30:00 AM 3.86 38.948 0.032 6.65 2.93 12.47
1/16/2021 4:45:00 AM 3.85 38.93 0.031 6.63 4.33 12.48
1/16/2021 5:00:00 AM 3.85 38.93 0.032 6.63 2.76 12.49
1/16/2021 5:15:00 AM 3.86 38.948 0.032 6.64 2.77 12.49
1/16/2021 5:30:00 AM 3.85 38.93 0.031 6.61 4.26 12.5
1/16/2021 5:45:00 AM 3.85 38.93 0.032 6.61 2.61 12.49
1/16/2021 6:00:00 AM 3.85 38.93 0.032 6.62 2.7 12.47
1/16/2021 6:15:00 AM 3.88 38.984 0.032 6.63 2.6 12.48
1/16/2021 6:30:00 AM 3.88 38.984 0.032 6.63 2.55 12.48
1/16/2021 6:45:00 AM 3.9 39.02 0.032 6.62 2.59 12.48
1/16/2021 7:00:00 AM 3.91 39.038 0.032 6.64 2.48 12.47
1/16/2021 7:15:00 AM 3.92 39.056 0.032 6.62 2.52 12.47
1/16/2021 7:30:00 AM 3.92 39.056 0.032 6.63 2.47 12.47
1/16/2021 7:45:00 AM 3.93 39.074 0.031 6.62 3.98 12.41
1/16/2021 8:00:00 AM 3.93 39.074 0.032 6.62 3.93 12.44
1/16/2021 8:15:00 AM 3.94 39.092 0.032 6.63 2.44 12.44
1/16/2021 8:30:00 AM 3.95 39.11 0.032 6.65 2.43 12.44
1/16/2021 8:45:00 AM 3.95 39.11 0.032 6.65 2.39 12.45
1/16/2021 9:00:00 AM 3.97 39.146 0.032 6.65 2.31 12.45
1/16/2021 9:15:00 AM 4 39.2 0.032 6.65 2.3 12.44
1/16/2021 9:30:00 AM 4.03 39.254 0.032 6.65 2.3 12.46
1/16/2021 9:45:00 AM 4.06 39.308 0.032 6.65 2.27 12.47
1/16/2021 10:00:00 AM 4.09 39.362 0.031 6.65 3.8 12.46
1/16/2021 10:15:00 AM 4.13 39.434 0.032 6.65 2.27 12.48
1/16/2021 10:30:00 AM 4.15 39.47 0.031 6.66 3.87 12.43
1/16/2021 10:45:00 AM 4.2 39.56 0.032 6.65 2.23 12.45
1/16/2021 11:00:00 AM 4.23 39.614 0.031 6.66 3.73 12.43
1/16/2021 11:15:00 AM 4.29 39.722 0.032 6.68 2.19 12.38
1/16/2021 11:30:00 AM 4.33 39.794 0.031 6.66 3.62 12.4
1/16/2021 11:45:00 AM 4.38 39.884 0.032 6.69 2.21 12.35
1/16/2021 12:00:00 PM 4.41 39.938 0.032 6.69 2.16 12.29
1/16/2021 12:15:00 PM 4.47 40.046 0.031 6.67 3.73 12.31
1/16/2021 12:30:00 PM 4.52 40.136 0.031 6.68 3.83 12.31
1/16/2021 12:45:00 PM 4.59 40.262 0.032 6.69 2.14 12.29
1/16/2021 1:00:00 PM 4.62 40.316 0.032 6.7 2.19 12.16
1/16/2021 1:15:00 PM 4.66 40.388 0.031 6.67 3.77 12.18
1/16/2021 1:30:00 PM 4.71 40.478 0.032 6.69 2.16 12.16
1/16/2021 1:45:00 PM 4.74 40.532 0.032 6.68 2.24 12.06
1/16/2021 2:00:00 PM 4.76 40.568 0.032 6.69 2.35 12.1
1/16/2021 2:15:00 PM 4.76 40.568 0.032 6.66 2.46 12.15
1/16/2021 2:30:00 PM 4.73 40.514 0.031 6.63 4.01 12.15
1/16/2021 2:45:00 PM 4.73 40.514 0.031 6.63 4.23 12.14
1/16/2021 3:00:00 PM 4.72 40.496 0.032 6.64 2.67 12.15
1/16/2021 3:15:00 PM 4.71 40.478 0.03 6.64 4.23 12.13
1/16/2021 3:30:00 PM 4.67 40.406 0.032 6.64 2.65 12.13
1/16/2021 3:45:00 PM 4.65 40.37 0.032 6.66 2.76 12.13
1/16/2021 4:00:00 PM 4.61 40.298 0.032 6.66 2.71 12.11
1/16/2021 4:15:00 PM 4.59 40.262 0.032 6.63 4.21 12.11
1/16/2021 4:30:00 PM 4.57 40.226 0.032 6.66 2.79 12.14
1/16/2021 4:45:00 PM 4.54 40.172 0.032 6.66 2.81 12.18
1/16/2021 5:00:00 PM 4.5 40.1 0.032 6.64 2.73 12.17
1/16/2021 5:15:00 PM 4.47 40.046 0.032 6.6 4.25 12.16
1/16/2021 5:30:00 PM 4.44 39.992 0.031 6.61 4.43 12.16
1/16/2021 5:45:00 PM 4.4 39.92 0.032 6.6 2.76 12.17
1/16/2021 6:00:00 PM 4.35 39.83 0.032 6.61 2.87 12.19
1/16/2021 6:15:00 PM 4.32 39.776 0.032 6.6 2.79 12.19
1/16/2021 6:30:00 PM 4.29 39.722 0.032 6.59 2.94 12.21
1/16/2021 6:45:00 PM 4.23 39.614 0.032 6.6 2.92 12.24
1/16/2021 7:00:00 PM 4.22 39.596 0.032 6.58 4.48 12.24
1/16/2021 7:15:00 PM 4.16 39.488 0.032 6.58 3.02 12.26
1/16/2021 7:30:00 PM 4.14 39.452 0.032 6.56 4.72 12.26
1/16/2021 7:45:00 PM 4.08 39.344 0.032 6.56 3.04 12.26
1/16/2021 8:00:00 PM 4.05 39.29 0.032 6.57 3.02 12.31
1/16/2021 8:15:00 PM 4 39.2 0.032 6.55 3.07 12.28
1/16/2021 8:30:00 PM 3.99 39.182 0.031 6.53 4.68 12.28
1/16/2021 8:45:00 PM 3.96 39.128 0.032 6.54 3.1 12.28
1/16/2021 9:00:00 PM 3.96 39.128 0.032 6.54 3.1 12.28
1/16/2021 9:15:00 PM 3.92 39.056 0.032 6.56 3.2 12.3
1/16/2021 9:30:00 PM 3.93 39.074 0.031 6.55 4.6 12.28
1/16/2021 9:45:00 PM 3.89 39.002 0.032 6.55 3.24 12.31
1/16/2021 10:00:00 PM 3.89 39.002 0.032 6.56 3.18 12.33
1/16/2021 10:15:00 PM 3.88 38.984 0.031 6.53 4.78 12.3
1/16/2021 10:30:00 PM 3.87 38.966 0.032 6.57 3.2 12.31
1/16/2021 10:45:00 PM 3.85 38.93 0.032 6.56 3.15 12.34
1/16/2021 11:00:00 PM 3.86 38.948 0.032 6.53 5.01 12.31
1/16/2021 11:15:00 PM 3.85 38.93 0.031 6.53 10.07 12.36
1/16/2021 11:30:00 PM 3.81 38.858 0.032 6.54 3.16 12.4
1/16/2021 11:45:00 PM 3.79 38.822 0.032 6.55 3.24 12.41
1/17/2021 12:00:00 AM 3.79 38.822 0.032 6.53 10.61 12.37
1/17/2021 12:15:00 AM 3.76 38.768 0.032 6.56 3.15 12.43
1/17/2021 12:30:00 AM 3.76 38.768 0.032 6.54 3.34 12.43
1/17/2021 12:45:00 AM 3.76 38.768 0.032 6.56 3.2 12.46
1/17/2021 1:00:00 AM 3.86 38.948 0.032 6.55 3.21 12.34
1/17/2021 1:15:00 AM 3.77 38.786 0.031 6.54 3.27 12.35
1/17/2021 1:30:00 AM 3.73 38.714 0.032 6.54 3.3 12.36
1/17/2021 1:45:00 AM 3.73 38.714 0.032 6.55 3.38 12.36
1/17/2021 2:00:00 AM 3.75 38.75 0.032 6.55 3.43 12.33
1/17/2021 2:15:00 AM 3.72 38.696 0.014 6.54 3.17 12.35
1/17/2021 2:30:00 AM 3.8 38.84 0.024 6.55 3.11 12.32
1/17/2021 2:45:00 AM 3.74 38.732 0.016 6.54 3.26 12.32
1/17/2021 3:00:00 AM 3.68 38.624 0.032 6.53 30.05 12.44
1/17/2021 3:15:00 AM 3.75 38.75 0.029 6.54 3.12 12.38
1/17/2021 3:30:00 AM 3.69 38.642 0.033 6.52 3.29 12.39
1/17/2021 3:45:00 AM 3.64 38.552 0.03 6.55 3.17 12.38
1/17/2021 4:00:00 AM 3.73 38.714 0.024 6.52 3.24 12.36
1/17/2021 4:15:00 AM 3.71 38.678 0.013 6.54 3.36 12.37
1/17/2021 4:30:00 AM 3.74 38.732 0.025 6.55 3.36 12.36
1/17/2021 4:45:00 AM 3.61 38.498 0.032 6.54 3.19 12.49
1/17/2021 5:00:00 AM 3.6 38.48 0.032 6.58 3.29 12.55
1/17/2021 5:15:00 AM 3.59 38.462 0.032 6.59 3.39 12.56
1/17/2021 5:30:00 AM 3.57 38.426 0.032 6.58 190.06 12.55
1/17/2021 5:45:00 AM 3.59 38.462 0.032 6.53 3.26 12.42
1/17/2021 6:00:00 AM 3.63 38.534 0.036 6.54 3.32 12.42
1/17/2021 6:15:00 AM 3.6 38.48 0.037 6.55 3.37 12.44
1/17/2021 6:30:00 AM 3.58 38.444 0.038 6.55 3.56 12.45
1/17/2021 6:45:00 AM 3.53 38.354 0.038 6.51 3.38 12.45
1/17/2021 7:00:00 AM 3.54 38.372 0.04 6.54 3.56 12.46
1/17/2021 7:15:00 AM 3.54 38.372 0.04 6.55 3.57 12.47
1/17/2021 7:30:00 AM 3.53 38.354 0.042 6.54 3.77 12.43
1/17/2021 7:45:00 AM 3.57 38.426 0.043 6.55 3.68 12.46
1/17/2021 8:00:00 AM 3.56 38.408 0.043 6.55 3.72 12.46
1/17/2021 8:15:00 AM 3.56 38.408 0.043 6.56 3.75 12.44
1/17/2021 8:30:00 AM 3.55 38.39 0.043 6.55 4.01 12.52
1/17/2021 8:45:00 AM 3.57 38.426 0.043 6.56 4.04 12.48
1/17/2021 9:00:00 AM 3.58 38.444 0.043 6.56 3.81 12.5
1/17/2021 9:15:00 AM 3.64 38.552 0.044 6.57 3.77 12.51
1/17/2021 9:30:00 AM 3.62 38.516 0.048 6.56 3.86 12.51
1/17/2021 9:45:00 AM 3.62 38.516 0.048 6.56 3.83 12.48
1/17/2021 10:00:00 AM 3.65 38.57 0.047 6.56 3.72 12.5
1/17/2021 10:15:00 AM 3.7 38.66 0.047 6.57 3.98 12.51
1/17/2021 10:30:00 AM 3.72 38.696 0.046 6.57 3.94 12.49
1/17/2021 10:45:00 AM 3.77 38.786 0.047 6.58 4.01 12.46
1/17/2021 11:00:00 AM 3.8 38.84 0.055 6.56 4.11 12.47
1/17/2021 11:15:00 AM 3.81 38.858 0.06 6.56 4.19 12.49
1/17/2021 11:30:00 AM 3.81 38.858 0.065 6.58 4.12 12.6
1/17/2021 11:45:00 AM 3.84 38.912 0.068 6.58 4.26 12.62
1/17/2021 12:00:00 PM 3.85 38.93 0.07 6.58 4.5 12.59
1/17/2021 12:15:00 PM 3.88 38.984 0.176 6.59 4.42 12.6
1/17/2021 12:30:00 PM 3.9 39.02 0.185 6.62 4.32 12.6
1/17/2021 12:45:00 PM 3.92 39.056 0.188 6.63 4.33 12.6
1/17/2021 1:00:00 PM 3.96 39.128 0.199 6.63 4.39 12.58
1/17/2021 1:15:00 PM 3.99 39.182 0.203 6.63 4.6 12.59
1/17/2021 1:30:00 PM 4 39.2 0.204 6.63 4.18 12.56
1/17/2021 1:45:00 PM 4.02 39.236 0.206 6.64 4.5 12.55
1/17/2021 2:00:00 PM 4.07 39.326 0.207 6.62 4.66 12.56
1/17/2021 2:15:00 PM 4.08 39.344 0.21 6.65 4.38 12.54
1/17/2021 2:30:00 PM 4.11 39.398 0.212 6.62 4.24 12.54
1/17/2021 2:45:00 PM 4.11 39.398 0.214 6.63 4.35 12.52
1/17/2021 3:00:00 PM 4.11 39.398 0.216 6.62 4.45 12.42
1/17/2021 3:15:00 PM 4.12 39.416 0.218 6.57 4.52 12.43
1/17/2021 3:30:00 PM 4.11 39.398 0.219 6.59 4.73 12.44
1/17/2021 3:45:00 PM 4.11 39.398 0.22 6.59 4.8 12.49
1/17/2021 4:00:00 PM 4.1 39.38 0.221 6.57 4.78 12.47
1/17/2021 4:15:00 PM 4.1 39.38 0.222 6.51 4.94 12.48
1/17/2021 4:30:00 PM 4.11 39.398 0.222 6.51 4.71 12.41
1/17/2021 4:45:00 PM 4.09 39.362 0.224 6.53 4.69 12.46
1/17/2021 5:00:00 PM 4.08 39.344 0.224 6.51 4.55 12.46
1/17/2021 5:15:00 PM 4.06 39.308 0.133 6.52 4.68 12.45
1/17/2021 5:30:00 PM 4.05 39.29 0.224 6.54 4.65 12.47
1/17/2021 5:45:00 PM 4.05 39.29 0.208 6.53 4.73 12.37
1/17/2021 6:00:00 PM 4.03 39.254 0.213 6.45 4.74 12.29
1/17/2021 6:15:00 PM 4.01 39.218 0.209 6.49 5.06 12.42
1/17/2021 6:30:00 PM 3.99 39.182 0.206 6.4 5.03 12.35
1/17/2021 6:45:00 PM 3.97 39.146 0.204 6.48 5.03 12.42
1/17/2021 7:00:00 PM 3.96 39.128 0.2 6.5 5.13 12.44
1/17/2021 7:15:00 PM 3.94 39.092 0.199 6.54 5.45 12.39
1/17/2021 7:30:00 PM 3.93 39.074 0.197 6.53 5.33 12.39
1/17/2021 7:45:00 PM 3.91 39.038 0.195 6.51 5.38 12.41
1/17/2021 8:00:00 PM 3.9 39.02 0.195 6.55 5.29 12.46
1/17/2021 8:15:00 PM 3.88 38.984 0.197 6.54 5.57 12.37
1/17/2021 8:30:00 PM 3.86 38.948 0.199 6.58 5.64 12.49
1/17/2021 8:45:00 PM 3.88 38.984 0.203 6.5 5.42 12.39
1/17/2021 9:00:00 PM 3.87 38.966 0.204 6.62 5.63 12.49
1/17/2021 9:15:00 PM 3.86 38.948 0.211 6.64 5.34 12.53
1/17/2021 9:30:00 PM 3.85 38.93 0.224 6.64 5.54 12.56
1/17/2021 9:45:00 PM 3.84 38.912 0.228 6.64 5.56 12.52
1/17/2021 10:00:00 PM 3.81 38.858 0.226 6.64 5.57 12.53
1/17/2021 10:15:00 PM 3.8 38.84 0.087 6.62 5.26 12.57
1/17/2021 10:30:00 PM 3.78 38.804 0.086 6.62 5.07 12.54
1/17/2021 10:45:00 PM 3.77 38.786 0.085 6.65 5.24 12.59
1/17/2021 11:00:00 PM 3.75 38.75 0.079 6.64 5.3 12.6
1/17/2021 11:15:00 PM 3.93 39.074 0.019 6.63 4.54 12.39
1/17/2021 11:30:00 PM 4.11 39.398 0.019 6.55 5.06 12.28
1/17/2021 11:45:00 PM 4.05 39.29 0.031 6.51 4.24 12.25
1/18/2021 12:00:00 AM 3.98 39.164 0.03 6.54 4.18 12.23
1/18/2021 12:15:00 AM 4.05 39.29 0.029 6.51 4.21 12.16
1/18/2021 12:30:00 AM 3.99 39.182 0.028 6.51 4.24 12.22
1/18/2021 12:45:00 AM 3.94 39.092 0.029 6.52 4.51 12.24
1/18/2021 1:00:00 AM 3.98 39.164 0.029 6.53 4.66 12.2
1/18/2021 1:15:00 AM 4 39.2 0.029 6.53 4.65 12.28
1/18/2021 1:30:00 AM 3.95 39.11 0.028 6.53 4.64 12.31
1/18/2021 1:45:00 AM 3.88 38.984 0.027 6.53 4.61 12.43
1/18/2021 2:00:00 AM 4.04 39.272 2.627 6.5 4.19 12.16
1/18/2021 2:15:00 AM 4.09 39.362 2.741 6.53 4.16 12.13
1/18/2021 2:30:00 AM 4.04 39.272 2.657 6.53 4.21 12.13
1/18/2021 2:45:00 AM 4.13 39.434 2.684 6.54 4.32 12.09
1/18/2021 3:00:00 AM 4.03 39.254 2.666 6.53 4.24 12.13
1/18/2021 3:15:00 AM 4.21 39.578 2.737 6.53 4.36 12.01
1/18/2021 3:30:00 AM 4.03 39.254 2.689 6.54 4.33 12.11
1/18/2021 3:45:00 AM 4.14 39.452 2.726 6.52 4.34 12
1/18/2021 4:00:00 AM 4.42 39.956 3.09 6.54 4.3 11.89
1/18/2021 4:15:00 AM 4.38 39.884 2.807 6.54 4.33 11.9
1/18/2021 4:30:00 AM 4.31 39.758 2.793 6.54 4.3 11.95
1/18/2021 4:45:00 AM 4.23 39.614 2.769 6.53 4.24 11.96
1/18/2021 5:00:00 AM 4.13 39.434 2.725 6.52 4.24 12.02
1/18/2021 5:15:00 AM 4.24 39.632 2.854 6.53 4.35 11.99
1/18/2021 5:30:00 AM 4.15 39.47 2.769 6.53 4.39 12.01
1/18/2021 5:45:00 AM 4.33 39.794 2.891 6.54 4.42 11.96
1/18/2021 6:00:00 AM 4.22 39.596 2.764 6.54 4.48 11.97
1/18/2021 6:15:00 AM 4.29 39.722 2.818 6.53 4.49 11.97
1/18/2021 6:30:00 AM 4.31 39.758 2.852 6.53 4.66 11.99
1/18/2021 6:45:00 AM 4.3 39.74 2.856 6.51 4.68 11.91
1/18/2021 7:00:00 AM 3.99 39.182 2.727 6.52 4.85 12.16
1/18/2021 7:15:00 AM 4.16 39.488 2.836 6.53 4.81 12.09
1/18/2021 7:30:00 AM 4.09 39.362 2.767 6.48 5.11 11.97
1/18/2021 7:45:00 AM 3.91 39.038 2.67 6.46 4.59 11.92
1/18/2021 8:00:00 AM 3.79 38.822 2.63 6.46 4.69 12.11
1/18/2021 8:15:00 AM 3.86 38.948 2.628 6.48 4.94 12
1/18/2021 8:30:00 AM 3.81 38.858 2.649 6.5 4.86 12.07
1/18/2021 8:45:00 AM 4.02 39.236 2.585 6.54 4.37 12.15
1/18/2021 9:00:00 AM 4.14 39.452 2.621 6.58 4.33 12.21
1/18/2021 9:15:00 AM 4.2 39.56 2.661 6.58 4.25 12.21
1/18/2021 9:30:00 AM 4.05 39.29 2.568 6.57 4.39 12.27
1/18/2021 9:45:00 AM 3.95 39.11 2.467 6.56 4.42 12.3
1/18/2021 10:00:00 AM 3.99 39.182 2.52 6.56 4.42 12.27
1/18/2021 10:15:00 AM 4.04 39.272 2.525 6.56 4.4 12.3
1/18/2021 10:30:00 AM 4.2 39.56 2.6 6.56 4.42 12.16
1/18/2021 10:45:00 AM 4.27 39.686 2.621 6.56 4.31 12.16
1/18/2021 11:00:00 AM 4.29 39.722 2.616 6.56 4.26 12.15
1/18/2021 11:15:00 AM 4.25 39.65 2.6 6.56 4.3 12.14
1/18/2021 11:30:00 AM 4.3 39.74 2.585 6.56 4.28 12.1
1/18/2021 11:45:00 AM 4.34 39.812 2.538 6.55 4.27 12.12
1/18/2021 12:00:00 PM 4.33 39.794 2.525 6.54 4.33 12.09
1/18/2021 12:15:00 PM 4.29 39.722 2.443 6.55 4.44 12.1
1/18/2021 12:30:00 PM 4.3 39.74 2.48 6.53 4.36 12.08
1/18/2021 12:45:00 PM 4.34 39.812 2.453 6.55 4.42 12.11
1/18/2021 1:00:00 PM 4.47 40.046 2.535 6.55 4.53 12.04
1/18/2021 1:15:00 PM 4.43 39.974 2.519 6.54 4.56 12.07
1/18/2021 1:30:00 PM 4.34 39.812 2.473 6.54 4.6 12.14
1/18/2021 1:45:00 PM 4.37 39.866 2.457 6.54 4.58 12.13
1/18/2021 2:00:00 PM 4.37 39.866 2.419 6.56 4.64 12.18
1/18/2021 2:15:00 PM 4.46 40.028 2.475 6.56 4.64 12.12
1/18/2021 2:30:00 PM 4.37 39.866 2.471 6.52 4.58 12.12
1/18/2021 2:45:00 PM 4.36 39.848 2.446 6.54 4.67 12.13
1/18/2021 3:00:00 PM 4.36 39.848 2.477 6.55 4.51 12.14
1/18/2021 3:15:00 PM 4.32 39.776 2.449 6.57 4.55 11.96
1/18/2021 3:30:00 PM 4.31 39.758 2.437 6.56 4.58 12.09
1/18/2021 3:45:00 PM 4.24 39.632 2.455 6.54 4.53 11.8
1/18/2021 4:00:00 PM 4.24 39.632 2.466 6.57 4.58 12.23
1/18/2021 4:15:00 PM 4.19 39.542 2.514 6.53 12.61 11.39
1/18/2021 4:30:00 PM 4.4 39.92 2.452 6.5 4.44 11.75
1/18/2021 4:45:00 PM 4.5 40.1 2.491 6.54 4.52 12.03
1/18/2021 5:00:00 PM 4.44 39.992 2.604 6.52 4.47 12.07
1/18/2021 5:15:00 PM 4.41 39.938 2.591 6.55 4.51 12.09
1/18/2021 5:30:00 PM 4.49 40.082 2.62 6.56 4.49 12.01
1/18/2021 5:45:00 PM 4.28 39.704 2.39 6.56 4.52 12.17
1/18/2021 6:00:00 PM 4.46 40.028 2.739 6.52 4.44 11.98
1/18/2021 6:15:00 PM 4.4 39.92 2.674 6.51 4.44 12.01
1/18/2021 6:30:00 PM 4.35 39.83 2.681 6.5 4.4 12.05
1/18/2021 6:45:00 PM 4.26 39.668 2.526 6.51 4.5 12.07
1/18/2021 7:00:00 PM 4.33 39.794 2.523 6.52 4.49 12.05
1/18/2021 7:15:00 PM 4.3 39.74 2.47 6.52 4.56 12.1
1/18/2021 7:30:00 PM 4.25 39.65 2.488 6.52 4.57 12.09
1/18/2021 7:45:00 PM 4.45 40.01 2.743 6.54 4.54 12.02
1/18/2021 8:00:00 PM 4.52 40.136 2.76 6.54 4.57 12.01
1/18/2021 8:15:00 PM 4.43 39.974 2.651 6.55 4.56 12.07
1/18/2021 8:30:00 PM 4.48 40.064 2.667 6.54 4.42 12.04
1/18/2021 8:45:00 PM 4.4 39.92 2.644 6.52 4.44 12.09
1/18/2021 9:00:00 PM 4.4 39.92 2.668 6.51 4.41 12.06
1/18/2021 9:15:00 PM 4.45 40.01 2.678 6.55 4.4 12.03
1/18/2021 9:30:00 PM 4.41 39.938 2.691 6.54 4.38 12.06
1/18/2021 9:45:00 PM 4.25 39.65 2.691 6.54 4.42 12.14
1/18/2021 10:00:00 PM 4.14 39.452 2.559 6.53 4.44 12.21
1/18/2021 10:15:00 PM 4.27 39.686 2.643 6.51 4.44 12.12
1/18/2021 10:30:00 PM 4.26 39.668 2.624 6.53 4.43 12.1
1/18/2021 10:45:00 PM 4.02 39.236 2.455 6.49 4.44 12.25
1/18/2021 11:00:00 PM 4.04 39.272 2.437 6.53 4.41 12.25
1/18/2021 11:15:00 PM 3.98 39.164 2.454 6.51 4.43 12.28
1/18/2021 11:30:00 PM 4.31 39.758 2.777 6.54 4.39 12.12
1/18/2021 11:45:00 PM 4.35 39.83 2.761 6.5 4.45 12.11
1/19/2021 12:00:00 AM 4.27 39.686 2.747 6.54 4.45 12.15
1/19/2021 12:15:00 AM 4.25 39.65 2.691 6.54 4.46 12.16
1/19/2021 12:30:00 AM 4.29 39.722 2.709 6.53 4.49 12.13
1/19/2021 12:45:00 AM 4.35 39.83 2.751 6.55 4.54 12.1
1/19/2021 1:00:00 AM 4.24 39.632 2.659 6.52 4.39 12.12
1/19/2021 1:15:00 AM 4.19 39.542 2.746 6.51 4.37 12.1
1/19/2021 1:30:00 AM 4.33 39.794 2.796 6.52 4.36 12.06
1/19/2021 1:45:00 AM 4.29 39.722 2.786 6.52 4.41 12.08
1/19/2021 2:00:00 AM 4.13 39.434 2.659 6.53 4.37 12.14
1/19/2021 2:15:00 AM 4.13 39.434 2.588 6.52 4.32 12.13
1/19/2021 2:30:00 AM 4.12 39.416 2.619 6.53 4.36 12.2
1/19/2021 2:45:00 AM 3.99 39.182 2.565 6.52 4.34 12.21
1/19/2021 3:00:00 AM 4.07 39.326 2.612 6.52 4.33 12.18
1/19/2021 3:15:00 AM 4.07 39.326 2.63 6.49 4.29 12.14
1/19/2021 3:30:00 AM 4.12 39.416 2.65 6.51 4.31 12.15
1/19/2021 3:45:00 AM 4.11 39.398 2.643 6.51 4.29 12.17
1/19/2021 4:00:00 AM 4.16 39.488 2.654 6.51 4.31 12.15
1/19/2021 4:15:00 AM 4.15 39.47 2.643 6.51 4.34 12.17
1/19/2021 4:30:00 AM 4.12 39.416 2.625 6.53 4.31 12.18
1/19/2021 4:45:00 AM 4.13 39.434 2.644 6.53 4.29 12.18
1/19/2021 5:00:00 AM 4.12 39.416 2.668 6.52 4.32 12.2
1/19/2021 5:15:00 AM 4.2 39.56 2.734 6.52 4.33 12.14
1/19/2021 5:30:00 AM 4.45 40.01 2.872 6.53 4.47 12.01
1/19/2021 5:45:00 AM 4.03 39.254 2.682 6.52 4.29 12.2
1/19/2021 6:00:00 AM 4.13 39.434 2.724 6.52 4.29 12.19
1/19/2021 6:15:00 AM 4.13 39.434 2.696 6.52 4.29 12.18
1/19/2021 6:30:00 AM 4.34 39.812 2.778 6.52 4.31 12.06
1/19/2021 6:45:00 AM 4.18 39.524 2.731 6.51 4.36 12.15
1/19/2021 7:00:00 AM 4.27 39.686 2.709 6.52 4.32 12.06
1/19/2021 7:15:00 AM 4.19 39.542 2.623 6.49 4.28 12.15
1/19/2021 7:30:00 AM 4.18 39.524 2.623 6.5 4.34 12.18
1/19/2021 7:45:00 AM 3.98 39.164 2.552 6.52 4.44 12.24
1/19/2021 8:00:00 AM 4.11 39.398 2.7 6.5 4.44 12.15
1/19/2021 8:15:00 AM 4.03 39.254 2.68 6.5 4.42 12.2
1/19/2021 8:30:00 AM 3.91 39.038 2.701 6.5 4.51 12.28
1/19/2021 8:45:00 AM 3.84 38.912 2.623 6.51 4.46 12.26
1/19/2021 9:00:00 AM 3.69 38.642 2.605 6.5 4.45 12.36
1/19/2021 9:15:00 AM 3.66 38.588 2.592 6.52 4.45 12.36
1/19/2021 9:30:00 AM 3.61 38.498 2.594 6.51 4.46 12.37
1/19/2021 9:45:00 AM 3.64 38.552 2.588 6.5 4.52 12.43
1/19/2021 10:00:00 AM 3.64 38.552 2.577 6.53 4.49 12.46
1/19/2021 10:15:00 AM 3.76 38.768 2.61 6.55 4.49 12.43
1/19/2021 10:30:00 AM 3.88 38.984 2.594 6.53 4.54 12.37
1/19/2021 10:45:00 AM 3.85 38.93 2.57 6.47 4.59 12.41
1/19/2021 11:00:00 AM 3.84 38.912 2.577 6.53 4.57 12.42
1/19/2021 11:15:00 AM 4.08 39.344 2.715 6.54 4.52 12.34
1/19/2021 11:30:00 AM 4 39.2 2.637 6.55 4.56 12.36
1/19/2021 11:45:00 AM 3.89 39.002 2.624 6.55 4.48 12.41
1/19/2021 12:00:00 PM 3.99 39.182 2.628 6.5 4.5 12.37
1/19/2021 12:15:00 PM 3.96 39.128 2.606 6.52 4.5 12.36
1/19/2021 12:30:00 PM 4.03 39.254 2.636 6.54 4.52 12.29
1/19/2021 12:45:00 PM 4.05 39.29 2.618 6.55 4.55 12.36
1/19/2021 1:00:00 PM 4.13 39.434 2.657 6.56 4.56 12.3
1/19/2021 1:15:00 PM 4.06 39.308 2.584 6.56 4.59 12.4
1/19/2021 1:30:00 PM 4.07 39.326 2.579 6.56 4.59 12.42
1/19/2021 1:45:00 PM 4.11 39.398 2.608 6.57 4.61 12.38
1/19/2021 2:00:00 PM 4.15 39.47 2.604 6.57 4.5 12.36
1/19/2021 2:15:00 PM 4.1 39.38 2.555 6.56 4.51 12.39
1/19/2021 2:30:00 PM 4.11 39.398 2.558 6.56 4.36 12.37
1/19/2021 2:45:00 PM 4.11 39.398 2.563 6.56 4.32 12.36
1/19/2021 3:00:00 PM 4.24 39.632 2.633 6.56 4.38 12.33
1/19/2021 3:15:00 PM 4.27 39.686 2.636 6.56 4.38 12.27
1/19/2021 3:30:00 PM 4.24 39.632 2.631 6.56 4.39 12.3
1/19/2021 3:45:00 PM 4.27 39.686 2.617 6.55 4.4 12.26
1/19/2021 4:00:00 PM 4.22 39.596 2.651 6.55 4.39 12.23
1/19/2021 4:15:00 PM 4.14 39.452 2.598 6.56 4.32 12.3
1/19/2021 4:30:00 PM 4.22 39.596 2.637 6.54 4.31 12.26
1/19/2021 4:45:00 PM 4.16 39.488 2.575 6.54 4.32 12.31
1/19/2021 5:00:00 PM 4.16 39.488 2.618 6.54 4.34 12.28
1/19/2021 5:15:00 PM 4.09 39.362 2.642 6.53 4.39 12.25
1/19/2021 5:30:00 PM 4.03 39.254 2.603 6.53 4.36 12.31
1/19/2021 5:45:00 PM 4 39.2 2.623 6.53 4.39 12.31
1/19/2021 6:00:00 PM 3.91 39.038 2.602 6.53 4.46 12.39
1/19/2021 6:15:00 PM 3.9 39.02 2.602 6.53 4.4 12.33
1/19/2021 6:30:00 PM 3.87 38.966 2.603 6.53 4.38 12.32
1/19/2021 6:45:00 PM 3.91 39.038 2.629 6.52 4.4 12.29
1/19/2021 7:00:00 PM 3.84 38.912 2.624 6.52 4.39 12.35
1/19/2021 7:15:00 PM 3.82 38.876 2.62 6.52 4.55 12.32
1/19/2021 7:30:00 PM 3.75 38.75 2.614 6.52 4.52 12.28
1/19/2021 7:45:00 PM 3.69 38.642 2.523 6.53 4.57 12.42
1/19/2021 8:00:00 PM 3.61 38.498 2.486 6.53 4.57 12.46
1/19/2021 8:15:00 PM 3.61 38.498 2.565 6.52 4.53 12.41
1/19/2021 8:30:00 PM 3.5 38.3 2.524 6.52 4.52 12.51
1/19/2021 8:45:00 PM 3.64 38.552 2.562 6.51 4.53 12.46
1/19/2021 9:00:00 PM 3.95 39.11 2.615 6.51 4.27 12.23
1/19/2021 9:15:00 PM 3.97 39.146 2.521 6.48 4.19 12.24
1/19/2021 9:30:00 PM 3.96 39.128 2.481 6.54 4.24 12.23
1/19/2021 9:45:00 PM 3.27 37.886 2.548 6.52 4.26 12.57
1/19/2021 10:00:00 PM 3.23 37.814 2.538 6.53 4.26 12.49
1/19/2021 10:15:00 PM 3.61 38.498 2.536 6.51 4.31 12.32
1/19/2021 10:30:00 PM 3.61 38.498 2.568 6.46 4.3 12.35
1/19/2021 10:45:00 PM 3.44 38.192 2.523 6.51 4.3 12.43
1/19/2021 11:00:00 PM 3.48 38.264 2.479 6.51 4.26 12.4
1/19/2021 11:15:00 PM 3.55 38.39 2.48 6.52 4.23 12.4
1/19/2021 11:30:00 PM 3.62 38.516 2.455 6.52 4.23 12.38
1/19/2021 11:45:00 PM 3.69 38.642 2.491 6.53 4.21 12.28
1/20/2021 12:00:00 AM 3.61 38.498 2.463 6.52 4.23 12.34
1/20/2021 12:15:00 AM 3.64 38.552 2.532 6.52 4.24 12.3
1/20/2021 12:30:00 AM 3.58 38.444 2.497 6.51 4.25 12.36
1/20/2021 12:45:00 AM 3.43 38.174 2.444 6.48 4.22 12.43
1/20/2021 1:00:00 AM 3.38 38.084 2.441 6.52 4.23 12.45
1/20/2021 1:15:00 AM 3.36 38.048 2.398 6.52 4.26 12.43
1/20/2021 1:30:00 AM 3.48 38.264 2.431 6.52 4.27 12.36
1/20/2021 1:45:00 AM 3.47 38.246 2.403 6.52 4.27 12.34
1/20/2021 2:00:00 AM 3.59 38.462 2.442 6.53 4.26 12.27
1/20/2021 2:15:00 AM 3.63 38.534 2.47 6.54 4.27 12.28
1/20/2021 2:30:00 AM 3.74 38.732 2.528 6.54 4.27 12.26
1/20/2021 2:45:00 AM 3.6 38.48 2.502 6.53 4.3 12.23
1/20/2021 3:00:00 AM 3.67 38.606 2.501 6.53 4.25 12.19
1/20/2021 3:15:00 AM 3.47 38.246 2.443 6.53 4.25 12.35
1/20/2021 3:30:00 AM 3.3 37.94 2.42 6.53 4.27 12.39
1/20/2021 3:45:00 AM 3.49 38.282 2.473 6.54 4.23 12.24
1/20/2021 4:00:00 AM 3.52 38.336 2.463 6.51 4.21 12.33
1/20/2021 4:15:00 AM 3.51 38.318 2.519 6.54 4.11 12.28
1/20/2021 4:30:00 AM 3.39 38.102 2.501 6.54 4.14 12.37
1/20/2021 4:45:00 AM 3.5 38.3 2.481 6.54 4.17 12.36
1/20/2021 5:00:00 AM 3.54 38.372 2.503 6.53 4.14 12.32
1/20/2021 5:15:00 AM 3.42 38.156 2.524 6.53 4.15 12.36
1/20/2021 5:30:00 AM 3.51 38.318 2.509 6.53 4.15 12.19
1/20/2021 5:45:00 AM 3.54 38.372 2.512 6.54 4.16 12.19
1/20/2021 6:00:00 AM 3.43 38.174 2.485 6.53 4.15 12.27
1/20/2021 6:15:00 AM 3.12 37.616 2.386 6.51 4.15 12.03
1/20/2021 6:30:00 AM 3.33 37.994 2.456 6.53 4.14 12.14
1/20/2021 6:45:00 AM 3.29 37.922 2.422 6.53 4.15 12.16
1/20/2021 7:00:00 AM 3.36 38.048 2.474 6.51 4.12 12.2
1/20/2021 7:15:00 AM 3.32 37.976 2.468 6.51 4.12 12.03
1/20/2021 7:30:00 AM 3.28 37.904 2.447 6.52 4.28 12.05
1/20/2021 7:45:00 AM 3.37 38.066 2.487 6.51 4.29 12.3
1/20/2021 8:00:00 AM 3.43 38.174 2.519 6.52 4.32 11.76
1/20/2021 8:15:00 AM 3.25 37.85 2.441 6.48 4.37 12.14
1/20/2021 8:30:00 AM 3.28 37.904 2.469 6.51 4.35 12.32
1/20/2021 8:45:00 AM 3.24 37.832 2.455 6.51 4.31 12.45
1/20/2021 9:00:00 AM 3.29 37.922 2.444 6.51 4.31 12.49
1/20/2021 9:15:00 AM 3.27 37.886 2.458 6.52 4.22 12.56
1/20/2021 9:30:00 AM 3.29 37.922 2.494 6.52 4.25 12.51
1/20/2021 9:45:00 AM 3.37 38.066 2.503 6.52 4.22 12.38
1/20/2021 10:00:00 AM 3.34 38.012 2.482 6.54 4.27 12.32
1/20/2021 10:15:00 AM 3.33 37.994 2.472 6.53 4.23 12.46
1/20/2021 10:30:00 AM 3.33 37.994 2.447 6.52 4.22 12.06
1/20/2021 10:45:00 AM 3.36 38.048 2.432 6.53 4.21 12.27
1/20/2021 11:00:00 AM 3.36 38.048 2.43 6.54 4.26 12.09
1/20/2021 11:15:00 AM 3.21 37.778 2.365 6.53 4.28 12.19
1/20/2021 11:30:00 AM 3.33 37.994 2.378 6.54 4.28 12.25
1/20/2021 11:45:00 AM 3.31 37.958 2.39 6.55 4.2 12.25
1/20/2021 12:00:00 PM 3.3 37.94 2.386 6.54 4.18 11.93
1/20/2021 12:15:00 PM 3.35 38.03 2.395 6.53 4.18 12.28
1/20/2021 12:30:00 PM 3.43 38.174 2.433 6.56 4.18 12.28
1/20/2021 12:45:00 PM 3.45 38.21 2.414 6.56 4.2 12.1
1/20/2021 1:00:00 PM 3.49 38.282 2.431 6.55 4.18 12.33
1/20/2021 1:15:00 PM 3.49 38.282 2.414 6.56 4.13 12.21
1/20/2021 1:30:00 PM 3.54 38.372 2.43 6.54 4.15 11.94
1/20/2021 1:45:00 PM 3.49 38.282 2.4 6.53 4.16 11.84
1/20/2021 2:00:00 PM 3.35 38.03 2.353 6.54 4.2 12
1/20/2021 2:15:00 PM 3.46 38.228 2.411 6.54 4.25 12.12
1/20/2021 2:30:00 PM 3.47 38.246 2.436 6.54 4.25 12.42
1/20/2021 2:45:00 PM 3.29 37.922 2.279 6.53 4.29 12.39
1/20/2021 3:00:00 PM 3.18 37.724 2.546 6.57 5.34 11.17
1/20/2021 3:15:00 PM 3.61 38.498 2.574 6.53 3.95 12.22
1/20/2021 3:30:00 PM 3.51 38.318 2.549 6.56 3.99 12.57
1/20/2021 3:45:00 PM 3.59 38.462 2.546 6.56 4.01 12.54
1/20/2021 4:00:00 PM 3.27 37.886 2.506 6.56 4 12.62
1/20/2021 4:15:00 PM 3.19 37.742 2.483 6.56 4.03 12.69
1/20/2021 4:30:00 PM 3.25 37.85 2.501 6.49 4.03 12.65
1/20/2021 4:45:00 PM 3.25 37.85 2.509 6.54 4.03 12.62
1/20/2021 5:00:00 PM 3.27 37.886 2.593 6.5 4.01 12.61
1/20/2021 5:15:00 PM 3.15 37.67 2.544 6.55 3.98 12.65
1/20/2021 5:30:00 PM 3.16 37.688 2.561 6.54 4 12.63
1/20/2021 5:45:00 PM 3.16 37.688 2.606 6.54 4.01 12.56
1/20/2021 6:00:00 PM 3.15 37.67 2.582 6.55 4.04 12.6
1/20/2021 6:15:00 PM 3.22 37.796 2.615 6.53 4.03 12.55
1/20/2021 6:30:00 PM 3.14 37.652 2.583 6.53 4.03 12.6
1/20/2021 6:45:00 PM 3.1 37.58 2.568 6.52 3.99 12.61
1/20/2021 7:00:00 PM 2.94 37.292 2.514 6.54 4.01 12.7
1/20/2021 7:15:00 PM 2.94 37.292 2.538 6.55 4.02 12.7
1/20/2021 7:30:00 PM 2.85 37.13 2.531 6.55 4.02 12.77
1/20/2021 7:45:00 PM 2.96 37.328 2.558 6.55 4.02 12.71
1/20/2021 8:00:00 PM 2.93 37.274 2.557 6.55 4.05 12.7
1/20/2021 8:15:00 PM 3.06 37.508 2.619 6.54 4.01 12.63
1/20/2021 8:30:00 PM 2.98 37.364 2.624 6.54 4 12.67
1/20/2021 8:45:00 PM 2.91 37.238 2.578 6.53 4.02 12.72
1/20/2021 9:00:00 PM 3.04 37.472 2.661 6.54 4.03 12.62
1/20/2021 9:15:00 PM 3.14 37.652 2.688 6.53 4.05 12.55
1/20/2021 9:30:00 PM 2.94 37.292 2.628 6.53 4.04 12.63
1/20/2021 9:45:00 PM 3 37.4 2.63 6.52 3.98 12.61
1/20/2021 10:00:00 PM 3.04 37.472 2.651 6.48 4.02 12.57
1/20/2021 10:15:00 PM 2.96 37.328 2.639 6.51 4 12.62
1/20/2021 10:30:00 PM 2.9 37.22 2.637 6.51 3.92 12.68
1/20/2021 10:45:00 PM 2.88 37.184 2.591 6.5 3.88 12.65
1/20/2021 11:00:00 PM 2.85 37.13 2.642 6.51 3.9 12.65
1/20/2021 11:15:00 PM 2.84 37.112 2.623 6.52 3.91 12.64
1/20/2021 11:30:00 PM 2.9 37.22 2.64 6.5 3.89 12.65
1/20/2021 11:45:00 PM 2.88 37.184 2.634 6.51 3.95 12.59
1/21/2021 12:00:00 AM 2.66 36.788 2.54 6.51 3.98 12.73
1/21/2021 12:15:00 AM 2.62 36.716 2.526 6.47 4 12.74
1/21/2021 12:30:00 AM 2.55 36.59 2.537 6.49 4.03 12.79
1/21/2021 12:45:00 AM 2.66 36.788 2.572 6.51 4.01 12.74
1/21/2021 1:00:00 AM 2.51 36.518 2.561 6.5 4.01 12.76
1/21/2021 1:15:00 AM 2.85 37.13 2.47 6.53 3.99 12.63
1/21/2021 1:30:00 AM 3.03 37.454 2.511 6.52 3.96 12.54
1/21/2021 1:45:00 AM 2.67 36.806 2.586 6.52 3.96 12.7
1/21/2021 2:00:00 AM 2.77 36.986 2.588 6.52 3.96 12.59
1/21/2021 2:15:00 AM 2.69 36.842 2.632 6.54 3.99 12.68
1/21/2021 2:30:00 AM 2.59 36.662 2.536 6.55 3.96 12.7
1/21/2021 2:45:00 AM 2.53 36.554 2.468 6.55 4.01 12.75
1/21/2021 3:00:00 AM 2.56 36.608 1.89 6.54 3.98 12.75
1/21/2021 3:15:00 AM 2.6 36.68 1.294 6.54 3.99 12.76
1/21/2021 3:30:00 AM 2.58 36.644 1.484 6.54 3.97 12.72
1/21/2021 3:45:00 AM 2.65 36.77 1.72 6.51 3.97 12.7
1/21/2021 4:00:00 AM 2.44 36.392 1.66 6.54 3.96 12.8
1/21/2021 4:15:00 AM 2.31 36.158 0 6.52 3.96 12.91
1/21/2021 4:30:00 AM 2.11 35.798 0 6.55 3.97 13.04
1/21/2021 4:45:00 AM 2.5 36.5 2.743 6.54 3.95 12.67
1/21/2021 5:00:00 AM 2.41 36.338 2.689 6.5 3.97 12.68
1/21/2021 5:15:00 AM 2.4 36.32 2.686 6.51 3.94 12.69
1/21/2021 5:30:00 AM 2.34 36.212 2.611 6.52 3.95 12.72
1/21/2021 5:45:00 AM 2.47 36.446 2.733 6.53 3.98 12.64
1/21/2021 6:00:00 AM 2.41 36.338 2.701 6.52 3.96 12.66
1/21/2021 6:15:00 AM 2.15 35.87 2.64 6.51 3.97 12.83
1/21/2021 6:30:00 AM 2.17 35.906 2.679 6.43 3.98 12.74
1/21/2021 6:45:00 AM 2.14 35.852 2.647 6.51 3.94 12.82
1/21/2021 7:00:00 AM 2.3 36.14 2.714 6.52 3.97 12.69
1/21/2021 7:15:00 AM 2.25 36.05 2.719 6.47 3.97 12.72
1/21/2021 7:30:00 AM 2.12 35.816 2.657 6.53 3.95 12.83
1/21/2021 7:45:00 AM 2.25 36.05 2.671 6.53 3.97 12.75
1/21/2021 8:00:00 AM 2.44 36.392 2.687 6.53 3.96 12.65
1/21/2021 8:15:00 AM 2.41 36.338 2.745 6.49 3.91 12.74
1/21/2021 8:30:00 AM 2.22 35.996 2.632 6.52 3.94 12.85
1/21/2021 8:45:00 AM 2.38 36.284 2.642 6.53 3.93 12.75
1/21/2021 9:00:00 AM 2.52 36.536 2.748 6.55 3.96 12.71
1/21/2021 9:15:00 AM 2.36 36.248 2.652 6.55 3.92 12.81
1/21/2021 9:30:00 AM 2.31 36.158 2.643 6.56 3.95 12.89
1/21/2021 9:45:00 AM 2.47 36.446 2.65 6.56 3.95 12.8
1/21/2021 10:00:00 AM 2.35 36.23 2.585 6.56 3.91 12.89
1/21/2021 10:15:00 AM 2.42 36.356 2.602 6.57 3.95 12.89
1/21/2021 10:30:00 AM 2.37 36.266 2.572 6.56 3.94 12.9
1/21/2021 10:45:00 AM 2.42 36.356 2.601 6.58 3.93 12.94
1/21/2021 11:00:00 AM 2.86 37.148 2.565 6.58 3.94 12.64
1/21/2021 11:15:00 AM 2.62 36.716 2.462 6.57 3.93 12.76
1/21/2021 11:30:00 AM 3.03 37.454 2.534 6.6 3.94 12.63
1/21/2021 11:45:00 AM 3.06 37.508 2.619 6.57 3.99 12.63
1/21/2021 12:00:00 PM 3.06 37.508 2.621 6.58 3.94 12.57
1/21/2021 12:15:00 PM 2.96 37.328 2.449 6.52 3.93 12.6
1/21/2021 12:30:00 PM 3.01 37.418 2.574 6.58 3.92 12.65
1/21/2021 12:45:00 PM 3.18 37.724 2.564 6.58 3.91 12.59
1/21/2021 1:00:00 PM 3.44 38.192 2.677 6.59 3.91 12.46
1/21/2021 1:15:00 PM 3.34 38.012 2.578 6.54 3.93 12.53
1/21/2021 1:30:00 PM 3.18 37.724 2.368 6.59 3.93 12.59
1/21/2021 1:45:00 PM 3.26 37.868 2.38 6.6 3.93 12.58
1/21/2021 2:00:00 PM 3.24 37.832 2.322 6.58 3.88 12.55
1/21/2021 2:15:00 PM 3.28 37.904 2.333 6.59 3.9 12.57
1/21/2021 2:30:00 PM 3.68 38.624 2.663 6.58 3.92 12.28
1/21/2021 2:45:00 PM 3.58 38.444 2.636 6.56 3.95 12.29
1/21/2021 3:00:00 PM 3.53 38.354 2.549 6.55 3.9 12.3
1/21/2021 3:15:00 PM 3.49 38.282 2.555 6.55 3.91 12.32
1/21/2021 3:30:00 PM 3.54 38.372 2.561 6.55 3.93 12.24
1/21/2021 3:45:00 PM 3.7 38.66 2.656 6.57 3.94 12.21
1/21/2021 4:00:00 PM 3.65 38.57 2.651 6.5 3.91 12.24
1/21/2021 4:15:00 PM 3.6 38.48 2.466 6.55 3.92 12.3
1/21/2021 4:30:00 PM 3.58 38.444 2.422 6.58 3.91 12.29
1/21/2021 4:45:00 PM 3.61 38.498 2.526 6.54 3.91 12.28
1/21/2021 5:00:00 PM 3.57 38.426 2.481 6.54 3.96 12.2
1/21/2021 5:15:00 PM 3.63 38.534 2.48 6.5 3.85 12.15
1/21/2021 5:30:00 PM 3.79 38.822 2.547 6.54 3.86 12.11
1/21/2021 5:45:00 PM 3.5 38.3 2.505 6.53 3.88 12.26
1/21/2021 6:00:00 PM 3.55 38.39 2.476 6.54 3.88 12.2
1/21/2021 6:15:00 PM 3.76 38.768 2.575 6.51 3.82 12.03
1/21/2021 6:30:00 PM 3.33 37.994 2.036 6.49 3.9 12.31
1/21/2021 6:45:00 PM 3.51 38.318 0.721 6.53 3.89 12.26
1/21/2021 7:00:00 PM 3.54 38.372 2.541 6.54 3.88 12.22
1/21/2021 7:15:00 PM 3.28 37.904 2.079 6.48 3.9 12.29
1/21/2021 7:30:00 PM 3.35 38.03 2.56 6.53 3.9 12.29
1/21/2021 7:45:00 PM 3.28 37.904 2.652 6.5 3.87 12.31
1/21/2021 8:00:00 PM 3.22 37.796 2.432 6.52 3.88 12.34
1/21/2021 8:15:00 PM 3.44 38.192 2.562 6.52 3.89 12.17
1/21/2021 8:30:00 PM 3.24 37.832 2.472 6.51 3.86 12.31
1/21/2021 8:45:00 PM 3.1 37.58 2.578 6.55 3.83 12.41
1/21/2021 9:00:00 PM 2.66 36.788 2.632 6.5 13.38 12.62
1/21/2021 9:15:00 PM 2.67 36.806 2.631 6.5 5.29 12.61
1/21/2021 9:30:00 PM 3.21 37.778 2.583 6.51 3.79 12.28
1/21/2021 9:45:00 PM 3.33 37.994 2.449 6.53 3.79 12.24
1/21/2021 10:00:00 PM 3.59 38.462 2.665 6.52 3.81 12.09
1/21/2021 10:15:00 PM 3.53 38.354 2.614 6.52 3.79 12.15
1/21/2021 10:30:00 PM 3.27 37.886 2.567 6.53 3.84 12.33
1/21/2021 10:45:00 PM 3.33 37.994 2.697 6.58 3.79 12.22
1/21/2021 11:00:00 PM 3.44 38.192 2.647 6.51 3.76 12.15
1/21/2021 11:15:00 PM 3.45 38.21 2.633 6.52 3.76 12.19
1/21/2021 11:30:00 PM 3.52 38.336 2.714 6.54 3.8 12.15
1/21/2021 11:45:00 PM 3.6 38.48 2.804 6.53 3.8 12.09
1/22/2021 12:00:00 AM 3.39 38.102 2.66 6.45 3.78 12.23
1/22/2021 12:15:00 AM 3.43 38.174 2.575 6.52 3.74 12.23
1/22/2021 12:30:00 AM 3.42 38.156 2.549 6.51 3.73 12.23
1/22/2021 12:45:00 AM 3.28 37.904 2.558 6.54 3.77 12.34
1/22/2021 1:00:00 AM 3.2 37.76 2.507 6.54 3.73 12.38
1/22/2021 1:15:00 AM 3.15 37.67 2.499 6.53 3.75 12.4
1/22/2021 1:30:00 AM 3.06 37.508 2.433 6.53 3.74 12.43
1/22/2021 1:45:00 AM 3.13 37.634 2.5 6.54 3.76 12.41
1/22/2021 2:00:00 AM 2.8 37.04 2.569 6.51 3.8 12.57
1/22/2021 2:15:00 AM 2.79 37.022 2.569 6.52 4.18 12.59
1/22/2021 2:30:00 AM 2.8 37.04 2.567 6.51 4.27 12.6
1/22/2021 2:45:00 AM 2.8 37.04 2.568 6.51 4.55 12.59
1/22/2021 3:00:00 AM 3.44 38.192 2.664 6.51 3.7 12.21
1/22/2021 3:15:00 AM 3.51 38.318 2.632 6.52 3.7 12.19
1/22/2021 3:30:00 AM 3.37 38.066 2.55 6.52 3.69 12.28
1/22/2021 3:45:00 AM 3.5 38.3 2.653 6.51 3.74 12.17
1/22/2021 4:00:00 AM 3.26 37.868 2.504 6.54 3.81 12.35
1/22/2021 4:15:00 AM 3.36 38.048 2.682 6.52 3.82 12.29
1/22/2021 4:30:00 AM 3.03 37.454 2.544 6.48 3.79 12.39
1/22/2021 4:45:00 AM 3.18 37.724 2.582 6.52 3.81 12.32
1/22/2021 5:00:00 AM 3.29 37.922 2.663 6.54 3.86 12.3
1/22/2021 5:15:00 AM 3.21 37.778 2.598 6.54 3.87 12.34
1/22/2021 5:30:00 AM 3.13 37.634 2.549 6.49 3.93 12.39
1/22/2021 5:45:00 AM 3.06 37.508 2.479 6.54 3.84 12.45
1/22/2021 6:00:00 AM 3.06 37.508 2.47 6.54 3.84 12.46
1/22/2021 6:15:00 AM 3.09 37.562 2.447 6.53 3.84 12.44
1/22/2021 6:30:00 AM 3 37.4 2.416 6.55 3.89 12.52
1/22/2021 6:45:00 AM 3.03 37.454 2.403 6.54 3.84 12.49
1/22/2021 7:00:00 AM 3.04 37.472 2.402 6.54 3.88 12.48
1/22/2021 7:15:00 AM 3.08 37.544 2.398 6.5 3.86 12.46
1/22/2021 7:30:00 AM 3.01 37.418 2.391 6.53 3.83 12.52
1/22/2021 7:45:00 AM 3.16 37.688 2.562 6.54 3.84 12.42
1/22/2021 8:00:00 AM 3.11 37.598 2.531 6.52 3.83 12.36
1/22/2021 8:15:00 AM 3.06 37.508 2.502 6.52 3.78 12.43
1/22/2021 8:30:00 AM 3.13 37.634 2.51 6.54 3.79 12.41
1/22/2021 8:45:00 AM 3.15 37.67 2.486 6.51 3.78 12.48
1/22/2021 9:00:00 AM 3.28 37.904 2.528 6.54 3.8 12.42
1/22/2021 9:15:00 AM 3.28 37.904 2.507 6.55 3.81 12.44
1/22/2021 9:30:00 AM 3.21 37.778 2.467 6.54 3.85 12.46
1/22/2021 9:45:00 AM 3.5 38.3 2.524 6.56 3.83 12.35
1/22/2021 10:00:00 AM 3.41 38.138 2.459 6.49 3.79 12.35
1/22/2021 10:15:00 AM 3.36 38.048 2.443 6.54 3.79 12.44
1/22/2021 10:30:00 AM 3.49 38.282 2.5 6.53 3.77 12.42
1/22/2021 10:45:00 AM 3.44 38.192 2.474 6.55 3.79 12.44
1/22/2021 11:00:00 AM 3.42 38.156 2.472 6.54 3.8 12.37
1/22/2021 11:15:00 AM 3.49 38.282 2.486 6.52 3.82 12.4
1/22/2021 11:30:00 AM 3.62 38.516 2.497 6.55 3.8 12.34
1/22/2021 11:45:00 AM 3.51 38.318 2.44 6.55 3.82 12.44
1/22/2021 12:00:00 PM 3.56 38.408 2.454 6.57 3.81 12.39
1/22/2021 12:15:00 PM 3.63 38.534 2.474 6.56 3.78 12.37
1/22/2021 12:30:00 PM 3.73 38.714 2.513 6.56 3.8 12.34
1/22/2021 12:45:00 PM 3.65 38.57 2.481 6.55 3.79 12.35
1/22/2021 1:00:00 PM 3.71 38.678 2.452 6.54 3.83 12.26
1/22/2021 1:15:00 PM 3.66 38.588 2.454 6.55 3.81 12.36
1/22/2021 1:30:00 PM 3.61 38.498 2.445 6.54 3.82 12.37
1/22/2021 1:45:00 PM 3.69 38.642 2.47 6.54 3.78 12.3
1/22/2021 2:00:00 PM 3.77 38.786 2.481 6.53 3.8 12.23
1/22/2021 2:15:00 PM 3.67 38.606 2.494 6.52 3.75 12.27
1/22/2021 2:30:00 PM 3.58 38.444 2.469 6.52 3.77 12.32
1/22/2021 2:45:00 PM 3.62 38.516 2.48 6.53 3.81 12.35
1/22/2021 3:00:00 PM 3.66 38.588 2.487 6.54 3.79 12.35
1/22/2021 3:15:00 PM 3.62 38.516 2.507 6.53 3.79 12.28
1/22/2021 3:30:00 PM 3.67 38.606 2.521 6.54 3.79 12.32
1/22/2021 3:45:00 PM 3.62 38.516 2.525 6.54 3.79 12.27
1/22/2021 4:00:00 PM 3.56 38.408 2.511 6.53 3.83 12.32
1/22/2021 4:15:00 PM 3.65 38.57 2.538 6.53 3.8 12.28
1/22/2021 4:30:00 PM 3.55 38.39 2.506 6.52 3.87 12.32
1/22/2021 4:45:00 PM 3.54 38.372 2.526 6.52 3.83 12.32
1/22/2021 5:00:00 PM 3.53 38.354 2.53 6.5 3.78 12.31
1/22/2021 5:15:00 PM 3.59 38.462 2.582 6.51 3.84 12.24
1/22/2021 5:30:00 PM 3.54 38.372 2.573 6.5 3.83 12.24
1/22/2021 5:45:00 PM 3.47 38.246 2.551 6.5 3.84 12.27
1/22/2021 6:00:00 PM 3.48 38.264 2.551 6.5 3.81 12.24
1/22/2021 6:15:00 PM 3.43 38.174 2.518 6.49 3.83 12.15
1/22/2021 6:30:00 PM 3.42 38.156 2.524 6.49 3.82 12.31
1/22/2021 6:45:00 PM 3.37 38.066 2.525 6.49 3.8 12.28
1/22/2021 7:00:00 PM 3.34 38.012 2.525 6.49 3.81 12.22
1/22/2021 7:15:00 PM 3.33 37.994 2.518 6.49 3.79 12.31
1/22/2021 7:30:00 PM 3.33 37.994 2.525 6.49 3.8 12.36
1/22/2021 7:45:00 PM 3.3 37.94 2.524 6.5 3.8 12.3
1/22/2021 8:00:00 PM 3.32 37.976 2.548 6.48 3.82 12.33
1/22/2021 8:15:00 PM 3.25 37.85 2.553 6.5 3.77 12.44
1/22/2021 8:30:00 PM 3.15 37.67 2.529 6.5 3.79 12.44
1/22/2021 8:45:00 PM 3.22 37.796 2.549 6.5 3.79 12.39
1/22/2021 9:00:00 PM 3.19 37.742 2.57 6.49 3.79 12.43
1/22/2021 9:15:00 PM 3.21 37.778 2.555 6.5 3.79 12.36
1/22/2021 9:30:00 PM 3.26 37.868 2.591 6.48 3.77 12.34
1/22/2021 9:45:00 PM 3.11 37.598 2.556 6.48 3.81 12.45
1/22/2021 10:00:00 PM 3.05 37.49 2.551 6.5 3.81 12.51
1/22/2021 10:15:00 PM 3.11 37.598 2.56 6.49 3.83 12.47
1/22/2021 10:30:00 PM 3 37.4 2.546 6.48 3.83 12.53
1/22/2021 10:45:00 PM 3.03 37.454 2.562 6.49 3.79 12.52
1/22/2021 11:00:00 PM 2.96 37.328 2.549 6.48 3.79 12.54
1/22/2021 11:15:00 PM 2.93 37.274 2.546 6.48 3.81 12.53
1/22/2021 11:30:00 PM 2.91 37.238 2.563 6.49 3.81 12.62
1/22/2021 11:45:00 PM 2.96 37.328 2.57 6.5 3.81 12.57
1/23/2021 12:00:00 AM 2.87 37.166 2.549 6.48 3.77 12.6
1/23/2021 12:15:00 AM 2.93 37.274 2.582 6.49 3.81 12.57
1/23/2021 12:30:00 AM 2.85 37.13 2.563 6.49 3.8 12.62
1/23/2021 12:45:00 AM 2.91 37.238 2.582 6.48 3.77 12.56
1/23/2021 1:00:00 AM 2.68 36.824 2.535 6.48 3.79 12.65
1/23/2021 1:15:00 AM 2.68 36.824 2.551 6.48 3.78 12.7
1/23/2021 1:30:00 AM 2.73 36.914 2.572 6.49 3.76 12.64
1/23/2021 1:45:00 AM 2.59 36.662 2.542 6.49 3.79 12.7
1/23/2021 2:00:00 AM 2.77 36.986 2.592 6.49 3.76 12.65
1/23/2021 2:15:00 AM 2.64 36.752 2.565 6.49 3.76 12.7
1/23/2021 2:30:00 AM 2.65 36.77 2.563 6.47 3.76 12.64
1/23/2021 2:45:00 AM 2.58 36.644 2.554 6.48 3.78 12.71
1/23/2021 3:00:00 AM 2.63 36.734 2.586 6.47 3.79 12.69
1/23/2021 3:15:00 AM 2.58 36.644 2.568 6.5 3.78 12.72
1/23/2021 3:30:00 AM 2.6 36.68 2.589 6.48 3.79 12.74
1/23/2021 3:45:00 AM 2.49 36.482 2.555 6.48 3.77 12.77
1/23/2021 4:00:00 AM 2.47 36.446 2.533 6.5 3.75 12.83
1/23/2021 4:15:00 AM 2.38 36.284 2.524 6.5 3.8 12.81
1/23/2021 4:30:00 AM 2.34 36.212 2.514 6.5 3.8 12.86
1/23/2021 4:45:00 AM 2.39 36.302 2.52 6.5 3.79 12.82
1/23/2021 5:00:00 AM 2.35 36.23 2.513 6.5 3.79 12.88
1/23/2021 5:15:00 AM 2.29 36.122 2.507 6.5 3.8 12.85
1/23/2021 5:30:00 AM 2.26 36.068 2.512 6.49 3.78 12.87
1/23/2021 5:45:00 AM 2.22 35.996 2.51 6.5 3.76 12.92
1/23/2021 6:00:00 AM 2.22 35.996 2.504 6.5 3.78 12.92
1/23/2021 6:15:00 AM 2.2 35.96 2.506 6.5 3.77 12.91
1/23/2021 6:30:00 AM 2.17 35.906 2.498 6.5 3.78 12.97
1/23/2021 6:45:00 AM 2.19 35.942 2.5 6.5 3.76 12.94
1/23/2021 7:00:00 AM 2.14 35.852 2.502 6.49 3.78 12.99
1/23/2021 7:15:00 AM 2.2 35.96 2.52 6.5 3.82 12.94
1/23/2021 7:30:00 AM 2.11 35.798 2.505 6.49 3.79 12.96
1/23/2021 7:45:00 AM 2.23 36.014 2.528 6.49 3.78 12.91
1/23/2021 8:00:00 AM 2.14 35.852 2.52 6.5 3.8 13.01
1/23/2021 8:15:00 AM 2.29 36.122 2.525 6.5 3.81 12.93
1/23/2021 8:30:00 AM 2.31 36.158 2.538 6.51 3.77 12.95
1/23/2021 8:45:00 AM 2.1 35.78 2.504 6.51 3.78 13.06
1/23/2021 9:00:00 AM 2.29 36.122 2.553 6.51 3.82 12.99
1/23/2021 9:15:00 AM 2.38 36.284 2.534 6.52 3.8 12.92
1/23/2021 9:30:00 AM 2.24 36.032 2.5 6.52 3.79 13.03
1/23/2021 9:45:00 AM 2.15 35.87 2.498 6.53 3.75 13.11
1/23/2021 10:00:00 AM 2.4 36.32 2.555 6.52 3.81 13.01
1/23/2021 10:15:00 AM 2.38 36.284 2.515 6.49 3.79 13.01
1/23/2021 10:30:00 AM 2.25 36.05 2.47 6.53 3.79 13.09
1/23/2021 10:45:00 AM 2.24 36.032 2.446 6.53 3.81 13.09
1/23/2021 11:00:00 AM 2.29 36.122 2.446 6.52 3.77 13.11
1/23/2021 11:15:00 AM 2.28 36.104 2.415 6.55 3.78 13.1
1/23/2021 11:30:00 AM 2.32 36.176 2.382 6.56 3.8 13.12
1/23/2021 11:45:00 AM 2.42 36.356 2.38 6.56 3.75 13.11
1/23/2021 12:00:00 PM 2.43 36.374 2.347 6.53 3.76 13.08
1/23/2021 12:15:00 PM 2.43 36.374 2.305 6.55 3.76 13.03
1/23/2021 12:30:00 PM 2.34 36.212 2.597 6.56 3.83 13.15
1/23/2021 12:45:00 PM 2.9 37.22 2.652 6.6 3.84 12.84
1/23/2021 1:00:00 PM 2.91 37.238 2.577 6.52 3.83 12.78
1/23/2021 1:15:00 PM 3.16 37.688 2.687 6.52 3.85 12.63
1/23/2021 1:30:00 PM 2.91 37.238 2.521 6.54 3.85 12.8
1/23/2021 1:45:00 PM 2.72 36.896 2.379 6.51 3.85 12.89
1/23/2021 2:00:00 PM 2.4 36.32 2.431 6.56 3.89 13.09
1/23/2021 2:15:00 PM 2.85 37.13 2.523 6.58 3.79 12.87
1/23/2021 2:30:00 PM 2.8 37.04 2.381 6.57 3.81 12.88
1/23/2021 2:45:00 PM 2.94 37.292 2.51 6.52 3.82 12.79
1/23/2021 3:00:00 PM 2.91 37.238 2.475 6.55 3.78 12.8
1/23/2021 3:15:00 PM 2.71 36.878 2.444 6.54 3.77 12.91
1/23/2021 3:30:00 PM 2.78 37.004 2.455 6.55 3.75 12.86
1/23/2021 3:45:00 PM 2.82 37.076 2.493 6.55 3.71 12.82
1/23/2021 4:00:00 PM 2.72 36.896 2.441 6.55 3.71 12.88
1/23/2021 4:15:00 PM 2.79 37.022 2.45 6.54 3.75 12.86
1/23/2021 4:30:00 PM 2.72 36.896 2.461 6.55 3.74 12.86
1/23/2021 4:45:00 PM 2.64 36.752 2.432 6.54 3.74 12.87
1/23/2021 5:00:00 PM 2.5 36.5 2.434 6.51 3.73 12.92
1/23/2021 5:15:00 PM 2.39 36.302 2.433 6.52 3.78 12.98
1/23/2021 5:30:00 PM 2.32 36.176 2.445 6.53 3.76 12.99
1/23/2021 5:45:00 PM 2.88 37.184 2.651 6.52 3.76 12.68
1/23/2021 6:00:00 PM 2.52 36.536 2.458 6.51 3.74 12.79
1/23/2021 6:15:00 PM 2.67 36.806 2.479 6.49 3.74 12.74
1/23/2021 6:30:00 PM 2.85 37.13 2.55 6.43 3.76 12.52
1/23/2021 6:45:00 PM 2.53 36.554 2.393 6.44 3.79 12.7
1/23/2021 7:00:00 PM 2.87 37.166 2.686 6.44 3.74 12.16
1/23/2021 7:15:00 PM 2.29 36.122 2.536 6.44 3.75 12.79
1/23/2021 7:30:00 PM 2.9 37.22 2.527 6.45 3.7 12.38
1/23/2021 7:45:00 PM 2.97 37.346 2.619 6.44 3.67 12.42
1/23/2021 8:00:00 PM 2.73 36.914 2.72 6.46 3.69 11.67
1/23/2021 8:15:00 PM 2.61 36.698 2.514 6.43 3.67 11.57
1/23/2021 8:30:00 PM 2.35 36.23 2.399 6.48 3.67 12.84
1/23/2021 8:45:00 PM 2.22 35.996 2.478 6.48 3.68 12.96
1/23/2021 9:00:00 PM 2.2 35.96 2.471 6.5 3.67 12.99
1/23/2021 9:15:00 PM 2.18 35.924 2.451 6.51 3.67 13.02
1/23/2021 9:30:00 PM 2.11 35.798 2.431 6.51 3.69 13.04
1/23/2021 9:45:00 PM 2.24 36.032 2.28 6.51 3.69 12.96
1/23/2021 10:00:00 PM 2.26 36.068 1.447 6.51 3.67 13.05
1/23/2021 10:15:00 PM 2.2 35.96 0.001 6.5 3.66 13.07
1/23/2021 10:30:00 PM 2.19 35.942 0.001 6.51 3.66 13.11
1/23/2021 10:45:00 PM 2.13 35.834 0.001 6.5 3.66 13.12
1/23/2021 11:00:00 PM 2.21 35.978 0.001 6.5 3.71 13.11
1/23/2021 11:15:00 PM 2.08 35.744 0.001 6.51 3.7 13.13
1/23/2021 11:30:00 PM 2 35.6 0.001 6.5 3.68 13.22
1/23/2021 11:45:00 PM 1.98 35.564 0.048 6.5 3.66 13.21
1/24/2021 12:00:00 AM 1.95 35.51 0.048 6.5 3.72 13.21
1/24/2021 12:15:00 AM 1.88 35.384 0.048 6.51 3.71 13.26
1/24/2021 12:30:00 AM 1.96 35.528 0.048 6.51 3.74 13.19
1/24/2021 12:45:00 AM 1.97 35.546 0.048 6.51 3.76 13.16
1/24/2021 1:00:00 AM 2 35.6 0.048 6.51 3.78 13.17
1/24/2021 1:15:00 AM 1.98 35.564 0.048 6.52 3.74 13.21
1/24/2021 1:30:00 AM 1.88 35.384 0.048 6.52 3.74 13.25
1/24/2021 1:45:00 AM 1.84 35.312 0.048 6.52 3.7 13.28
1/24/2021 2:00:00 AM 1.73 35.114 0.048 6.51 3.71 13.33
1/24/2021 2:15:00 AM 1.69 35.042 0.048 6.52 3.78 13.35
1/24/2021 2:30:00 AM 1.69 35.042 0.048 6.51 3.73 13.39
1/24/2021 2:45:00 AM 1.66 34.988 0.048 6.52 3.73 13.37
1/24/2021 3:00:00 AM 1.6 34.88 0.048 6.51 3.72 13.4
1/24/2021 3:15:00 AM 1.61 34.898 0.048 6.52 3.72 13.35
1/24/2021 3:30:00 AM 1.63 34.934 0.048 6.51 3.75 13.4
1/24/2021 3:45:00 AM 1.62 34.916 0.048 6.52 3.72 13.41
1/24/2021 4:00:00 AM 1.49 34.682 0 6.51 3.73 13.48
1/24/2021 4:15:00 AM 1.44 34.592 0 6.52 3.69 13.5
1/24/2021 4:30:00 AM 1.43 34.574 0 6.52 3.67 13.45
1/24/2021 4:45:00 AM 1.43 34.574 0 6.53 3.73 13.5
1/24/2021 5:00:00 AM 1.42 34.556 0 6.53 3.69 13.53
1/24/2021 5:15:00 AM 1.44 34.592 0 6.52 3.67 13.5
1/24/2021 5:30:00 AM 1.36 34.448 0 6.53 3.64 13.53
1/24/2021 5:45:00 AM 1.37 34.466 0 6.52 3.69 13.54
1/24/2021 6:00:00 AM 1.39 34.502 0 6.53 3.68 13.51
1/24/2021 6:15:00 AM 1.43 34.574 0 6.53 3.63 13.49
1/24/2021 6:30:00 AM 1.38 34.484 0 6.53 3.68 13.45
1/24/2021 6:45:00 AM 1.47 34.646 0 6.53 3.66 13.47
1/24/2021 7:00:00 AM 1.5 34.7 0 6.52 3.65 13.45
1/24/2021 7:15:00 AM 1.43 34.574 0.014 6.52 3.67 13.5
1/24/2021 7:30:00 AM 1.31 34.358 0.036 6.53 3.67 13.58
1/24/2021 7:45:00 AM 1.43 34.574 0.036 6.52 3.65 13.53
1/24/2021 8:00:00 AM 1.33 34.394 0.036 6.53 3.65 13.56
1/24/2021 8:15:00 AM 1.19 34.142 0.036 6.55 3.65 13.71
1/24/2021 8:30:00 AM 1.17 34.106 0.036 6.56 3.66 13.74
1/24/2021 8:45:00 AM 1.24 34.232 2.651 6.56 3.7 13.6
1/24/2021 9:00:00 AM 1.17 34.106 2.645 6.55 3.66 13.62
1/24/2021 9:15:00 AM 1.91 35.438 2.5 6.54 3.65 13.3
1/24/2021 9:30:00 AM 1.75 35.15 2.482 6.52 3.69 13.26
1/24/2021 9:45:00 AM 1.74 35.132 2.492 6.53 3.71 13.28
1/24/2021 10:00:00 AM 2.03 35.654 2.605 6.51 3.67 13.12
1/24/2021 10:15:00 AM 2.1 35.78 2.629 6.55 3.65 13.13
1/24/2021 10:30:00 AM 2.2 35.96 2.547 6.53 3.61 13.09
1/24/2021 10:45:00 AM 2.11 35.798 2.472 6.58 3.58 13.18
1/24/2021 11:00:00 AM 2.07 35.726 2.6 6.59 3.61 13.19
1/24/2021 11:15:00 AM 2.18 35.924 2.616 6.57 3.58 13.15
1/24/2021 11:30:00 AM 2.48 36.464 2.71 6.57 3.55 12.97
1/24/2021 11:45:00 AM 2.42 36.356 2.672 6.56 3.57 13.01
1/24/2021 12:00:00 PM 2.38 36.284 2.638 6.56 3.57 13.06
1/24/2021 12:15:00 PM 2.8 37.04 2.756 6.56 3.57 12.84
1/24/2021 12:30:00 PM 2.64 36.752 2.751 6.59 3.57 12.94
1/24/2021 12:45:00 PM 2.46 36.428 2.584 6.59 3.57 13.12
1/24/2021 1:00:00 PM 2.37 36.266 2.516 6.6 3.6 13.15
1/24/2021 1:15:00 PM 2.27 36.086 2.406 6.57 3.56 13.23
1/24/2021 1:30:00 PM 2.33 36.194 2.388 6.6 3.59 13.2
1/24/2021 1:45:00 PM 2.88 37.184 2.563 6.6 3.53 12.79
1/24/2021 2:00:00 PM 2.87 37.166 2.515 6.57 3.53 12.86
1/24/2021 2:15:00 PM 2.86 37.148 2.446 6.57 3.5 12.83
1/24/2021 2:30:00 PM 2.73 36.914 2.406 6.52 3.53 12.97
1/24/2021 2:45:00 PM 2.79 37.022 2.42 6.56 3.54 12.87
1/24/2021 3:00:00 PM 2.72 36.896 2.364 6.55 3.55 12.95
1/24/2021 3:15:00 PM 2.66 36.788 2.362 6.56 3.54 12.95
1/24/2021 3:30:00 PM 2.71 36.878 2.366 6.53 3.58 12.95
1/24/2021 3:45:00 PM 2.62 36.716 2.321 6.56 3.55 13.01
1/24/2021 4:00:00 PM 2.68 36.824 2.346 6.56 3.56 12.93
1/24/2021 4:15:00 PM 2.63 36.734 2.359 6.56 3.55 12.98
1/24/2021 4:30:00 PM 2.55 36.59 2.34 6.55 3.54 12.98
1/24/2021 4:45:00 PM 2.57 36.626 2.32 6.56 3.55 12.94
1/24/2021 5:00:00 PM 2.47 36.446 2.277 6.55 3.54 12.98
1/24/2021 5:15:00 PM 2.48 36.464 2.296 6.54 3.55 12.95
1/24/2021 5:30:00 PM 2.5 36.5 2.35 6.56 3.61 12.93
1/24/2021 5:45:00 PM 2.63 36.734 2.471 6.56 3.48 12.84
1/24/2021 6:00:00 PM 2.61 36.698 2.433 6.54 3.51 12.82
1/24/2021 6:15:00 PM 2.25 36.05 2.514 6.55 3.5 13.04
1/24/2021 6:30:00 PM 2.21 35.978 2.517 6.57 3.45 13.07
1/24/2021 6:45:00 PM 2.17 35.906 2.503 6.58 3.48 13.08
1/24/2021 7:00:00 PM 2.14 35.852 2.514 6.56 3.41 13.1
1/24/2021 7:15:00 PM 2.58 36.644 2.481 6.55 3.41 12.83
1/24/2021 7:30:00 PM 2.66 36.788 2.471 6.53 3.4 12.76
1/24/2021 7:45:00 PM 2.52 36.536 2.464 6.54 3.42 12.85
1/24/2021 8:00:00 PM 2.49 36.482 2.516 6.56 3.42 12.86
1/24/2021 8:15:00 PM 2.32 36.176 2.487 6.55 3.38 12.96
1/24/2021 8:30:00 PM 2.29 36.122 2.452 6.5 3.41 12.99
1/24/2021 8:45:00 PM 2.75 36.95 2.629 6.53 3.4 12.67
1/24/2021 9:00:00 PM 2.48 36.464 2.533 6.51 3.41 12.84
1/24/2021 9:15:00 PM 2.38 36.284 2.502 6.47 3.39 12.86
1/24/2021 9:30:00 PM 2.57 36.626 2.56 6.51 3.4 12.73
1/24/2021 9:45:00 PM 2.43 36.374 2.384 6.5 3.42 12.85
1/24/2021 10:00:00 PM 2.36 36.248 2.366 6.54 3.46 12.89
1/24/2021 10:15:00 PM 2.37 36.266 2.347 6.53 3.4 12.89
1/24/2021 10:30:00 PM 2.13 35.834 2.323 6.5 3.41 13.06
1/24/2021 10:45:00 PM 2.01 35.618 2.401 6.54 3.47 13.13
1/24/2021 11:00:00 PM 2.26 36.068 2.298 6.55 3.41 12.99
1/24/2021 11:15:00 PM 2.5 36.5 2.307 6.56 3.48 12.86
1/24/2021 11:30:00 PM 1.97 35.546 2.563 6.52 38.19 13.12
1/24/2021 11:45:00 PM 1.92 35.456 2.554 6.53 32.95 13.12
1/25/2021 12:00:00 AM 1.97 35.546 2.561 6.54 3.55 13.12
1/25/2021 12:15:00 AM 2.53 36.554 0.752 6.54 3.47 12.86
1/25/2021 12:30:00 AM 2.33 36.194 2.296 6.53 3.45 12.93
1/25/2021 12:45:00 AM 2.34 36.212 2.168 6.51 3.43 12.94
1/25/2021 1:00:00 AM 2.38 36.284 2.433 6.52 3.44 12.86
1/25/2021 1:15:00 AM 2.29 36.122 2.488 6.47 3.4 12.91
1/25/2021 1:30:00 AM 2.22 35.996 2.526 6.5 3.37 12.91
1/25/2021 1:45:00 AM 2.12 35.816 2.521 6.51 3.4 12.97
1/25/2021 2:00:00 AM 2.13 35.834 2.518 6.52 3.4 12.98
1/25/2021 2:15:00 AM 2.1 35.78 2.532 6.54 3.38 12.97
1/25/2021 2:30:00 AM 2.19 35.942 2.538 6.54 3.41 12.89
1/25/2021 2:45:00 AM 2.23 36.014 2.558 6.52 3.39 12.87
1/25/2021 3:00:00 AM 2.28 36.104 2.581 6.51 3.45 12.84
1/25/2021 3:15:00 AM 2.2 35.96 2.562 6.46 3.41 12.93
1/25/2021 3:30:00 AM 2.12 35.816 2.552 6.49 3.43 12.92
1/25/2021 3:45:00 AM 2.21 35.978 2.569 6.5 3.4 12.87
1/25/2021 4:00:00 AM 2.17 35.906 2.59 6.48 3.4 12.93
1/25/2021 4:15:00 AM 2.07 35.726 2.565 6.5 3.42 12.96
1/25/2021 4:30:00 AM 2.06 35.708 2.591 6.5 3.42 12.97
1/25/2021 4:45:00 AM 1.97 35.546 2.557 6.51 3.46 13.06
1/25/2021 5:00:00 AM 1.85 35.33 2.552 6.51 3.44 13.12
1/25/2021 5:15:00 AM 1.77 35.186 2.54 6.51 3.43 13.12
1/25/2021 5:30:00 AM 1.76 35.168 2.517 6.52 3.44 13.14
1/25/2021 5:45:00 AM 1.7 35.06 2.489 6.48 3.44 13.15
1/25/2021 6:00:00 AM 1.97 35.546 2.418 6.51 3.42 13.03
1/25/2021 6:15:00 AM 2.11 35.798 2.458 6.48 3.47 12.9
1/25/2021 6:30:00 AM 1.97 35.546 2.342 6.5 3.45 13.03
1/25/2021 6:45:00 AM 1.51 34.718 2.264 6.52 3.47 13.26
1/25/2021 7:00:00 AM 1.61 34.898 2.325 6.54 3.48 13.25
1/25/2021 7:15:00 AM 1.52 34.736 2.243 6.54 3.42 13.26
1/25/2021 7:30:00 AM 1.27 34.286 2.46 6.52 3.41 13.42
1/25/2021 7:45:00 AM 1.11 33.998 2.43 6.54 4.37 13.55
1/25/2021 8:00:00 AM 1.54 34.772 2.318 6.52 3.43 13.26
1/25/2021 8:15:00 AM 1.58 34.844 2.369 6.51 3.44 13.25
1/25/2021 8:30:00 AM 1.62 34.916 2.271 6.53 3.42 13.27
1/25/2021 8:45:00 AM 1.64 34.952 2.28 6.54 3.41 13.31
1/25/2021 9:00:00 AM 1.68 35.024 2.348 6.57 3.42 13.31
1/25/2021 9:15:00 AM 1.82 35.276 1.997 6.54 3.41 13.27
1/25/2021 9:30:00 AM 1.9 35.42 2.277 6.55 3.39 13.24
1/25/2021 9:45:00 AM 1.63 34.934 1.088 6.55 3.4 13.48
1/25/2021 10:00:00 AM 1.73 35.114 -0.001 6.56 3.43 13.45
1/25/2021 10:15:00 AM 1.7 35.06 -0.001 6.57 3.38 13.49
1/25/2021 10:30:00 AM 1.67 35.006 -0.001 6.57 3.41 13.52
1/25/2021 10:45:00 AM 1.39 34.502 2.412 6.57 4.28 13.63
1/25/2021 11:00:00 AM 1.95 35.51 2.076 6.58 3.41 13.31
1/25/2021 11:15:00 AM 2.36 36.248 2.739 6.56 3.37 13.04
1/25/2021 11:30:00 AM 2.7 36.86 2.857 6.52 3.4 12.84
1/25/2021 11:45:00 AM 2.61 36.698 2.737 6.55 3.42 12.95
1/25/2021 12:00:00 PM 2.39 36.302 2.307 6.57 3.41 13.12
1/25/2021 12:15:00 PM 2.36 36.248 2.305 6.59 3.41 13.12
1/25/2021 12:30:00 PM 2.39 36.302 2.355 6.61 3.42 13.12
1/25/2021 12:45:00 PM 2.52 36.536 2.43 6.54 3.4 13.06
1/25/2021 1:00:00 PM 2.5 36.5 2.442 6.56 3.39 13.06
1/25/2021 1:15:00 PM 2.57 36.626 2.497 6.54 3.38 13.02
1/25/2021 1:30:00 PM 2.77 36.986 2.521 6.57 3.42 12.92
1/25/2021 1:45:00 PM 2.75 36.95 2.481 6.55 3.39 12.93
1/25/2021 2:00:00 PM 2.68 36.824 2.457 6.58 3.41 12.95
1/25/2021 2:15:00 PM 2.72 36.896 2.465 6.57 3.39 12.95
1/25/2021 2:30:00 PM 2.81 37.058 2.488 6.58 3.39 12.91
1/25/2021 2:45:00 PM 2.81 37.058 2.447 6.54 3.37 12.92
1/25/2021 3:00:00 PM 2.8 37.04 2.499 6.58 3.44 12.89
1/25/2021 3:15:00 PM 2.86 37.148 2.489 6.58 3.38 12.87
1/25/2021 3:30:00 PM 2.92 37.256 2.476 6.55 3.43 12.8
1/25/2021 3:45:00 PM 2.98 37.364 2.396 6.57 3.44 12.83
1/25/2021 4:00:00 PM 3.02 37.436 2.331 6.57 3.4 12.78
1/25/2021 4:15:00 PM 3.14 37.652 2.398 6.57 3.43 12.69
1/25/2021 4:30:00 PM 3.15 37.67 2.381 6.58 3.41 12.68
1/25/2021 4:45:00 PM 2.97 37.346 2.345 6.55 3.42 12.76
1/25/2021 5:00:00 PM 2.95 37.31 2.343 6.56 3.42 12.74
1/25/2021 5:15:00 PM 2.95 37.31 2.335 6.56 3.42 12.73
1/25/2021 5:30:00 PM 2.93 37.274 2.354 6.5 3.42 12.72
1/25/2021 5:45:00 PM 2.93 37.274 2.354 6.54 3.43 12.72
1/25/2021 6:00:00 PM 2.96 37.328 2.352 6.52 3.47 12.67
1/25/2021 6:15:00 PM 2.94 37.292 2.347 6.53 3.43 12.7
1/25/2021 6:30:00 PM 2.9 37.22 2.37 6.51 3.46 12.69
1/25/2021 6:45:00 PM 2.89 37.202 2.367 6.52 3.46 12.7
1/25/2021 7:00:00 PM 2.93 37.274 2.39 6.53 3.43 12.69
1/25/2021 7:15:00 PM 2.88 37.184 2.383 6.52 3.44 12.7
1/25/2021 7:30:00 PM 2.84 37.112 2.367 6.51 3.46 12.72
1/25/2021 7:45:00 PM 2.77 36.986 2.368 6.52 3.41 12.75
1/25/2021 8:00:00 PM 2.71 36.878 2.374 6.52 3.46 12.78
1/25/2021 8:15:00 PM 2.77 36.986 2.373 6.53 3.46 12.75
1/25/2021 8:30:00 PM 2.78 37.004 2.376 6.54 3.43 12.74
1/25/2021 8:45:00 PM 2.76 36.968 2.385 6.52 3.4 12.75
1/25/2021 9:00:00 PM 2.73 36.914 2.387 6.53 3.42 12.76
1/25/2021 9:15:00 PM 2.77 36.986 2.387 6.52 3.43 12.73
1/25/2021 9:30:00 PM 2.72 36.896 2.398 6.54 3.44 12.76
1/25/2021 9:45:00 PM 2.73 36.914 2.421 6.53 3.44 12.76
1/25/2021 10:00:00 PM 2.77 36.986 2.441 6.53 3.42 12.74
1/25/2021 10:15:00 PM 2.72 36.896 2.433 6.53 3.44 12.78
1/25/2021 10:30:00 PM 2.71 36.878 2.437 6.54 3.47 12.8
1/25/2021 10:45:00 PM 2.69 36.842 2.426 6.53 3.47 12.79
1/25/2021 11:00:00 PM 2.64 36.752 2.42 6.53 3.47 12.83
1/25/2021 11:15:00 PM 2.61 36.698 2.351 6.54 3.47 12.85
1/25/2021 11:30:00 PM 2.53 36.554 2.287 6.55 3.46 12.88
1/25/2021 11:45:00 PM 2.76 36.968 2.383 6.55 3.46 12.73
1/26/2021 12:00:00 AM 2.59 36.662 2.256 6.55 3.49 12.85
1/26/2021 12:15:00 AM 2.7 36.86 2.454 6.48 3.45 12.74
1/26/2021 12:30:00 AM 2.89 37.202 2.341 6.51 3.46 12.64
1/26/2021 12:45:00 AM 2.94 37.292 2.367 6.53 3.47 12.66
1/26/2021 1:00:00 AM 2.73 36.914 2.369 6.53 3.5 12.75
1/26/2021 1:15:00 AM 2.94 37.292 2.501 6.54 3.48 12.63
1/26/2021 1:30:00 AM 2.89 37.202 2.561 6.54 3.42 12.64
1/26/2021 1:45:00 AM 2.8 37.04 2.436 6.55 3.46 12.72
1/26/2021 2:00:00 AM 2.7 36.86 2.408 6.56 3.44 12.75
1/26/2021 2:15:00 AM 2.72 36.896 2.357 6.54 3.45 12.78
1/26/2021 2:30:00 AM 2.69 36.842 2.259 6.56 3.45 12.8
1/26/2021 2:45:00 AM 2.67 36.806 2.193 6.55 3.44 12.8
1/26/2021 3:00:00 AM 2.67 36.806 2.184 6.57 3.5 12.82
1/26/2021 3:15:00 AM 2.66 36.788 2.152 6.56 3.45 12.83
1/26/2021 3:30:00 AM 2.64 36.752 1.892 6.56 3.46 12.82
1/26/2021 3:45:00 AM 2.68 36.824 0.916 6.57 3.47 12.85
1/26/2021 4:00:00 AM 2.72 36.896 1.403 6.56 3.46 12.8
1/26/2021 4:15:00 AM 2.73 36.914 1.684 6.57 3.44 12.78
1/26/2021 4:30:00 AM 2.63 36.734 1.343 6.56 3.49 12.85
1/26/2021 4:45:00 AM 2.64 36.752 2.123 6.56 3.49 12.81
1/26/2021 5:00:00 AM 3.15 37.67 2.55 6.59 3.49 12.51
1/26/2021 5:15:00 AM 3.26 37.868 2.613 6.53 3.48 12.42
1/26/2021 5:30:00 AM 3.19 37.742 2.605 6.53 3.45 12.44
1/26/2021 5:45:00 AM 2.96 37.328 2.47 6.54 3.49 12.57
1/26/2021 6:00:00 AM 2.84 37.112 2.472 6.49 3.55 12.62
1/26/2021 6:15:00 AM 2.89 37.202 2.369 6.54 3.52 12.61
1/26/2021 6:30:00 AM 2.86 37.148 2.347 6.55 3.53 12.64
1/26/2021 6:45:00 AM 2.89 37.202 2.306 6.54 3.49 12.62
1/26/2021 7:00:00 AM 2.94 37.292 2.283 6.55 3.47 12.57
1/26/2021 7:15:00 AM 2.83 37.094 2.256 6.56 3.5 12.65
1/26/2021 7:30:00 AM 2.7 36.86 2.285 6.5 3.47 12.72
1/26/2021 7:45:00 AM 2.77 36.986 2.315 6.54 3.48 12.7
1/26/2021 8:00:00 AM 2.89 37.202 2.252 6.54 3.48 12.63
1/26/2021 8:15:00 AM 2.95 37.31 2.589 6.55 3.52 12.53
1/26/2021 8:30:00 AM 3.02 37.436 2.534 6.54 3.49 12.57
1/26/2021 8:45:00 AM 2.92 37.256 2.573 6.54 3.54 12.52
1/26/2021 9:00:00 AM 2.7 36.86 2.534 6.53 3.5 12.61
1/26/2021 9:15:00 AM 2.44 36.392 2.427 6.56 3.49 12.79
1/26/2021 9:30:00 AM 2.28 36.104 2.309 6.57 3.5 12.92
1/26/2021 9:45:00 AM 2.53 36.554 2.428 6.57 3.46 12.8
1/26/2021 10:00:00 AM 2.68 36.824 2.437 6.55 3.43 12.73
1/26/2021 10:15:00 AM 2.66 36.788 2.406 6.56 3.52 12.75
1/26/2021 10:30:00 AM 2.44 36.392 2.323 6.58 3.51 12.81
1/26/2021 10:45:00 AM 2.17 35.906 2.373 6.54 3.47 12.95
1/26/2021 11:00:00 AM 2.19 35.942 2.313 6.57 3.53 12.93
1/26/2021 11:15:00 AM 2.07 35.726 2.261 6.57 3.59 13.04
1/26/2021 11:30:00 AM 1.67 35.006 2.456 6.58 3.56 13.24
1/26/2021 11:45:00 AM 2.4 36.32 2.226 6.57 3.52 12.91
1/26/2021 12:00:00 PM 2.28 36.104 2.192 6.58 3.46 12.92
1/26/2021 12:15:00 PM 2.27 36.086 2.237 6.58 3.45 12.93
1/26/2021 12:30:00 PM 2.41 36.338 2.205 6.54 3.43 12.8
1/26/2021 12:45:00 PM 2.25 36.05 2.157 6.57 3.47 12.94
1/26/2021 1:00:00 PM 2.19 35.942 2.215 6.57 3.51 12.95
1/26/2021 1:15:00 PM 2.21 35.978 2.201 6.58 3.44 12.92
1/26/2021 1:30:00 PM 2.29 36.122 2.23 6.57 3.47 12.91
1/26/2021 1:45:00 PM 2.33 36.194 2.282 6.58 3.49 12.81
1/26/2021 2:00:00 PM 1.6 34.88 2.528 6.55 4.5 13.28
1/26/2021 2:15:00 PM 1.56 34.808 2.526 6.56 4.88 13.33
1/26/2021 2:30:00 PM 1.57 34.826 2.526 6.57 4.9 13.29
1/26/2021 2:45:00 PM 2.21 35.978 2.436 6.59 3.59 12.96
1/26/2021 3:00:00 PM 2.13 35.834 2.536 6.58 3.55 13.02
1/26/2021 3:15:00 PM 2.29 36.122 2.575 6.6 3.52 12.96
1/26/2021 3:30:00 PM 2.27 36.086 2.562 6.6 3.51 12.96
1/26/2021 3:45:00 PM 2.32 36.176 2.577 6.6 3.49 12.92
1/26/2021 4:00:00 PM 2.35 36.23 2.629 6.59 3.43 12.89
1/26/2021 4:15:00 PM 2.47 36.446 2.597 6.59 3.38 12.83
1/26/2021 4:30:00 PM 2.42 36.356 2.561 6.59 3.43 12.84
1/26/2021 4:45:00 PM 2.41 36.338 2.54 6.59 3.4 12.87
1/26/2021 5:00:00 PM 2.38 36.284 2.536 6.58 3.43 12.86
1/26/2021 5:15:00 PM 2.32 36.176 2.531 6.59 3.4 12.89
1/26/2021 5:30:00 PM 2.37 36.266 2.527 6.58 3.41 12.86
1/26/2021 5:45:00 PM 2.45 36.41 2.542 6.59 3.39 12.83
1/26/2021 6:00:00 PM 2.47 36.446 2.535 6.58 3.4 12.79
1/26/2021 6:15:00 PM 2.49 36.482 2.534 6.59 3.41 12.8
1/26/2021 6:30:00 PM 2.51 36.518 2.539 6.58 3.39 12.79
1/26/2021 6:45:00 PM 2.51 36.518 2.533 6.58 3.45 12.77
1/26/2021 7:00:00 PM 2.51 36.518 2.526 6.58 3.41 12.79
1/26/2021 7:15:00 PM 2.52 36.536 2.524 6.58 3.39 12.79
1/26/2021 7:30:00 PM 2.51 36.518 2.526 6.58 3.39 12.81
1/26/2021 7:45:00 PM 2.53 36.554 2.528 6.58 3.4 12.79
1/26/2021 8:00:00 PM 2.56 36.608 2.531 6.58 3.42 12.77
1/26/2021 8:15:00 PM 2.58 36.644 2.525 6.58 3.37 12.77
1/26/2021 8:30:00 PM 2.58 36.644 2.524 6.58 3.38 12.78
1/26/2021 8:45:00 PM 2.63 36.734 2.525 6.58 3.42 12.75
1/26/2021 9:00:00 PM 2.67 36.806 2.526 6.57 3.4 12.71
1/26/2021 9:15:00 PM 2.65 36.77 2.525 6.57 3.42 12.74
1/26/2021 9:30:00 PM 2.67 36.806 2.523 6.57 3.38 12.71
1/26/2021 9:45:00 PM 2.65 36.77 2.519 6.57 3.42 12.74
1/26/2021 10:00:00 PM 2.68 36.824 2.519 6.57 3.39 12.74
1/26/2021 10:15:00 PM 2.69 36.842 2.526 6.57 3.41 12.73
1/26/2021 10:30:00 PM 2.68 36.824 2.516 6.58 3.39 12.75
1/26/2021 10:45:00 PM 2.72 36.896 2.518 6.57 3.4 12.73
1/26/2021 11:00:00 PM 2.76 36.968 2.525 6.57 3.38 12.69
1/26/2021 11:15:00 PM 2.76 36.968 2.53 6.57 3.39 12.7
1/26/2021 11:30:00 PM 2.79 37.022 2.527 6.57 3.42 12.68
1/26/2021 11:45:00 PM 2.75 36.95 2.52 6.57 3.39 12.71
1/27/2021 12:00:00 AM 2.72 36.896 2.5 6.58 3.42 12.73
1/27/2021 12:15:00 AM 2.77 36.986 2.505 6.57 3.39 12.68
1/27/2021 12:30:00 AM 2.76 36.968 2.503 6.57 3.35 12.7
1/27/2021 12:45:00 AM 2.78 37.004 2.505 6.57 3.41 12.7
1/27/2021 1:00:00 AM 2.77 36.986 2.505 6.57 3.39 12.69
1/27/2021 1:15:00 AM 2.76 36.968 2.499 6.57 3.4 12.71
1/27/2021 1:30:00 AM 2.8 37.04 2.5 6.57 3.38 12.69
1/27/2021 1:45:00 AM 2.8 37.04 2.5 6.57 3.37 12.68
1/27/2021 2:00:00 AM 2.79 37.022 2.499 6.57 3.39 12.7
1/27/2021 2:15:00 AM 2.81 37.058 2.498 6.57 3.41 12.69
1/27/2021 2:30:00 AM 2.8 37.04 2.499 6.57 3.43 12.7
1/27/2021 2:45:00 AM 2.8 37.04 2.497 6.57 3.4 12.72
1/27/2021 3:00:00 AM 2.8 37.04 2.502 6.57 3.4 12.73
1/27/2021 3:15:00 AM 2.81 37.058 2.501 6.57 3.37 12.72
1/27/2021 3:30:00 AM 2.83 37.094 2.502 6.58 3.42 12.71
1/27/2021 3:45:00 AM 2.83 37.094 2.496 6.58 3.38 12.69
1/27/2021 4:00:00 AM 2.82 37.076 2.5 6.58 3.37 12.7
1/27/2021 4:15:00 AM 2.83 37.094 2.501 6.58 3.39 12.71
1/27/2021 4:30:00 AM 2.82 37.076 2.497 6.58 3.37 12.73
1/27/2021 4:45:00 AM 2.97 37.346 2.541 6.58 3.39 12.65
1/27/2021 5:00:00 AM 2.93 37.274 2.531 6.57 3.34 12.66
1/27/2021 5:15:00 AM 2.91 37.238 2.526 6.58 3.36 12.68
1/27/2021 5:30:00 AM 2.94 37.292 2.53 6.58 3.39 12.65
1/27/2021 5:45:00 AM 2.95 37.31 2.536 6.58 3.41 12.67
1/27/2021 6:00:00 AM 2.91 37.238 2.527 6.58 3.36 12.68
1/27/2021 6:15:00 AM 2.91 37.238 2.528 6.58 3.38 12.68
1/27/2021 6:30:00 AM 2.93 37.274 2.539 6.57 3.41 12.68
1/27/2021 6:45:00 AM 2.92 37.256 2.537 6.57 3.4 12.68
1/27/2021 7:00:00 AM 2.9 37.22 2.526 6.58 3.41 12.7
1/27/2021 7:15:00 AM 2.89 37.202 2.537 6.57 3.42 12.69
1/27/2021 7:30:00 AM 2.9 37.22 2.543 6.58 3.42 12.7
1/27/2021 7:45:00 AM 2.86 37.148 2.542 6.58 3.36 12.74
1/27/2021 8:00:00 AM 2.91 37.238 2.551 6.58 3.38 12.73
1/27/2021 8:15:00 AM 2.87 37.166 2.535 6.59 3.39 12.77
1/27/2021 8:30:00 AM 2.88 37.184 2.543 6.6 3.35 12.79
1/27/2021 8:45:00 AM 2.89 37.202 2.545 6.6 3.36 12.81
1/27/2021 9:00:00 AM 2.89 37.202 2.53 6.61 3.32 12.82
1/27/2021 9:15:00 AM 2.87 37.166 2.534 6.61 3.39 12.86
1/27/2021 9:30:00 AM 2.9 37.22 2.545 6.62 3.36 12.87
1/27/2021 9:45:00 AM 2.94 37.292 2.543 6.63 3.35 12.88
1/27/2021 10:00:00 AM 2.96 37.328 2.527 6.64 3.38 12.92
1/27/2021 10:15:00 AM 2.98 37.364 2.533 6.63 3.34 12.9
1/27/2021 10:30:00 AM 2.95 37.31 2.516 6.64 3.36 12.93
1/27/2021 10:45:00 AM 2.99 37.382 2.528 6.64 3.36 12.91
1/27/2021 11:00:00 AM 2.98 37.364 2.524 6.64 3.37 12.93
1/27/2021 11:15:00 AM 2.99 37.382 2.531 6.64 3.37 12.9
1/27/2021 11:30:00 AM 3.01 37.418 2.525 6.64 3.35 12.91
1/27/2021 11:45:00 AM 3.04 37.472 2.527 6.64 3.36 12.88
1/27/2021 12:00:00 PM 3.01 37.418 2.526 6.64 3.36 12.91
1/27/2021 12:15:00 PM 3.04 37.472 2.523 6.64 3.35 12.9
1/27/2021 12:30:00 PM 3.1 37.58 2.53 6.64 3.4 12.87
1/27/2021 12:45:00 PM 3.06 37.508 2.515 6.64 3.38 12.91
1/27/2021 1:00:00 PM 3.02 37.436 2.501 6.64 3.35 12.93
1/27/2021 1:15:00 PM 3.08 37.544 2.509 6.64 3.37 12.89
1/27/2021 1:30:00 PM 3.08 37.544 2.509 6.65 3.38 12.89
1/27/2021 1:45:00 PM 3.09 37.562 2.505 6.64 3.37 12.89
1/27/2021 2:00:00 PM 3.1 37.58 2.51 6.64 3.38 12.87
1/27/2021 2:15:00 PM 3.11 37.598 2.501 6.64 3.42 12.84
1/27/2021 2:30:00 PM 3.15 37.67 2.517 6.64 3.45 12.83
1/27/2021 2:45:00 PM 3.15 37.67 2.519 6.64 3.47 12.85
1/27/2021 3:00:00 PM 3.09 37.562 2.506 6.64 3.45 12.88
1/27/2021 3:15:00 PM 3.11 37.598 2.508 6.64 3.46 12.84
1/27/2021 3:30:00 PM 3.07 37.526 2.504 6.63 3.38 12.86
1/27/2021 3:45:00 PM 3.06 37.508 2.497 6.63 3.39 12.86
1/27/2021 4:00:00 PM 3.11 37.598 2.519 6.63 3.44 12.8
1/27/2021 4:15:00 PM 3.1 37.58 2.514 6.62 3.44 12.8
1/27/2021 4:30:00 PM 3.06 37.508 2.509 6.62 3.38 12.8
1/27/2021 4:45:00 PM 3.03 37.454 2.508 6.61 3.43 12.8
1/27/2021 5:00:00 PM 2.95 37.31 2.498 6.61 3.43 12.81
1/27/2021 5:15:00 PM 2.92 37.256 2.499 6.6 3.43 12.83
1/27/2021 5:30:00 PM 2.93 37.274 2.493 6.6 3.44 12.79
1/27/2021 5:45:00 PM 2.85 37.13 2.493 6.6 3.47 12.81
1/27/2021 6:00:00 PM 2.88 37.184 2.503 6.59 3.47 12.79
1/27/2021 6:15:00 PM 2.8 37.04 2.501 6.59 3.45 12.82
1/27/2021 6:30:00 PM 2.86 37.148 2.511 6.58 3.45 12.8
1/27/2021 6:45:00 PM 2.77 36.986 2.507 6.59 3.44 12.84
1/27/2021 7:00:00 PM 2.77 36.986 2.509 6.59 3.41 12.83
1/27/2021 7:15:00 PM 2.75 36.95 2.507 6.59 3.42 12.83
1/27/2021 7:30:00 PM 2.71 36.878 2.507 6.58 3.41 12.85
1/27/2021 7:45:00 PM 2.7 36.86 2.504 6.59 3.43 12.87
1/27/2021 8:00:00 PM 2.66 36.788 2.51 6.58 3.41 12.85
1/27/2021 8:15:00 PM 2.63 36.734 2.509 6.58 3.41 12.88
1/27/2021 8:30:00 PM 2.63 36.734 2.513 6.59 3.44 12.88
1/27/2021 8:45:00 PM 2.58 36.644 2.509 6.59 3.48 12.88
1/27/2021 9:00:00 PM 2.54 36.572 2.511 6.59 3.49 12.92
1/27/2021 9:15:00 PM 2.56 36.608 2.522 6.59 3.47 12.89
1/27/2021 9:30:00 PM 2.55 36.59 2.511 6.58 3.48 12.92
1/27/2021 9:45:00 PM 2.64 36.752 2.535 6.58 3.49 12.88
1/27/2021 10:00:00 PM 2.56 36.608 2.52 6.58 3.47 12.88
1/27/2021 10:15:00 PM 2.57 36.626 2.528 6.58 3.48 12.88
1/27/2021 10:30:00 PM 2.55 36.59 2.523 6.58 3.49 12.91
1/27/2021 10:45:00 PM 2.47 36.446 2.512 6.58 3.48 12.94
1/27/2021 11:00:00 PM 2.49 36.482 2.517 6.59 3.5 12.93
1/27/2021 11:15:00 PM 2.47 36.446 2.515 6.59 3.5 12.94
1/27/2021 11:30:00 PM 2.43 36.374 2.516 6.59 3.48 12.98
1/27/2021 11:45:00 PM 2.47 36.446 2.525 6.59 3.49 12.93
1/28/2021 12:00:00 AM 2.38 36.284 2.514 6.59 3.49 12.97
1/28/2021 12:15:00 AM 2.37 36.266 2.514 6.59 3.51 12.98
1/28/2021 12:30:00 AM 2.38 36.284 2.525 6.59 3.5 12.99
1/28/2021 12:45:00 AM 2.33 36.194 2.52 6.59 3.52 12.98
1/28/2021 1:00:00 AM 2.27 36.086 2.522 6.59 3.51 13.01
1/28/2021 1:15:00 AM 2.21 35.978 2.519 6.59 3.48 13.03
1/28/2021 1:30:00 AM 2.19 35.942 2.521 6.59 3.5 13.05
1/28/2021 1:45:00 AM 2.13 35.834 2.518 6.59 3.5 13.07
1/28/2021 2:00:00 AM 2.12 35.816 2.528 6.59 3.5 13.09
1/28/2021 2:15:00 AM 2.11 35.798 2.526 6.59 3.49 13.07
1/28/2021 2:30:00 AM 2.04 35.672 2.523 6.58 3.49 13.1
1/28/2021 2:45:00 AM 2 35.6 2.523 6.58 3.52 13.13
1/28/2021 3:00:00 AM 1.98 35.564 2.522 6.58 3.5 13.12
1/28/2021 3:15:00 AM 2.01 35.618 2.536 6.58 3.51 13.11
1/28/2021 3:30:00 AM 1.96 35.528 2.536 6.59 3.49 13.14
1/28/2021 3:45:00 AM 1.94 35.492 2.533 6.58 3.52 13.15
1/28/2021 4:00:00 AM 1.9 35.42 2.534 6.59 3.49 13.14
1/28/2021 4:15:00 AM 1.89 35.402 2.537 6.59 3.47 13.16
1/28/2021 4:30:00 AM 1.81 35.258 2.535 6.59 3.49 13.21
1/28/2021 4:45:00 AM 1.79 35.222 2.534 6.59 3.47 13.2
1/28/2021 5:00:00 AM 1.76 35.168 2.537 6.59 3.49 13.23
1/28/2021 5:15:00 AM 1.73 35.114 2.539 6.59 3.49 13.25
1/28/2021 5:30:00 AM 1.66 34.988 2.539 6.59 3.47 13.28
1/28/2021 5:45:00 AM 1.62 34.916 2.533 6.59 3.53 13.28
1/28/2021 6:00:00 AM 1.64 34.952 2.539 6.59 3.5 13.27
1/28/2021 6:15:00 AM 1.59 34.862 2.532 6.59 3.53 13.3
1/28/2021 6:30:00 AM 1.55 34.79 2.53 6.59 3.56 13.33
1/28/2021 6:45:00 AM 1.53 34.754 2.535 6.59 3.49 13.34
1/28/2021 7:00:00 AM 1.5 34.7 2.536 6.59 3.54 13.37
1/28/2021 7:15:00 AM 1.49 34.682 2.538 6.59 3.49 13.37
1/28/2021 7:30:00 AM 1.45 34.61 2.539 6.59 3.63 13.38
1/28/2021 7:45:00 AM 1.41 34.538 2.537 6.6 3.65 13.41
1/28/2021 8:00:00 AM 1.38 34.484 2.537 6.6 3.65 13.47
1/28/2021 8:15:00 AM 1.38 34.484 2.537 6.61 3.6 13.49
1/28/2021 8:30:00 AM 1.4 34.52 2.538 6.62 3.61 13.51
1/28/2021 8:45:00 AM 1.4 34.52 2.534 6.62 3.59 13.53
1/28/2021 9:00:00 AM 1.41 34.538 2.53 6.62 3.61 13.55
1/28/2021 9:15:00 AM 1.4 34.52 2.528 6.63 3.59 13.6
1/28/2021 9:30:00 AM 1.39 34.502 2.526 6.64 3.58 13.6
1/28/2021 9:45:00 AM 1.42 34.556 2.525 6.64 3.62 13.61
1/28/2021 10:00:00 AM 1.41 34.538 2.526 6.64 3.58 13.62
1/28/2021 10:15:00 AM 1.41 34.538 2.522 6.64 3.53 13.63
1/28/2021 10:30:00 AM 1.4 34.52 2.521 6.65 3.54 13.65
1/28/2021 10:45:00 AM 1.42 34.556 2.521 6.65 3.54 13.63
1/28/2021 11:00:00 AM 1.46 34.628 2.518 6.65 3.57 13.64
1/28/2021 11:15:00 AM 1.53 34.754 2.516 6.66 3.52 13.61
1/28/2021 11:30:00 AM 1.6 34.88 2.516 6.66 3.53 13.59
1/28/2021 11:45:00 AM 1.62 34.916 2.509 6.66 3.51 13.59
1/28/2021 12:00:00 PM 1.68 35.024 2.509 6.66 3.51 13.56
1/28/2021 12:15:00 PM 1.77 35.186 2.508 6.66 3.53 13.53
1/28/2021 12:30:00 PM 1.84 35.312 2.507 6.66 3.55 13.51
1/28/2021 12:45:00 PM 1.93 35.474 2.508 6.66 3.53 13.45
1/28/2021 1:00:00 PM 2 35.6 2.51 6.66 3.53 13.42
1/28/2021 1:15:00 PM 2.03 35.654 2.511 6.66 3.57 13.4
1/28/2021 1:30:00 PM 2.04 35.672 2.513 6.66 3.54 13.39
1/28/2021 1:45:00 PM 2.06 35.708 2.511 6.66 3.52 13.37
1/28/2021 2:00:00 PM 2.05 35.69 2.511 6.66 3.54 13.34
1/28/2021 2:15:00 PM 2.03 35.654 2.547 6.67 3.5 13.36
1/28/2021 2:30:00 PM 2.72 36.896 2.515 6.67 3.44 12.92
1/28/2021 2:45:00 PM 2.52 36.536 2.477 6.63 3.44 13.04
1/28/2021 3:00:00 PM 2.61 36.698 2.569 6.63 3.44 12.99
1/28/2021 3:15:00 PM 2.43 36.374 2.379 6.64 3.57 13.06
1/28/2021 3:30:00 PM 2.27 36.086 2.354 6.61 3.52 13.16
1/28/2021 3:45:00 PM 2.16 35.888 2.328 6.63 3.51 13.23
1/28/2021 4:00:00 PM 2.47 36.446 2.397 6.63 3.44 12.97
1/28/2021 4:15:00 PM 2.42 36.356 2.393 6.59 3.43 12.99
1/28/2021 4:30:00 PM 2.15 35.87 2.382 6.6 3.41 13.13
1/28/2021 4:45:00 PM 2.14 35.852 2.44 6.62 3.42 13.13
1/28/2021 5:00:00 PM 2.16 35.888 2.613 6.62 3.45 13.09
1/28/2021 5:15:00 PM 2.02 35.636 2.608 6.6 3.38 13.16
1/28/2021 5:30:00 PM 2.03 35.654 2.556 6.6 3.4 13.14
1/28/2021 5:45:00 PM 2.01 35.618 2.548 6.59 3.38 13.12
1/28/2021 6:00:00 PM 1.88 35.384 2.499 6.61 3.39 13.19
1/28/2021 6:15:00 PM 1.86 35.348 2.468 6.54 3.38 13.15
1/28/2021 6:30:00 PM 1.86 35.348 2.446 6.59 3.37 13.15
1/28/2021 6:45:00 PM 1.82 35.276 2.42 6.56 3.36 13.19
1/28/2021 7:00:00 PM 1.61 34.898 2.387 6.57 3.39 13.28
1/28/2021 7:15:00 PM 1.64 34.952 2.618 6.57 3.37 13.28
1/28/2021 7:30:00 PM 1.62 34.916 2.626 6.53 3.39 13.25
1/28/2021 7:45:00 PM 1.56 34.808 2.632 6.56 3.39 13.26
1/28/2021 8:00:00 PM 1.44 34.592 2.628 6.53 3.36 13.32
1/28/2021 8:15:00 PM 1.46 34.628 2.626 6.56 3.39 13.32
1/28/2021 8:30:00 PM 1.45 34.61 2.634 6.56 3.34 13.29
1/28/2021 8:45:00 PM 1.46 34.628 2.646 6.54 3.38 13.28
1/28/2021 9:00:00 PM 1.35 34.43 2.647 6.56 3.4 13.36
1/28/2021 9:15:00 PM 1.24 34.232 2.634 6.57 3.39 13.4
1/28/2021 9:30:00 PM 1.23 34.214 2.641 6.57 3.4 13.46
1/28/2021 9:45:00 PM 1.24 34.232 2.644 6.58 3.41 13.44
1/28/2021 10:00:00 PM 1.17 34.106 2.64 6.58 3.41 13.49
1/28/2021 10:15:00 PM 1.14 34.052 2.64 6.57 3.37 13.52
1/28/2021 10:30:00 PM 1.24 34.232 2.647 6.58 3.38 13.43
1/28/2021 10:45:00 PM 1.22 34.196 2.644 6.58 3.36 13.45
1/28/2021 11:00:00 PM 1.16 34.088 2.639 6.58 3.39 13.49
1/28/2021 11:15:00 PM 1.12 34.016 2.639 6.57 3.38 13.49
1/28/2021 11:30:00 PM 1.07 33.926 2.625 6.58 3.35 13.52
1/28/2021 11:45:00 PM 1.07 33.926 2.618 6.56 3.36 13.53
1/29/2021 12:00:00 AM 0.99 33.782 2.616 6.55 3.36 13.53
1/29/2021 12:15:00 AM 1.12 34.016 2.607 6.56 3.38 13.5
1/29/2021 12:30:00 AM 1.09 33.962 2.619 6.59 3.35 13.5
1/29/2021 12:45:00 AM 1.31 34.358 2.604 6.54 3.38 13.34
1/29/2021 1:00:00 AM 1.29 34.322 2.578 6.56 3.38 13.35
1/29/2021 1:15:00 AM 1.24 34.232 2.579 6.58 3.39 13.35
1/29/2021 1:30:00 AM 1.24 34.232 2.545 6.58 3.36 13.42
1/29/2021 1:45:00 AM 1.18 34.124 2.329 6.53 3.37 13.48
1/29/2021 2:00:00 AM 1.21 34.178 2.285 6.57 3.36 13.39
1/29/2021 2:15:00 AM 1.08 33.944 2.273 6.57 3.36 13.49
1/29/2021 2:30:00 AM 1.13 34.034 2.286 6.59 3.4 13.49
1/29/2021 2:45:00 AM 1.54 34.772 2.44 6.59 3.34 13.24
1/29/2021 3:00:00 AM 1.6 34.88 2.394 6.58 3.4 13.22
1/29/2021 3:15:00 AM 1.75 35.15 2.713 6.57 3.37 13.12
1/29/2021 3:30:00 AM 1.75 35.15 2.741 6.57 3.38 13.07
1/29/2021 3:45:00 AM 1.6 34.88 2.692 6.53 3.37 13.13
1/29/2021 4:00:00 AM 1.33 34.394 2.7 6.56 3.42 13.31
1/29/2021 4:15:00 AM 1.3 34.34 2.631 6.59 3.35 13.32
1/29/2021 4:30:00 AM 1.53 34.754 2.676 6.6 3.39 13.18
1/29/2021 4:45:00 AM 0.85 33.53 2.554 6.56 3.38 13.63
1/29/2021 5:00:00 AM 0.63 33.134 0.033 6.61 208.3 13.23
1/29/2021 5:15:00 AM 1.25 34.25 0.029 6.57 4.16 13.14
1/29/2021 5:30:00 AM 0.44 32.792 0.033 6.58 9.06 13.97
1/29/2021 5:45:00 AM 0.46 32.828 0.033 6.59 9.88 13.99
1/29/2021 6:00:00 AM 0.42 32.756 0.033 6.59 8.28 14.02
1/29/2021 6:15:00 AM 0.42 32.756 0.033 6.59 7.77 14.01
1/29/2021 6:30:00 AM 0.44 32.792 0.033 6.6 7.25 14.01
1/29/2021 6:45:00 AM 0.36 32.648 0.033 6.6 7.15 14.07
1/29/2021 7:00:00 AM 0.36 32.648 0.033 6.59 7.04 14.05
1/29/2021 7:15:00 AM 0.34 32.612 0.033 6.6 6.93 14.07
1/29/2021 7:30:00 AM 0.34 32.612 0.033 6.6 6.48 14.05
1/29/2021 7:45:00 AM 0.35 32.63 0.033 6.6 6.16 14.09
1/29/2021 8:00:00 AM 0.3 32.54 0.033 6.6 6.16 14.12
1/29/2021 8:15:00 AM 0.33 32.594 0.033 6.61 6.08 14.13
1/29/2021 8:30:00 AM 0.35 32.63 0.033 6.61 6.01 14.15
1/29/2021 8:45:00 AM 0.38 32.684 0.033 6.63 5.87 14.17
1/29/2021 9:00:00 AM 0.41 32.738 0.033 6.64 5.87 14.19
1/29/2021 9:15:00 AM 0.39 32.702 0.033 6.64 5.8 14.21
1/29/2021 9:30:00 AM 0.4 32.72 0.033 6.64 5.71 14.2
1/29/2021 9:45:00 AM 0.44 32.792 0.033 6.65 5.66 14.21
1/29/2021 10:00:00 AM 0.5 32.9 0.033 6.65 5.66 14.22
1/29/2021 10:15:00 AM 0.51 32.918 0.033 6.66 5.52 14.21
1/29/2021 10:30:00 AM 0.56 33.008 0.033 6.66 5.52 14.22
1/29/2021 10:45:00 AM 0.59 33.062 0.033 6.67 5.42 14.17
1/29/2021 11:00:00 AM 0.67 33.206 0.033 6.67 5.34 14.16
1/29/2021 11:15:00 AM 0.74 33.332 0.033 6.68 5.2 14.13
1/29/2021 11:30:00 AM 0.79 33.422 0.033 6.68 5.16 14.11
1/29/2021 11:45:00 AM 0.88 33.584 0.033 6.68 5.16 14.06
1/29/2021 12:00:00 PM 0.88 33.584 0.033 6.68 4.96 14.07
1/29/2021 12:15:00 PM 0.94 33.692 0.033 6.68 4.9 14.01
1/29/2021 12:30:00 PM 0.97 33.746 0.033 6.68 4.7 14.01
1/29/2021 12:45:00 PM 0.99 33.782 0.033 6.68 4.64 13.99
1/29/2021 1:00:00 PM 1.03 33.854 0.033 6.68 4.56 13.96
1/29/2021 1:15:00 PM 1.05 33.89 0.033 6.67 4.16 13.94
1/29/2021 1:30:00 PM 1.17 34.106 0.033 6.67 4.16 13.92
1/29/2021 1:45:00 PM 1.06 33.908 0.033 6.67 4.14 13.95
1/29/2021 2:00:00 PM 1.13 34.034 0.033 6.67 4.13 13.91
1/29/2021 2:15:00 PM 1.1 33.98 0.033 6.66 4.07 13.92
1/29/2021 2:30:00 PM 1.1 33.98 0.033 6.66 4.09 13.9
1/29/2021 2:45:00 PM 1.18 34.124 0.033 6.66 4.07 13.87
1/29/2021 3:00:00 PM 1.16 34.088 0.033 6.64 4.07 13.85
1/29/2021 3:15:00 PM 1.13 34.034 0.033 6.64 4.05 13.84
1/29/2021 3:30:00 PM 1.11 33.998 0.033 6.64 4.04 13.89
1/29/2021 3:45:00 PM 1.08 33.944 0.033 6.63 4 13.86
1/29/2021 4:00:00 PM 1.04 33.872 0.033 6.63 3.97 13.87
1/29/2021 4:15:00 PM 1.04 33.872 0.033 6.63 4.02 13.85
1/29/2021 4:30:00 PM 1.02 33.836 0.033 6.62 3.99 13.89
1/29/2021 4:45:00 PM 0.98 33.764 0.033 6.62 3.98 13.89
1/29/2021 5:00:00 PM 0.95 33.71 0.033 6.62 3.94 13.9
1/29/2021 5:15:00 PM 0.92 33.656 0.033 6.62 4 13.88
1/29/2021 5:30:00 PM 0.88 33.584 0.033 6.62 3.96 13.9
1/29/2021 5:45:00 PM 0.89 33.602 0.033 6.62 3.9 13.84
1/29/2021 6:00:00 PM 0.91 33.638 0.033 6.61 3.94 13.83
1/29/2021 6:15:00 PM 0.85 33.53 0.033 6.6 3.97 13.86
1/29/2021 6:30:00 PM 0.87 33.566 0.033 6.6 4.01 13.84
1/29/2021 6:45:00 PM 0.84 33.512 0.033 6.6 4.67 13.86
1/29/2021 7:00:00 PM 0.86 33.548 0.033 6.61 4.95 13.84
1/29/2021 7:15:00 PM 0.86 33.548 0.033 6.6 7.09 13.83
1/29/2021 7:30:00 PM 1.67 35.006 0.029 6.59 4.15 13.35
1/29/2021 7:45:00 PM 1.73 35.114 0.026 6.59 4.12 13.26
1/29/2021 8:00:00 PM 1.7 35.06 0.019 6.6 4.13 13.35
1/29/2021 8:15:00 PM 1.44 34.592 0.018 6.6 4.12 13.49
1/29/2021 8:30:00 PM 1.4 34.52 0.018 6.6 4.11 13.51
1/29/2021 8:45:00 PM 1.4 34.52 0.018 6.61 4.15 13.53
1/29/2021 9:00:00 PM 1.34 34.412 0.018 6.61 4.1 13.57
1/29/2021 9:15:00 PM 1.44 34.592 0.018 6.6 4.12 13.47
1/29/2021 9:30:00 PM 1.37 34.466 0.017 6.6 4.14 13.51
1/29/2021 9:45:00 PM 1.42 34.556 0.017 6.56 4.09 13.52
1/29/2021 10:00:00 PM 1.35 34.43 0.016 6.6 4.11 13.54
1/29/2021 10:15:00 PM 1.24 34.232 0.016 6.61 4.13 13.61
1/29/2021 10:30:00 PM 1.23 34.214 0.016 6.61 4.09 13.62
1/29/2021 10:45:00 PM 1.2 34.16 0.016 6.62 4.14 13.63
1/29/2021 11:00:00 PM 1.22 34.196 0.016 6.61 4.13 13.63
1/29/2021 11:15:00 PM 1.18 34.124 0.016 6.62 4.12 13.65
1/29/2021 11:30:00 PM 1.17 34.106 0.017 6.62 4.12 13.66
1/29/2021 11:45:00 PM 1.15 34.07 0.016 6.62 4.13 13.67
1/30/2021 12:00:00 AM 1.13 34.034 0.016 6.62 4.11 13.68
1/30/2021 12:15:00 AM 1.08 33.944 0.016 6.62 4.11 13.69
1/30/2021 12:30:00 AM 1.07 33.926 0.016 6.62 4.12 13.71
1/30/2021 12:45:00 AM 1.16 34.088 0.016 6.62 4.12 13.63
1/30/2021 1:00:00 AM 1.13 34.034 0.016 6.61 4.12 13.65
1/30/2021 1:15:00 AM 1.18 34.124 0.015 6.59 4.13 13.63
1/30/2021 1:30:00 AM 1.06 33.908 0.015 6.61 4.13 13.71
1/30/2021 1:45:00 AM 1.04 33.872 0.015 6.61 4.13 13.73
1/30/2021 2:00:00 AM 1.02 33.836 0.014 6.61 4.14 13.74
1/30/2021 2:15:00 AM 1 33.8 0.014 6.62 4.12 13.74
1/30/2021 2:30:00 AM 0.96 33.728 0.014 6.61 4.13 13.74
1/30/2021 2:45:00 AM 0.92 33.656 0.014 6.6 4.15 13.79
1/30/2021 3:00:00 AM 0.96 33.728 0.014 6.61 4.13 13.75
1/30/2021 3:15:00 AM 0.96 33.728 0.014 6.6 4.15 13.7
1/30/2021 3:30:00 AM 0.89 33.602 0.013 6.62 4.12 13.79
1/30/2021 3:45:00 AM 0.88 33.584 0.013 6.62 4.15 13.79
1/30/2021 4:00:00 AM 0.86 33.548 0.014 6.62 4.15 13.8
1/30/2021 4:15:00 AM 0.8 33.44 0.014 6.62 4.11 13.85
1/30/2021 4:30:00 AM 0.79 33.422 0.014 6.62 4.17 13.84
1/30/2021 4:45:00 AM 0.82 33.476 0.014 6.62 4.16 13.83
1/30/2021 5:00:00 AM 0.76 33.368 0.015 6.62 4.15 13.86
1/30/2021 5:15:00 AM 0.75 33.35 0.016 6.63 4.04 13.86
1/30/2021 5:30:00 AM 0.68 33.224 0.017 6.62 4.05 13.91
1/30/2021 5:45:00 AM 0.93 33.674 0.017 6.62 4.08 13.76
1/30/2021 6:00:00 AM 1.06 33.908 0.016 6.62 4.04 13.66
1/30/2021 6:15:00 AM 1.1 33.98 0.016 6.61 4.06 13.66
1/30/2021 6:30:00 AM 1.07 33.926 0.016 6.61 4.06 13.68
1/30/2021 6:45:00 AM 0.97 33.746 0.016 6.6 4.06 13.7
1/30/2021 7:00:00 AM 1.11 33.998 0.016 6.61 4.12 13.64
1/30/2021 7:15:00 AM 1.07 33.926 0.016 6.6 4.07 13.68
1/30/2021 7:30:00 AM 1.05 33.89 0.016 6.61 4.07 13.68
1/30/2021 7:45:00 AM 1.07 33.926 0.016 6.61 4.05 13.67
1/30/2021 8:00:00 AM 1.01 33.818 0.016 6.61 4.06 13.72
1/30/2021 8:15:00 AM 0.84 33.512 0.016 6.61 4.07 13.84
1/30/2021 8:30:00 AM 1.18 34.124 0.017 6.63 4.13 13.68
1/30/2021 8:45:00 AM 1.06 33.908 0.017 6.62 4.15 13.75
1/30/2021 9:00:00 AM 1.18 34.124 0.017 6.63 4.12 13.7
1/30/2021 9:15:00 AM 1.15 34.07 0.017 6.64 4.16 13.75
1/30/2021 9:30:00 AM 1.14 34.052 0.017 6.64 4.14 13.76
1/30/2021 9:45:00 AM 1.29 34.322 0.017 6.65 4.17 13.71
1/30/2021 10:00:00 AM 1.24 34.232 0.017 6.67 4.13 13.78
1/30/2021 10:15:00 AM 1.25 34.25 0.017 6.67 4.15 13.78
1/30/2021 10:30:00 AM 1.18 34.124 0.017 6.67 4.12 13.84
1/30/2021 10:45:00 AM 1.22 34.196 0.017 6.67 4.13 13.83
1/30/2021 11:00:00 AM 1.51 34.718 0.017 6.68 4.13 13.69
1/30/2021 11:15:00 AM 1.64 34.952 0.018 6.68 4.13 13.64
1/30/2021 11:30:00 AM 1.71 35.078 0.018 6.69 4.11 13.62
1/30/2021 11:45:00 AM 1.7 35.06 0.018 6.69 4.13 13.65
1/30/2021 12:00:00 PM 1.73 35.114 0.017 6.7 4.13 13.65
1/30/2021 12:15:00 PM 1.77 35.186 0.017 6.7 4.17 13.66
1/30/2021 12:30:00 PM 1.79 35.222 0.017 6.7 4.14 13.65
1/30/2021 12:45:00 PM 1.77 35.186 0.017 6.7 4.16 13.68
1/30/2021 1:00:00 PM 1.9 35.42 0.019 6.7 4.16 13.61
1/30/2021 1:15:00 PM 1.73 35.114 0.02 6.69 4.15 13.71
1/30/2021 1:30:00 PM 1.6 34.88 0.022 6.69 4.16 13.77
1/30/2021 1:45:00 PM 1.87 35.366 0.024 6.69 4.17 13.63
1/30/2021 2:00:00 PM 1.9 35.42 0.026 6.69 4.18 13.6
1/30/2021 2:15:00 PM 1.92 35.456 0.029 6.69 4.17 13.6
1/30/2021 2:30:00 PM 2 35.6 0.03 6.68 4.16 13.53
1/30/2021 2:45:00 PM 1.93 35.474 0.03 6.68 4.13 13.56
1/30/2021 3:00:00 PM 1.94 35.492 0.031 6.67 4.15 13.55
1/30/2021 3:15:00 PM 1.89 35.402 0.031 6.67 4.13 13.57
1/30/2021 3:30:00 PM 1.93 35.474 0.032 6.67 4.15 13.53
1/30/2021 3:45:00 PM 1.83 35.294 0.032 6.67 4.12 13.59
1/30/2021 4:00:00 PM 1.81 35.258 0.033 6.67 4.13 13.57
1/30/2021 4:15:00 PM 1.81 35.258 0.033 6.67 4.09 13.56
1/30/2021 4:30:00 PM 1.77 35.186 0.033 6.67 4.14 13.57
1/30/2021 4:45:00 PM 1.76 35.168 0.033 6.66 4.11 13.54
1/30/2021 5:00:00 PM 1.8 35.24 0.033 6.66 4.12 13.5
1/30/2021 5:15:00 PM 1.81 35.258 0.033 6.65 4.14 13.48
1/30/2021 5:30:00 PM 1.81 35.258 0.033 6.65 4.1 13.44
1/30/2021 5:45:00 PM 1.84 35.312 0.033 6.65 4.13 13.42
1/30/2021 6:00:00 PM 1.14 34.052 0.033 6.64 4.34 13.79
1/30/2021 6:15:00 PM 1.14 34.052 0.033 6.63 4.56 13.76
1/30/2021 6:30:00 PM 1.1 33.98 0.033 6.63 4.72 13.78
1/30/2021 6:45:00 PM 1.07 33.926 0.033 6.62 4.97 13.79
1/30/2021 7:00:00 PM 1.04 33.872 0.033 6.62 5.54 13.81
1/30/2021 7:15:00 PM 0.98 33.764 0.033 6.62 7.77 13.82
1/30/2021 7:30:00 PM 0.99 33.782 0.033 6.62 6.46 13.81
1/30/2021 7:45:00 PM 0.93 33.674 0.033 6.62 10.69 13.85
1/30/2021 8:00:00 PM 0.91 33.638 0.033 6.62 14.69 13.86
1/30/2021 8:15:00 PM 0.91 33.638 0.033 6.61 4.3 13.84
1/30/2021 8:30:00 PM 0.89 33.602 0.033 6.61 5.04 13.85
1/30/2021 8:45:00 PM 0.86 33.548 0.033 6.61 4.45 13.86
1/30/2021 9:00:00 PM 0.82 33.476 0.033 6.6 5.25 13.89
1/30/2021 9:15:00 PM 0.85 33.53 0.033 6.61 5.52 13.87
1/30/2021 9:30:00 PM 0.8 33.44 0.033 6.61 7.5 13.87
1/30/2021 9:45:00 PM 0.77 33.386 0.033 6.61 18.36 13.89
1/30/2021 10:00:00 PM 0.7 33.26 0.033 6.61 26.07 13.93
1/30/2021 10:15:00 PM 0.67 33.206 0.033 6.61 41.23 13.91
1/30/2021 10:30:00 PM 0.63 33.134 0.033 6.61 72.68 13.95
1/30/2021 10:45:00 PM 0.61 33.098 0.033 6.61 85.31 13.98
1/30/2021 11:00:00 PM 0.57 33.026 0.033 6.61 86.94 14.02
1/30/2021 11:15:00 PM 0.56 33.008 0.033 6.61 89.77 13.99
1/30/2021 11:30:00 PM 0.55 32.99 0.033 6.61 91.53 14
1/30/2021 11:45:00 PM 0.53 32.954 0.033 6.61 105.66 14.03
1/31/2021 12:00:00 AM 0.5 32.9 0.033 6.61 163.15 14.05
1/31/2021 12:15:00 AM 0.5 32.9 0.033 6.61 162.19 14.04
1/31/2021 12:30:00 AM 0.49 32.882 0.033 6.6 57.32 14.03
1/31/2021 12:45:00 AM 0.53 32.954 0.033 6.61 16.05 14.02
1/31/2021 1:00:00 AM 0.51 32.918 0.033 6.61 10.1 14.04
1/31/2021 1:15:00 AM 0.53 32.954 0.033 6.61 8.44 14.01
1/31/2021 1:30:00 AM 0.54 32.972 0.033 6.61 8.65 14.03
1/31/2021 1:45:00 AM 0.51 32.918 0.033 6.61 23.52 14.03
1/31/2021 2:00:00 AM 0.53 32.954 0.033 6.61 14.5 14.04
1/31/2021 2:15:00 AM 0.56 33.008 0.033 6.61 10.27 14.03
1/31/2021 2:30:00 AM 0.53 32.954 0.033 6.61 6.37 14.04
1/31/2021 2:45:00 AM 1.33 34.394 0.029 6.56 4.17 13.56
1/31/2021 3:00:00 AM 1.19 34.142 0.027 6.6 4.16 13.62
1/31/2021 3:15:00 AM 1.25 34.25 0.027 6.57 4.13 13.54
1/31/2021 3:30:00 AM 1.29 34.322 0.028 6.58 4.16 13.53
1/31/2021 3:45:00 AM 1.24 34.232 0.026 6.59 4.18 13.54
1/31/2021 4:00:00 AM 1.24 34.232 0.026 6.59 4.17 13.57
1/31/2021 4:15:00 AM 1.22 34.196 0.027 6.58 4.18 13.56
1/31/2021 4:30:00 AM 1.19 34.142 0.027 6.58 4.15 13.58
1/31/2021 4:45:00 AM 1.22 34.196 0.027 6.59 4.14 13.53
1/31/2021 5:00:00 AM 1.22 34.196 0.027 6.58 4.16 13.53
1/31/2021 5:15:00 AM 1.33 34.394 0.026 6.59 4.13 13.52
1/31/2021 5:30:00 AM 1.27 34.286 0.026 6.6 4.13 13.55
1/31/2021 5:45:00 AM 1.19 34.142 0.026 6.59 4.18 13.59
1/31/2021 6:00:00 AM 1.13 34.034 0.025 6.6 4.17 13.62
1/31/2021 6:15:00 AM 1.17 34.106 0.025 6.59 4.15 13.56
1/31/2021 6:30:00 AM 1.17 34.106 0.026 6.59 4.16 13.58
1/31/2021 6:45:00 AM 1.13 34.034 0.026 6.59 4.12 13.62
1/31/2021 7:00:00 AM 1.13 34.034 0.026 6.59 4.14 13.59
1/31/2021 7:15:00 AM 1.06 33.908 0.026 6.59 4.14 13.65
1/31/2021 7:30:00 AM 1.09 33.962 0.025 6.59 4.1 13.64
1/31/2021 7:45:00 AM 1.02 33.836 0.024 6.6 4.13 13.72
1/31/2021 8:00:00 AM 1.12 34.016 0.022 6.6 4.11 13.65
1/31/2021 8:15:00 AM 1.17 34.106 0.022 6.62 4.14 13.7
1/31/2021 8:30:00 AM 1.16 34.088 0.019 6.62 4.13 13.7
1/31/2021 8:45:00 AM 1.08 33.944 0.019 6.64 4.13 13.76
1/31/2021 9:00:00 AM 1.14 34.052 0.018 6.64 4.1 13.75
1/31/2021 9:15:00 AM 1.14 34.052 0.018 6.6 4.15 13.75
1/31/2021 9:30:00 AM 1.22 34.196 0.017 6.68 4.11 13.76
1/31/2021 9:45:00 AM 1.22 34.196 0.018 6.63 4.12 13.73
1/31/2021 10:00:00 AM 1.36 34.448 0.018 6.7 4.11 13.71
1/31/2021 10:15:00 AM 1.26 34.268 0.018 6.66 4.15 13.75
1/31/2021 10:30:00 AM 1.34 34.412 0.018 6.66 4.13 13.67
1/31/2021 10:45:00 AM 1.33 34.394 0.019 6.64 4.19 13.72
1/31/2021 11:00:00 AM 1.36 34.448 0.019 6.66 4.15 13.7
1/31/2021 11:15:00 AM 1.3 34.34 0.018 6.67 4.12 13.75
1/31/2021 11:30:00 AM 1.48 34.664 0.018 6.68 4.14 13.7
1/31/2021 11:45:00 AM 1.31 34.358 0.018 6.68 4.11 13.76
1/31/2021 12:00:00 PM 1.3 34.34 0.018 6.69 4.13 13.82
1/31/2021 12:15:00 PM 1.46 34.628 0.018 6.67 4.13 13.76
1/31/2021 12:30:00 PM 1.44 34.592 0.018 6.69 4.12 13.8
1/31/2021 12:45:00 PM 1.45 34.61 0.018 6.69 4.13 13.78
1/31/2021 1:00:00 PM 1.5 34.7 0.018 6.69 4.12 13.75
1/31/2021 1:15:00 PM 1.49 34.682 0.018 6.7 4.13 13.71
1/31/2021 1:30:00 PM 1.57 34.826 0.018 6.69 4.1 13.65
1/31/2021 1:45:00 PM 1.57 34.826 0.018 6.69 4.14 13.66
1/31/2021 2:00:00 PM 1.61 34.898 0.018 6.66 4.16 13.64
1/31/2021 2:15:00 PM 1.61 34.898 0.018 6.69 4.12 13.63
1/31/2021 2:30:00 PM 1.69 35.042 0.018 6.74 4.15 13.63
1/31/2021 2:45:00 PM 1.75 35.15 0.018 6.72 4.13 13.61
1/31/2021 3:00:00 PM 1.88 35.384 0.018 6.71 4.13 13.55
1/31/2021 3:15:00 PM 1.83 35.294 0.019 6.73 4.13 13.55
1/31/2021 3:30:00 PM 1.79 35.222 0.019 6.71 4.14 13.53
1/31/2021 3:45:00 PM 1.72 35.096 0.018 6.69 4.15 13.55
1/31/2021 4:00:00 PM 1.67 35.006 0.018 6.69 4.17 13.57
1/31/2021 4:15:00 PM 1.67 35.006 0.018 6.6 4.17 13.55
1/31/2021 4:30:00 PM 1.57 34.826 0.017 6.65 4.13 13.56
1/31/2021 4:45:00 PM 1.57 34.826 0.017 6.65 4.1 13.55
1/31/2021 5:00:00 PM 1.49 34.682 0.017 6.66 4.14 13.56
1/31/2021 5:15:00 PM 1.44 34.592 0.016 6.63 4.11 13.57
1/31/2021 5:30:00 PM 1.27 34.286 0.012 6.65 4.11 13.65
1/31/2021 5:45:00 PM 1.29 34.322 0.012 6.64 4.11 13.63
1/31/2021 6:00:00 PM 1.27 34.286 0.012 6.66 4.14 13.64
1/31/2021 6:15:00 PM 1.27 34.286 0.012 6.68 4.14 13.63
1/31/2021 6:30:00 PM 1.12 34.016 0.032 6.64 4.14 13.71
1/31/2021 6:45:00 PM 1.08 33.944 0.032 6.64 4.13 13.72
1/31/2021 7:00:00 PM 1.04 33.872 0.032 6.64 4.16 13.73
1/31/2021 7:15:00 PM 1.01 33.818 0.032 6.64 4.2 13.74
1/31/2021 7:30:00 PM 0.98 33.764 0.032 6.65 4.13 13.75
1/31/2021 7:45:00 PM 0.95 33.71 0.033 6.65 4.15 13.76
1/31/2021 8:00:00 PM 0.94 33.692 0.033 6.64 4.18 13.76
1/31/2021 8:15:00 PM 0.96 33.728 0.033 6.7 4.17 13.73
1/31/2021 8:30:00 PM 0.97 33.746 0.033 6.64 4.17 13.73
1/31/2021 8:45:00 PM 0.94 33.692 0.033 6.64 792.03 13.72
1/31/2021 9:00:00 PM 0.93 33.674 0.033 6.63 1120.24 13.71
1/31/2021 9:15:00 PM 0.88 33.584 0.033 6.64 704.67 13.73
1/31/2021 9:30:00 PM 0.87 33.566 0.033 6.62 83.1 13.73
1/31/2021 9:45:00 PM 1.2 34.16 0.015 6.62 4.29 13.55
1/31/2021 10:00:00 PM 1.13 34.034 0.016 6.65 4.1 13.6
1/31/2021 10:15:00 PM 0.73 33.314 0.033 6.61 4.98 13.84
1/31/2021 10:30:00 PM 0.75 33.35 0.033 6.64 5.29 13.83
1/31/2021 10:45:00 PM 0.72 33.296 0.033 6.62 7.47 13.83
1/31/2021 11:00:00 PM 0.73 33.314 0.033 6.65 9.89 13.82
1/31/2021 11:15:00 PM 0.71 33.278 0.033 6.65 7.54 13.82
1/31/2021 11:30:00 PM 0.7 33.26 0.033 6.65 4.87 13.82
1/31/2021 11:45:00 PM 0.69 33.242 0.033 6.63 3.6 13.83
2/1/2021 12:00:00 AM 0.73 33.314 0.033 6.64 4.03 13.83
2/1/2021 12:15:00 AM 0.76 33.368 0.033 6.62 5.56 13.82
2/1/2021 12:30:00 AM 0.78 33.404 0.033 6.63 6.22 13.8
2/1/2021 12:45:00 AM 0.82 33.476 0.033 6.62 11.72 13.79
2/1/2021 1:00:00 AM 1.44 34.592 0.016 6.62 3.98 13.43
2/1/2021 1:15:00 AM 1.49 34.682 0.013 6.63 3.94 13.41
2/1/2021 1:30:00 AM 1.48 34.664 0.016 6.62 3.83 13.42
2/1/2021 1:45:00 AM 1.33 34.394 0.021 6.6 3.75 13.5
2/1/2021 2:00:00 AM 1.49 34.682 0.02 6.61 3.65 13.37
2/1/2021 2:15:00 AM 1.49 34.682 0.021 6.62 3.71 13.37
2/1/2021 2:30:00 AM 1.59 34.862 0.021 6.74 3.73 13.32
2/1/2021 2:45:00 AM 1.45 34.61 0.021 6.66 3.7 13.35
2/1/2021 3:00:00 AM 1.48 34.664 0.019 6.61 3.69 13.34
2/1/2021 3:15:00 AM 1.55 34.79 0.019 6.73 3.74 13.31
2/1/2021 3:30:00 AM 1.52 34.736 0.019 6.67 3.76 13.32
2/1/2021 3:45:00 AM 1.18 34.124 0.019 6.65 3.76 13.49
2/1/2021 4:00:00 AM 1.25 34.25 0.018 6.72 3.72 13.46
2/1/2021 4:15:00 AM 1.13 34.034 0.018 6.7 3.66 13.53
2/1/2021 4:30:00 AM 1.24 34.232 0.018 6.65 3.7 13.46
2/1/2021 4:45:00 AM 0.99 33.782 0.016 6.66 3.67 13.61
2/1/2021 5:00:00 AM 1 33.8 0.016 6.71 3.71 13.62
2/1/2021 5:15:00 AM 0.9 33.62 0.016 6.69 3.72 13.62
2/1/2021 5:30:00 AM 0.81 33.458 0.016 6.69 3.69 13.67
2/1/2021 5:45:00 AM 0.81 33.458 0.016 6.68 3.68 13.67
2/1/2021 6:00:00 AM 0.87 33.566 0.016 6.68 3.66 13.63
2/1/2021 6:15:00 AM 0.63 33.134 0.015 6.63 3.66 13.76
2/1/2021 6:30:00 AM 0.62 33.116 0.013 6.69 3.65 13.75
2/1/2021 6:45:00 AM 0.59 33.062 0.014 6.64 3.78 13.74
2/1/2021 7:00:00 AM 0.68 33.224 0.014 6.68 3.69 13.67
2/1/2021 7:15:00 AM 0.56 33.008 0.013 6.68 3.75 13.75
2/1/2021 7:30:00 AM 0.79 33.422 0.024 6.65 3.82 13.64
2/1/2021 7:45:00 AM 0.88 33.584 0.026 6.63 3.89 13.53
2/1/2021 8:00:00 AM 0.91 33.638 0.026 6.65 3.77 13.5
2/1/2021 8:15:00 AM 0.63 33.134 0.026 6.57 3.75 13.68
2/1/2021 8:30:00 AM 0.47 32.846 0.026 6.59 3.71 13.8
2/1/2021 8:45:00 AM 0.65 33.17 0.023 6.64 3.75 13.78
2/1/2021 9:00:00 AM 0.85 33.53 0.016 6.68 3.69 13.7
2/1/2021 9:15:00 AM 0.98 33.764 0.02 6.65 3.75 13.63
2/1/2021 9:30:00 AM 0.56 33.008 0.012 6.65 3.71 13.94
2/1/2021 9:45:00 AM 0.54 32.972 0.013 6.67 3.51 13.96
2/1/2021 10:00:00 AM 0.49 32.882 0.014 6.67 3.52 14.01
2/1/2021 10:15:00 AM 0.49 32.882 0.014 6.67 3.53 14.02
2/1/2021 10:30:00 AM 0.61 33.098 0.014 6.69 3.54 13.98
2/1/2021 10:45:00 AM 0.65 33.17 0.014 6.69 3.5 13.97
2/1/2021 11:00:00 AM 0.68 33.224 0.014 6.7 3.53 13.97
2/1/2021 11:15:00 AM 0.66 33.188 0.014 6.69 3.51 13.95
2/1/2021 11:30:00 AM 0.61 33.098 0.014 6.7 3.55 13.99
2/1/2021 11:45:00 AM 0.57 33.026 0.014 6.69 3.55 14
2/1/2021 12:00:00 PM 0.65 33.17 0.014 6.71 3.54 13.97
2/1/2021 12:15:00 PM 0.61 33.098 0.014 6.7 3.55 14.01
2/1/2021 12:30:00 PM 0.62 33.116 0.014 6.71 3.57 13.99
2/1/2021 12:45:00 PM 0.68 33.224 0.014 6.71 3.54 13.98
2/1/2021 1:00:00 PM 0.7 33.26 0.014 6.71 3.55 13.95
2/1/2021 1:15:00 PM 0.7 33.26 0.014 6.71 3.58 13.95
2/1/2021 1:30:00 PM 0.72 33.296 0.014 6.71 3.53 13.93
2/1/2021 1:45:00 PM 0.72 33.296 0.014 6.71 3.56 13.91
2/1/2021 2:00:00 PM 0.76 33.368 0.014 6.71 3.53 13.88
2/1/2021 2:15:00 PM 0.79 33.422 0.014 6.72 3.54 13.86
2/1/2021 2:30:00 PM 0.84 33.512 0.015 6.72 3.53 13.84
2/1/2021 2:45:00 PM 0.94 33.692 0.015 6.72 3.52 13.81
2/1/2021 3:00:00 PM 1 33.8 0.015 6.72 3.51 13.79
2/1/2021 3:15:00 PM 1.03 33.854 0.015 6.72 3.49 13.79
2/1/2021 3:30:00 PM 1.09 33.962 0.015 6.72 3.48 13.8
2/1/2021 3:45:00 PM 1.12 34.016 0.015 6.72 3.49 13.79
2/1/2021 4:00:00 PM 1.11 33.998 0.015 6.72 3.49 13.75
2/1/2021 4:15:00 PM 1.16 34.088 0.016 6.71 3.52 13.72
2/1/2021 4:30:00 PM 1.21 34.178 0.016 6.71 3.47 13.71
2/1/2021 4:45:00 PM 1.24 34.232 0.016 6.7 3.48 13.69
2/1/2021 5:00:00 PM 1.27 34.286 0.016 6.7 3.46 13.65
2/1/2021 5:15:00 PM 1.25 34.25 0.016 6.69 3.49 13.64
2/1/2021 5:30:00 PM 1.27 34.286 0.016 6.69 3.48 13.59
2/1/2021 5:45:00 PM 1.3 34.34 0.016 6.68 3.48 13.56
2/1/2021 6:00:00 PM 1.29 34.322 0.017 6.68 3.47 13.55
2/1/2021 6:15:00 PM 1.32 34.376 0.017 6.67 3.49 13.53
2/1/2021 6:30:00 PM 1.29 34.322 0.016 6.67 3.49 13.53
2/1/2021 6:45:00 PM 1.26 34.268 0.017 6.67 3.51 13.54
2/1/2021 7:00:00 PM 1.25 34.25 0.017 6.67 3.5 13.56
2/1/2021 7:15:00 PM 1.26 34.268 0.016 6.67 3.47 13.54
2/1/2021 7:30:00 PM 1.29 34.322 0.017 6.66 3.47 13.52
2/1/2021 7:45:00 PM 1.28 34.304 0.017 6.67 3.5 13.51
2/1/2021 8:00:00 PM 1.27 34.286 0.017 6.66 3.46 13.53
2/1/2021 8:15:00 PM 1.27 34.286 0.017 6.66 3.47 13.53
2/1/2021 8:30:00 PM 1.25 34.25 0.017 6.67 3.5 13.54
2/1/2021 8:45:00 PM 1.27 34.286 0.018 6.67 3.47 13.53
2/1/2021 9:00:00 PM 1.25 34.25 0.018 6.67 3.51 13.55
2/1/2021 9:15:00 PM 1.25 34.25 0.018 6.66 3.5 13.53
2/1/2021 9:30:00 PM 1.24 34.232 0.018 6.67 3.44 13.51
2/1/2021 9:45:00 PM 1.24 34.232 0.018 6.67 3.46 13.54
2/1/2021 10:00:00 PM 1.23 34.214 0.018 6.67 3.48 13.55
2/1/2021 10:15:00 PM 1.22 34.196 0.018 6.67 3.46 13.57
2/1/2021 10:30:00 PM 1.22 34.196 0.018 6.67 3.48 13.51
2/1/2021 10:45:00 PM 1.19 34.142 0.018 6.67 3.45 13.54
2/1/2021 11:00:00 PM 1.16 34.088 0.019 6.67 3.48 13.55
2/1/2021 11:15:00 PM 1.15 34.07 0.019 6.66 3.47 13.55
2/1/2021 11:30:00 PM 1.12 34.016 0.019 6.66 3.46 13.56
2/1/2021 11:45:00 PM 1.1 33.98 0.02 6.66 3.5 13.58
2/2/2021 12:00:00 AM 1.09 33.962 0.02 6.66 3.5 13.58
2/2/2021 12:15:00 AM 1.06 33.908 0.02 6.66 3.48 13.56
2/2/2021 12:30:00 AM 1.04 33.872 0.02 6.66 3.43 13.58
2/2/2021 12:45:00 AM 1.04 33.872 0.021 6.66 3.46 13.57
2/2/2021 1:00:00 AM 1.02 33.836 0.021 6.66 3.45 13.57
2/2/2021 1:15:00 AM 1.02 33.836 0.021 6.66 3.44 13.57
2/2/2021 1:30:00 AM 1.11 33.998 0.022 6.65 3.42 13.53
2/2/2021 1:45:00 AM 1.01 33.818 0.022 6.66 3.43 13.57
2/2/2021 2:00:00 AM 0.92 33.656 0.023 6.65 3.43 13.6
2/2/2021 2:15:00 AM 0.86 33.548 0.028 6.65 3.48 13.6
2/2/2021 2:30:00 AM 0.79 33.422 0.029 6.66 3.45 13.61
2/2/2021 2:45:00 AM 0.81 33.458 0.029 6.66 3.42 13.63
2/2/2021 3:00:00 AM 0.79 33.422 0.029 6.66 3.41 13.64
2/2/2021 3:15:00 AM 0.75 33.35 0.029 6.66 3.46 13.66
2/2/2021 3:30:00 AM 0.72 33.296 0.029 6.66 3.45 13.67
2/2/2021 3:45:00 AM 0.71 33.278 0.029 6.66 3.46 13.68
2/2/2021 4:00:00 AM 0.72 33.296 0.029 6.65 3.44 13.65
2/2/2021 4:15:00 AM 0.69 33.242 0.029 6.66 3.5 13.69
2/2/2021 4:30:00 AM 0.65 33.17 0.029 6.66 3.48 13.72
2/2/2021 4:45:00 AM 0.61 33.098 0.029 6.66 3.44 13.74
2/2/2021 5:00:00 AM 0.65 33.17 0.029 6.66 3.44 13.73
2/2/2021 5:15:00 AM 0.63 33.134 0.029 6.66 3.43 13.74
2/2/2021 5:30:00 AM 0.66 33.188 0.029 6.66 3.45 13.73
2/2/2021 5:45:00 AM 0.69 33.242 0.029 6.66 3.46 13.69
2/2/2021 6:00:00 AM 0.67 33.206 0.029 6.66 3.44 13.71
2/2/2021 6:15:00 AM 0.7 33.26 0.029 6.66 3.43 13.69
2/2/2021 6:30:00 AM 0.69 33.242 0.029 6.66 3.47 13.72
2/2/2021 6:45:00 AM 0.69 33.242 0.029 6.67 3.44 13.71
2/2/2021 7:00:00 AM 0.73 33.314 0.029 6.67 3.46 13.69
2/2/2021 7:15:00 AM 0.75 33.35 0.029 6.67 3.45 13.69
2/2/2021 7:30:00 AM 0.75 33.35 0.029 6.67 3.43 13.69
2/2/2021 7:45:00 AM 0.76 33.368 0.029 6.68 3.42 13.71
2/2/2021 8:00:00 AM 0.77 33.386 0.029 6.69 3.45 13.76
2/2/2021 8:15:00 AM 0.81 33.458 0.029 6.7 3.41 13.74
2/2/2021 8:30:00 AM 0.8 33.44 0.03 6.7 3.41 13.81
2/2/2021 8:45:00 AM 0.8 33.44 0.03 6.71 3.44 13.84
2/2/2021 9:00:00 AM 0.83 33.494 0.03 6.72 3.46 13.84
2/2/2021 9:15:00 AM 0.87 33.566 0.031 6.72 3.44 13.83
2/2/2021 9:30:00 AM 0.91 33.638 0.031 6.73 3.41 13.82
2/2/2021 9:45:00 AM 0.95 33.71 0.031 6.73 3.45 13.81
2/2/2021 10:00:00 AM 0.97 33.746 0.032 6.73 3.42 13.83
2/2/2021 10:15:00 AM 1.02 33.836 0.032 6.73 3.41 13.78
2/2/2021 10:30:00 AM 1.07 33.926 0.032 6.74 3.42 13.77
2/2/2021 10:45:00 AM 1.1 33.98 0.032 6.74 3.45 13.79
2/2/2021 11:00:00 AM 1.15 34.07 0.032 6.74 3.42 13.77
2/2/2021 11:15:00 AM 1.21 34.178 0.032 6.74 3.43 13.75
2/2/2021 11:30:00 AM 1.22 34.196 0.032 6.74 3.42 13.73
2/2/2021 11:45:00 AM 1.28 34.304 0.032 6.74 3.4 13.7
2/2/2021 12:00:00 PM 1.32 34.376 0.032 6.74 3.45 13.68
2/2/2021 12:15:00 PM 1.36 34.448 0.032 6.74 3.41 13.66
2/2/2021 12:30:00 PM 1.37 34.466 0.032 6.74 3.38 13.63
2/2/2021 12:45:00 PM 1.38 34.484 0.032 6.74 3.4 13.63
2/2/2021 1:00:00 PM 1.41 34.538 0.032 6.74 3.38 13.62
2/2/2021 1:15:00 PM 1.39 34.502 0.032 6.73 3.44 13.6
2/2/2021 1:30:00 PM 1.4 34.52 0.032 6.73 3.42 13.6
2/2/2021 1:45:00 PM 1.4 34.52 0.032 6.74 3.44 13.61
2/2/2021 2:00:00 PM 1.43 34.574 0.032 6.74 3.46 13.6
2/2/2021 2:15:00 PM 1.41 34.538 0.032 6.75 3.4 13.63
2/2/2021 2:30:00 PM 1.4 34.52 0.032 6.75 3.41 13.62
2/2/2021 2:45:00 PM 1.42 34.556 0.032 6.75 3.41 13.6
2/2/2021 3:00:00 PM 1.44 34.592 0.032 6.75 3.44 13.6
2/2/2021 3:15:00 PM 1.44 34.592 0.032 6.74 3.4 13.58
2/2/2021 3:30:00 PM 1.44 34.592 0.032 6.74 3.42 13.58
2/2/2021 3:45:00 PM 1.43 34.574 0.032 6.74 3.44 13.58
2/2/2021 4:00:00 PM 1.43 34.574 0.032 6.74 3.43 13.57
2/2/2021 4:15:00 PM 1.41 34.538 0.032 6.73 3.43 13.56
2/2/2021 4:30:00 PM 1.42 34.556 0.032 6.74 3.41 13.56
2/2/2021 4:45:00 PM 1.4 34.52 0.032 6.73 3.43 13.55
2/2/2021 5:00:00 PM 1.38 34.484 0.032 6.72 3.42 13.53
2/2/2021 5:15:00 PM 1.36 34.448 0.033 6.71 3.41 13.48
2/2/2021 5:30:00 PM 1.32 34.376 0.033 6.7 3.41 13.47
2/2/2021 5:45:00 PM 1.33 34.394 0.033 6.69 3.46 13.45
2/2/2021 6:00:00 PM 1.35 34.43 0.033 6.69 3.44 13.41
2/2/2021 6:15:00 PM 1.3 34.34 0.033 6.68 3.46 13.42
2/2/2021 6:30:00 PM 1.24 34.232 0.033 6.68 3.42 13.44
2/2/2021 6:45:00 PM 1.23 34.214 0.033 6.68 3.43 13.44
2/2/2021 7:00:00 PM 1.25 34.25 0.033 6.68 3.41 13.43
2/2/2021 7:15:00 PM 1.17 34.106 0.033 6.67 3.38 13.47
2/2/2021 7:30:00 PM 1.14 34.052 0.033 6.67 3.43 13.5
2/2/2021 7:45:00 PM 1.12 34.016 0.033 6.67 3.38 13.47
2/2/2021 8:00:00 PM 1.1 33.98 0.033 6.67 3.44 13.48
2/2/2021 8:15:00 PM 1.1 33.98 0.033 6.66 3.47 13.49
2/2/2021 8:30:00 PM 1.08 33.944 0.033 6.66 3.53 13.51
2/2/2021 8:45:00 PM 1.08 33.944 0.033 6.66 3.63 13.5
2/2/2021 9:00:00 PM 1.08 33.944 0.033 6.66 3.77 13.51
2/2/2021 9:15:00 PM 1.09 33.962 0.033 6.67 4.1 13.48
2/2/2021 9:30:00 PM 1.11 33.998 0.033 6.66 4.31 13.46
2/2/2021 9:45:00 PM 1.11 33.998 0.033 6.67 5.05 13.46
2/2/2021 10:00:00 PM 1.13 34.034 0.033 6.66 6.43 13.48
2/2/2021 10:15:00 PM 1.07 33.926 0.033 6.66 7.39 13.47
2/2/2021 10:30:00 PM 1.06 33.908 0.033 6.65 4.23 13.48
2/2/2021 10:45:00 PM 1.11 33.998 0.033 6.65 1289.13 13.46
2/2/2021 11:00:00 PM 1.11 33.998 0.033 6.66 1243.82 13.45
2/2/2021 11:15:00 PM 1.13 34.034 0.033 6.66 850.27 13.45
2/2/2021 11:30:00 PM 1.14 34.052 0.033 6.66 471.69 13.44
2/2/2021 11:45:00 PM 1.14 34.052 0.033 6.66 257.37 13.46
2/3/2021 12:00:00 AM 1.17 34.106 0.033 6.64 417.94 13.43
2/3/2021 12:15:00 AM 1.16 34.088 0.033 6.66 909.51 13.43
2/3/2021 12:30:00 AM 1.19 34.142 0.033 6.66 1404.76 13.42
2/3/2021 12:45:00 AM 1.18 34.124 0.033 6.67 1590.77 13.44
2/3/2021 1:00:00 AM 1.19 34.142 0.033 6.67 24.87 13.41
2/3/2021 1:15:00 AM 1.21 34.178 0.033 6.67 5.05 13.42
2/3/2021 1:30:00 AM 1.33 34.394 0.033 6.7 3.89 13.37
2/3/2021 1:45:00 AM 1.44 34.592 0.033 6.71 3.88 13.33
2/3/2021 2:00:00 AM 1.68 35.024 0.033 6.76 3.98 13.19
2/3/2021 2:15:00 AM 1.74 35.132 0.034 6.75 3.89 13.15
2/3/2021 2:30:00 AM 1.87 35.366 0.033 6.78 3.85 13.08
2/3/2021 2:45:00 AM 1.93 35.474 0.034 6.74 3.81 13.07
2/3/2021 3:00:00 AM 1.64 34.952 0.033 6.71 3.64 13.22
2/3/2021 3:15:00 AM 1.72 35.096 0.033 6.72 3.82 13.19
2/3/2021 3:30:00 AM 1.63 34.934 0.033 6.75 3.94 13.23
2/3/2021 3:45:00 AM 1.56 34.808 0.033 6.72 3.84 13.27
2/3/2021 4:00:00 AM 1.43 34.574 0.033 6.73 3.76 13.34
2/3/2021 4:15:00 AM 1.48 34.664 0.033 6.73 3.72 13.32
2/3/2021 4:30:00 AM 1.28 34.304 0.033 6.67 6.19 13.4
2/3/2021 4:45:00 AM 1.29 34.322 0.033 6.66 4.3 13.4
2/3/2021 5:00:00 AM 1.29 34.322 0.033 6.66 3.95 13.39
2/3/2021 5:15:00 AM 1.31 34.358 0.033 6.66 2547.16 13.39
2/3/2021 5:30:00 AM 1.33 34.394 0.033 6.66 2539.37 13.38
2/3/2021 5:45:00 AM 1.33 34.394 0.033 6.67 1145.92 13.37
2/3/2021 6:00:00 AM 1.96 35.528 0.017 6.65 3.95 13.04
2/3/2021 6:15:00 AM 1.8 35.24 0.017 6.72 3.94 13.13
2/3/2021 6:30:00 AM 1.82 35.276 0.018 6.66 3.84 13.12
2/3/2021 6:45:00 AM 1.84 35.312 0.018 6.71 3.94 13.11
2/3/2021 7:00:00 AM 1.87 35.366 0.02 6.71 3.81 13.09
2/3/2021 7:15:00 AM 1.84 35.312 0.019 6.68 3.66 13.13
2/3/2021 7:30:00 AM 1.82 35.276 0.019 6.68 3.9 13.15
2/3/2021 7:45:00 AM 1.76 35.168 0.019 6.69 3.94 13.2
2/3/2021 8:00:00 AM 1.76 35.168 0.02 6.71 3.84 13.22
2/3/2021 8:15:00 AM 1.75 35.15 0.02 6.73 4.01 13.25
2/3/2021 8:30:00 AM 1.76 35.168 0.02 6.69 3.88 13.26
2/3/2021 8:45:00 AM 1.77 35.186 0.02 6.77 3.68 13.31
2/3/2021 9:00:00 AM 1.78 35.204 0.02 6.74 3.71 13.35
2/3/2021 9:15:00 AM 1.78 35.204 0.02 6.78 3.93 13.37
2/3/2021 9:30:00 AM 1.79 35.222 0.019 6.73 4.01 13.42
2/3/2021 9:45:00 AM 1.76 35.168 0.018 6.8 3.84 13.44
2/3/2021 10:00:00 AM 1.9 35.42 0.021 6.77 4.11 13.35
2/3/2021 10:15:00 AM 2.05 35.69 0.021 6.73 4.14 13.27
2/3/2021 10:30:00 AM 1.97 35.546 0.02 6.71 4.09 13.32
2/3/2021 10:45:00 AM 1.82 35.276 0.014 6.74 3.83 13.43
2/3/2021 11:00:00 AM 1.65 34.97 0.032 6.75 70.52 13.53
2/3/2021 11:15:00 AM 1.58 34.844 0.031 6.74 3.95 13.58
2/3/2021 11:30:00 AM 1.61 34.898 0.032 6.75 3.95 13.6
2/3/2021 11:45:00 AM 2.18 35.924 0.019 6.75 4.04 13.27
2/3/2021 12:00:00 PM 1.65 34.97 0.032 6.75 4.16 13.56
2/3/2021 12:15:00 PM 1.66 34.988 0.032 6.75 11.6 13.56
2/3/2021 12:30:00 PM 1.69 35.042 0.032 6.75 10.29 13.55
2/3/2021 12:45:00 PM 1.71 35.078 0.032 6.74 14.78 13.53
2/3/2021 1:00:00 PM 1.74 35.132 0.032 6.74 8.19 13.51
2/3/2021 1:15:00 PM 1.77 35.186 0.032 6.75 10.5 13.49
2/3/2021 1:30:00 PM 1.82 35.276 0.032 6.75 10.98 13.5
2/3/2021 1:45:00 PM 1.85 35.33 0.032 6.75 10.74 13.48
2/3/2021 2:00:00 PM 1.88 35.384 0.032 6.75 9.26 13.47
2/3/2021 2:15:00 PM 1.91 35.438 0.032 6.75 7.67 13.45
2/3/2021 2:30:00 PM 1.94 35.492 0.032 6.75 8.05 13.42
2/3/2021 2:45:00 PM 1.98 35.564 0.032 6.75 26.68 13.4
2/3/2021 3:00:00 PM 2.01 35.618 0.032 6.75 32.62 13.41
2/3/2021 3:15:00 PM 2.04 35.672 0.032 6.75 45.2 13.38
2/3/2021 3:30:00 PM 2.04 35.672 0.032 6.74 50.99 13.38
2/3/2021 3:45:00 PM 2.06 35.708 0.032 6.74 58.13 13.35
2/3/2021 4:00:00 PM 2.07 35.726 0.032 6.74 69.78 13.35
2/3/2021 4:15:00 PM 2.08 35.744 0.032 6.73 82.36 13.34
2/3/2021 4:30:00 PM 2.07 35.726 0.032 6.73 83.17 13.31
2/3/2021 4:45:00 PM 2.06 35.708 0.032 6.72 87.42 13.29
2/3/2021 5:00:00 PM 2.03 35.654 0.032 6.71 92.22 13.3
2/3/2021 5:15:00 PM 2.02 35.636 0.032 6.7 94.4 13.26
2/3/2021 5:30:00 PM 1.99 35.582 0.032 6.7 104.25 13.24
2/3/2021 5:45:00 PM 1.96 35.528 0.032 6.69 107.58 13.22
2/3/2021 6:00:00 PM 1.94 35.492 0.032 6.68 127.91 13.22
2/3/2021 6:15:00 PM 1.91 35.438 0.032 6.68 115.57 13.23
2/3/2021 6:30:00 PM 1.89 35.402 0.032 6.68 124.86 13.22
2/3/2021 6:45:00 PM 1.86 35.348 0.033 6.67 130.23 13.24
2/3/2021 7:00:00 PM 1.85 35.33 0.033 6.67 132.38 13.24
2/3/2021 7:15:00 PM 1.83 35.294 0.033 6.67 134.42 13.26
2/3/2021 7:30:00 PM 1.81 35.258 0.033 6.67 135.97 13.27
2/3/2021 7:45:00 PM 1.78 35.204 0.033 6.67 138.16 13.26
2/3/2021 8:00:00 PM 1.76 35.168 0.033 6.67 140.74 13.28
2/3/2021 8:15:00 PM 1.73 35.114 0.033 6.67 88.6 13.28
2/3/2021 8:30:00 PM 1.69 35.042 0.033 6.67 72.47 13.3
2/3/2021 8:45:00 PM 1.66 34.988 0.033 6.67 73.23 13.3
2/3/2021 9:00:00 PM 1.62 34.916 0.033 6.66 75.53 13.33
2/3/2021 9:15:00 PM 1.58 34.844 0.033 6.66 76.81 13.35
2/3/2021 9:30:00 PM 1.53 34.754 0.033 6.66 105.33 13.37
2/3/2021 9:45:00 PM 1.49 34.682 0.033 6.66 118.21 13.38
2/3/2021 10:00:00 PM 1.44 34.592 0.033 6.65 128.45 13.39
2/3/2021 10:15:00 PM 1.4 34.52 0.033 6.66 132.21 13.42
2/3/2021 10:30:00 PM 1.35 34.43 0.033 6.65 135.07 13.45
2/3/2021 10:45:00 PM 1.31 34.358 0.033 6.66 141.48 13.46
2/3/2021 11:00:00 PM 1.27 34.286 0.033 6.65 140.89 13.46
2/3/2021 11:15:00 PM 1.23 34.214 0.033 6.65 144.55 13.49
2/3/2021 11:30:00 PM 1.18 34.124 0.033 6.65 154.18 13.5
2/3/2021 11:45:00 PM 1.14 34.052 0.033 6.65 153.17 13.53
2/4/2021 12:00:00 AM 1.1 33.98 0.033 6.65 153.5 13.54
2/4/2021 12:15:00 AM 1.06 33.908 0.033 6.65 152.97 13.55
2/4/2021 12:30:00 AM 1.02 33.836 0.033 6.65 148.55 13.58
2/4/2021 12:45:00 AM 0.97 33.746 0.033 6.65 145.66 13.6
2/4/2021 1:00:00 AM 0.93 33.674 0.033 6.64 147.38 13.61
2/4/2021 1:15:00 AM 0.89 33.602 0.033 6.64 147.47 13.65
2/4/2021 1:30:00 AM 0.85 33.53 0.033 6.65 156.59 13.65
2/4/2021 1:45:00 AM 0.82 33.476 0.033 6.64 197.7 13.67
2/4/2021 2:00:00 AM 0.79 33.422 0.033 6.65 253.72 13.68
2/4/2021 2:15:00 AM 0.76 33.368 0.033 6.65 297.47 13.7
2/4/2021 2:30:00 AM 0.73 33.314 0.033 6.65 367.61 13.74
2/4/2021 2:45:00 AM 0.69 33.242 0.033 6.65 376.4 13.73
2/4/2021 3:00:00 AM 0.64 33.152 0.033 6.65 342.23 13.76
2/4/2021 3:15:00 AM 0.61 33.098 0.033 6.65 295.62 13.79
2/4/2021 3:30:00 AM 0.58 33.044 0.033 6.65 247.44 13.79
2/4/2021 3:45:00 AM 0.55 32.99 0.033 6.64 213.22 13.79
2/4/2021 4:00:00 AM 0.52 32.936 0.033 6.65 204.75 13.8
2/4/2021 4:15:00 AM 0.5 32.9 0.033 6.64 188.81 13.83
2/4/2021 4:30:00 AM 0.47 32.846 0.033 6.64 170.78 13.84
2/4/2021 4:45:00 AM 0.45 32.81 0.033 6.64 166.07 13.85
2/4/2021 5:00:00 AM 0.42 32.756 0.033 6.64 156.27 13.89
2/4/2021 5:15:00 AM 0.4 32.72 0.033 6.64 128.78 13.89
2/4/2021 5:30:00 AM 0.38 32.684 0.033 6.64 121.66 13.88
2/4/2021 5:45:00 AM 0.35 32.63 0.033 6.64 110.76 13.89
2/4/2021 6:00:00 AM 0.33 32.594 0.033 6.65 104.23 13.91
2/4/2021 6:15:00 AM 0.31 32.558 0.033 6.64 94.16 13.93
2/4/2021 6:30:00 AM 0.3 32.54 0.033 6.65 87.71 13.93
2/4/2021 6:45:00 AM 0.27 32.486 0.033 6.65 76.33 13.93
2/4/2021 7:00:00 AM 0.26 32.468 0.033 6.65 70.19 13.94
2/4/2021 7:15:00 AM 0.25 32.45 0.033 6.65 68.47 13.97
2/4/2021 7:30:00 AM 0.23 32.414 0.033 6.65 63.98 13.97
2/4/2021 7:45:00 AM 0.22 32.396 0.033 6.66 58.56 14.01
2/4/2021 8:00:00 AM 0.21 32.378 0.033 6.66 47.75 14.03
2/4/2021 8:15:00 AM 0.2 32.36 0.033 6.67 45.65 14.03
2/4/2021 8:30:00 AM 0.2 32.36 0.033 6.67 43.08 14.07
2/4/2021 8:45:00 AM 0.19 32.342 0.033 6.68 41.61 14.12
2/4/2021 9:00:00 AM 0.19 32.342 0.033 6.68 40.06 14.12
2/4/2021 9:15:00 AM 0.2 32.36 0.033 6.69 40.09 14.12
2/4/2021 9:30:00 AM 0.23 32.414 0.033 6.69 39.33 14.13
2/4/2021 9:45:00 AM -99999.99 -179968 -99999.99 -99999.99 -99999.99 -99999.99
2/4/2021 10:00:00 AM 0.31 32.558 0.028 6.77 2.31 14.25
2/4/2021 10:15:00 AM 0.42 32.756 0.031 6.77 3.08 14.23
2/4/2021 10:30:00 AM 0.54 32.972 0.031 6.77 2.9 14.2
2/4/2021 10:45:00 AM 0.67 33.206 0.03 6.78 3.05 14.16
2/4/2021 11:00:00 AM 0.81 33.458 0.03 6.78 2.98 14.12
2/4/2021 11:15:00 AM 0.95 33.71 0.03 6.78 3 14.07
2/4/2021 11:30:00 AM 1.1 33.98 0.03 6.79 2.77 14.03
2/4/2021 11:45:00 AM 1.26 34.268 0.03 6.8 2.83 13.97
2/4/2021 12:00:00 PM 1.42 34.556 0.03 6.8 2.88 13.91
2/4/2021 12:15:00 PM 1.57 34.826 0.03 6.8 2.98 13.84
2/4/2021 12:30:00 PM 1.76 35.168 0.03 6.81 2.82 13.77
2/4/2021 12:45:00 PM 1.93 35.474 0.03 6.81 2.78 13.7
2/4/2021 1:00:00 PM 2.08 35.744 0.03 6.8 2.7 13.63
2/4/2021 1:15:00 PM 2.19 35.942 0.03 6.8 2.85 13.58
2/4/2021 1:30:00 PM 2.28 36.104 0.03 6.8 2.83 13.52
2/4/2021 1:45:00 PM 2.38 36.284 0.03 6.8 2.91 13.46
2/4/2021 2:00:00 PM 2.46 36.428 0.03 6.8 2.75 13.41
2/4/2021 2:15:00 PM 2.55 36.59 0.03 6.8 2.82 13.36
2/4/2021 2:30:00 PM 2.63 36.734 0.03 6.8 2.71 13.33
2/4/2021 2:45:00 PM 2.7 36.86 0.03 6.8 2.79 13.31
2/4/2021 3:00:00 PM 2.72 36.896 0.03 6.79 2.72 13.26
2/4/2021 3:15:00 PM 2.72 36.896 0.03 6.78 2.72 13.25
2/4/2021 3:30:00 PM 2.71 36.878 0.03 6.78 2.76 13.24
2/4/2021 3:45:00 PM 2.69 36.842 0.03 6.78 2.76 13.24
2/4/2021 4:00:00 PM 2.67 36.806 0.03 6.77 2.78 13.24
2/4/2021 4:15:00 PM 2.64 36.752 0.03 6.76 2.78 13.22
2/4/2021 4:30:00 PM 2.6 36.68 0.03 6.75 2.78 13.23
2/4/2021 4:45:00 PM 2.56 36.608 0.03 6.75 2.74 13.22
2/4/2021 5:00:00 PM 2.51 36.518 0.03 6.75 2.72 13.22
2/4/2021 5:15:00 PM 2.47 36.446 0.03 6.75 2.88 13.21
2/4/2021 5:30:00 PM 2.43 36.374 0.03 6.73 2.86 13.19
2/4/2021 5:45:00 PM 2.38 36.284 0.03 6.72 2.81 13.19
2/4/2021 6:00:00 PM 2.33 36.194 0.03 6.72 2.71 13.19
2/4/2021 6:15:00 PM 2.28 36.104 0.03 6.71 2.68 13.2
2/4/2021 6:30:00 PM 2.23 36.014 0.03 6.71 2.72 13.22
2/4/2021 6:45:00 PM 2.17 35.906 0.03 6.71 2.72 13.23
2/4/2021 7:00:00 PM 2.12 35.816 0.03 6.71 2.72 13.25
2/4/2021 7:15:00 PM 2.06 35.708 0.03 6.71 2.75 13.27
2/4/2021 7:30:00 PM 2.02 35.636 0.031 6.7 2.74 13.29
2/4/2021 7:45:00 PM 1.97 35.546 0.031 6.7 2.81 13.31
2/4/2021 8:00:00 PM 1.92 35.456 0.031 6.7 2.7 13.33
2/4/2021 8:15:00 PM 1.88 35.384 0.031 6.71 2.81 13.34
2/4/2021 8:30:00 PM 1.84 35.312 0.031 6.7 2.8 13.36
2/4/2021 8:45:00 PM 1.8 35.24 0.031 6.7 2.84 13.37
2/4/2021 9:00:00 PM 1.76 35.168 0.031 6.7 2.76 13.38
2/4/2021 9:15:00 PM 1.72 35.096 0.031 6.7 2.75 13.4
2/4/2021 9:30:00 PM 1.69 35.042 0.031 6.7 2.68 13.41
2/4/2021 9:45:00 PM 1.66 34.988 0.031 6.7 2.81 13.42
2/4/2021 10:00:00 PM 1.63 34.934 0.031 6.69 2.85 13.43
2/4/2021 10:15:00 PM 1.61 34.898 0.031 6.7 2.72 13.43
2/4/2021 10:30:00 PM 1.6 34.88 0.031 6.69 2.72 13.44
2/4/2021 10:45:00 PM 1.58 34.844 0.031 6.69 2.75 13.45
2/4/2021 11:00:00 PM 1.57 34.826 0.031 6.69 2.86 13.44
2/4/2021 11:15:00 PM 1.56 34.808 0.031 6.7 2.7 13.45
2/4/2021 11:30:00 PM 1.56 34.808 0.031 6.69 2.75 13.45
2/4/2021 11:45:00 PM 1.56 34.808 0.031 6.69 2.78 13.45
2/5/2021 12:00:00 AM 1.56 34.808 0.031 6.69 2.79 13.44
2/5/2021 12:15:00 AM 1.56 34.808 0.031 6.69 2.8 13.44
2/5/2021 12:30:00 AM 1.57 34.826 0.031 6.7 2.76 13.43
2/5/2021 12:45:00 AM 1.57 34.826 0.031 6.7 2.72 13.43
2/5/2021 1:00:00 AM 1.58 34.844 0.031 6.7 2.78 13.43
2/5/2021 1:15:00 AM 1.57 34.826 0.031 6.69 2.87 13.43
2/5/2021 1:30:00 AM 1.59 34.862 0.031 6.69 2.8 13.42
2/5/2021 1:45:00 AM 1.61 34.898 0.031 6.7 2.79 13.41
2/5/2021 2:00:00 AM 1.63 34.934 0.031 6.69 2.83 13.39
2/5/2021 2:15:00 AM 1.64 34.952 0.031 6.7 2.75 13.39
2/5/2021 2:30:00 AM 1.65 34.97 0.031 6.71 2.71 13.38
2/5/2021 2:45:00 AM 1.66 34.988 0.031 6.71 2.79 13.37
2/5/2021 3:00:00 AM 1.6 34.88 0.031 6.7 2.82 13.37
2/5/2021 3:15:00 AM 1.59 34.862 0.031 6.7 2.73 13.36
2/5/2021 3:30:00 AM 1.54 34.772 0.031 6.7 2.86 13.36
2/5/2021 3:45:00 AM 1.53 34.754 0.031 6.7 2.76 13.37
2/5/2021 4:00:00 AM 1.54 34.772 0.031 6.7 2.81 13.37
2/5/2021 4:15:00 AM 1.55 34.79 0.03 6.71 2.75 13.37
2/5/2021 4:30:00 AM 1.56 34.808 0.03 6.7 2.78 13.37
2/5/2021 4:45:00 AM 1.54 34.772 0.03 6.7 2.81 13.36
2/5/2021 5:00:00 AM 1.55 34.79 0.03 6.69 2.86 13.36
2/5/2021 5:15:00 AM 1.54 34.772 0.03 6.7 2.71 13.35
2/5/2021 5:30:00 AM 1.53 34.754 0.03 6.7 2.73 13.36
2/5/2021 5:45:00 AM 1.51 34.718 0.03 6.7 2.73 13.36
2/5/2021 6:00:00 AM 1.54 34.772 0.03 6.7 2.76 13.36
2/5/2021 6:15:00 AM 1.56 34.808 0.03 6.7 2.78 13.36
2/5/2021 6:30:00 AM 1.58 34.844 0.03 6.7 2.87 13.36
2/5/2021 6:45:00 AM 1.61 34.898 0.03 6.7 2.76 13.35
2/5/2021 7:00:00 AM 1.63 34.934 0.03 6.7 2.75 13.34
2/5/2021 7:15:00 AM 1.66 34.988 0.031 6.7 2.63 13.34
2/5/2021 7:30:00 AM 1.67 35.006 0.03 6.7 2.79 13.33
2/5/2021 7:45:00 AM 1.7 35.06 0.03 6.71 2.74 13.33
2/5/2021 8:00:00 AM 1.73 35.114 0.03 6.72 2.76 13.34
2/5/2021 8:15:00 AM 1.76 35.168 0.03 6.72 2.72 13.34
2/5/2021 8:30:00 AM 1.79 35.222 0.03 6.72 2.71 13.35
2/5/2021 8:45:00 AM 1.83 35.294 0.03 6.74 2.76 13.37
2/5/2021 9:00:00 AM 1.88 35.384 0.03 6.75 2.8 13.41
2/5/2021 9:15:00 AM 1.92 35.456 0.03 6.76 2.75 13.42
2/5/2021 9:30:00 AM 1.97 35.546 0.03 6.77 2.71 13.42
2/5/2021 9:45:00 AM 2.01 35.618 0.03 6.77 2.81 13.42
2/5/2021 10:00:00 AM 2.06 35.708 0.03 6.79 2.76 13.42
2/5/2021 10:15:00 AM 2.14 35.852 0.03 6.8 2.71 13.42
2/5/2021 10:30:00 AM 2.2 35.96 0.03 6.8